<?xml version="1.0" encoding="UTF-8" standalone="no" ?>
<gpx xmlns="http://www.topografix.com/GPX/1/1" xmlns:xsi="http://www.w3.org/2001/XMLSchema-instance" xsi:schemaLocation="http://www.topografix.com/GPX/1/1 http://www.topografix.com/GPX/1/1/gpx.xsd" version="1.1" creator="VisuGPX - https://www.visugpx.com">
  <metadata>
    <name>Pollionnay 69 - les 3 cols</name>
    <desc><![CDATA[Parcours classique en partant de Pollionnay. ]]></desc>
  </metadata>
  <trk>
    <name><![CDATA[2 sept. 2012 09:09:53]]></name>
    <cmt><![CDATA[2 sept. 2012 09:09:53]]></cmt>
    <trkseg>
      <trkpt lat="45.76921" lon="4.66232">
        <ele>421</ele>
        <time>2012-09-02T07:09:53Z</time>
      </trkpt>
      <trkpt lat="45.76927" lon="4.66227">
        <ele>423</ele>
        <time>2012-09-02T07:09:56Z</time>
      </trkpt>
      <trkpt lat="45.76928" lon="4.66235">
        <ele>424</ele>
        <time>2012-09-02T07:10:16Z</time>
      </trkpt>
      <trkpt lat="45.76933" lon="4.66236">
        <ele>422</ele>
        <time>2012-09-02T07:10:24Z</time>
      </trkpt>
      <trkpt lat="45.76938" lon="4.66239">
        <ele>421</ele>
        <time>2012-09-02T07:10:27Z</time>
      </trkpt>
      <trkpt lat="45.76942" lon="4.6624">
        <ele>420</ele>
        <time>2012-09-02T07:10:29Z</time>
      </trkpt>
      <trkpt lat="45.76948" lon="4.6624">
        <ele>420</ele>
        <time>2012-09-02T07:10:31Z</time>
      </trkpt>
      <trkpt lat="45.76951" lon="4.66233">
        <ele>420</ele>
        <time>2012-09-02T07:10:34Z</time>
      </trkpt>
      <trkpt lat="45.76949" lon="4.66225">
        <ele>420</ele>
        <time>2012-09-02T07:10:36Z</time>
      </trkpt>
      <trkpt lat="45.76946" lon="4.66219">
        <ele>420</ele>
        <time>2012-09-02T07:10:38Z</time>
      </trkpt>
      <trkpt lat="45.76942" lon="4.66213">
        <ele>420</ele>
        <time>2012-09-02T07:10:40Z</time>
      </trkpt>
      <trkpt lat="45.76938" lon="4.66206">
        <ele>421</ele>
        <time>2012-09-02T07:10:43Z</time>
      </trkpt>
      <trkpt lat="45.76933" lon="4.662">
        <ele>422</ele>
        <time>2012-09-02T07:10:46Z</time>
      </trkpt>
      <trkpt lat="45.76929" lon="4.66195">
        <ele>422</ele>
        <time>2012-09-02T07:10:48Z</time>
      </trkpt>
      <trkpt lat="45.76924" lon="4.6619">
        <ele>423</ele>
        <time>2012-09-02T07:10:50Z</time>
      </trkpt>
      <trkpt lat="45.7692" lon="4.66186">
        <ele>423</ele>
        <time>2012-09-02T07:10:52Z</time>
      </trkpt>
      <trkpt lat="45.76916" lon="4.66182">
        <ele>423</ele>
        <time>2012-09-02T07:10:54Z</time>
      </trkpt>
      <trkpt lat="45.76912" lon="4.66179">
        <ele>424</ele>
        <time>2012-09-02T07:10:56Z</time>
      </trkpt>
      <trkpt lat="45.76907" lon="4.66177">
        <ele>424</ele>
        <time>2012-09-02T07:10:58Z</time>
      </trkpt>
      <trkpt lat="45.769" lon="4.66173">
        <ele>424</ele>
        <time>2012-09-02T07:11:01Z</time>
      </trkpt>
      <trkpt lat="45.76894" lon="4.6617">
        <ele>425</ele>
        <time>2012-09-02T07:11:04Z</time>
      </trkpt>
      <trkpt lat="45.76889" lon="4.66169">
        <ele>425</ele>
        <time>2012-09-02T07:11:06Z</time>
      </trkpt>
      <trkpt lat="45.76884" lon="4.66169">
        <ele>425</ele>
        <time>2012-09-02T07:11:08Z</time>
      </trkpt>
      <trkpt lat="45.76878" lon="4.6617">
        <ele>426</ele>
        <time>2012-09-02T07:11:11Z</time>
      </trkpt>
      <trkpt lat="45.7687" lon="4.66173">
        <ele>426</ele>
        <time>2012-09-02T07:11:14Z</time>
      </trkpt>
      <trkpt lat="45.76864" lon="4.66174">
        <ele>426</ele>
        <time>2012-09-02T07:11:16Z</time>
      </trkpt>
      <trkpt lat="45.76856" lon="4.66177">
        <ele>426</ele>
        <time>2012-09-02T07:11:20Z</time>
      </trkpt>
      <trkpt lat="45.76848" lon="4.6618">
        <ele>427</ele>
        <time>2012-09-02T07:11:23Z</time>
      </trkpt>
      <trkpt lat="45.76843" lon="4.66182">
        <ele>427</ele>
        <time>2012-09-02T07:11:25Z</time>
      </trkpt>
      <trkpt lat="45.76837" lon="4.66186">
        <ele>428</ele>
        <time>2012-09-02T07:11:28Z</time>
      </trkpt>
      <trkpt lat="45.76832" lon="4.6619">
        <ele>428</ele>
        <time>2012-09-02T07:11:30Z</time>
      </trkpt>
      <trkpt lat="45.76828" lon="4.66194">
        <ele>428</ele>
        <time>2012-09-02T07:11:32Z</time>
      </trkpt>
      <trkpt lat="45.76821" lon="4.66198">
        <ele>428</ele>
        <time>2012-09-02T07:11:35Z</time>
      </trkpt>
      <trkpt lat="45.76812" lon="4.66202">
        <ele>427</ele>
        <time>2012-09-02T07:11:39Z</time>
      </trkpt>
      <trkpt lat="45.76802" lon="4.66203">
        <ele>427</ele>
        <time>2012-09-02T07:11:43Z</time>
      </trkpt>
      <trkpt lat="45.76797" lon="4.66204">
        <ele>426</ele>
        <time>2012-09-02T07:11:45Z</time>
      </trkpt>
      <trkpt lat="45.76793" lon="4.66206">
        <ele>426</ele>
        <time>2012-09-02T07:11:47Z</time>
      </trkpt>
      <trkpt lat="45.76787" lon="4.66208">
        <ele>426</ele>
        <time>2012-09-02T07:11:49Z</time>
      </trkpt>
      <trkpt lat="45.76782" lon="4.6621">
        <ele>426</ele>
        <time>2012-09-02T07:11:51Z</time>
      </trkpt>
      <trkpt lat="45.76776" lon="4.66211">
        <ele>426</ele>
        <time>2012-09-02T07:11:53Z</time>
      </trkpt>
      <trkpt lat="45.7677" lon="4.66212">
        <ele>427</ele>
        <time>2012-09-02T07:11:56Z</time>
      </trkpt>
      <trkpt lat="45.76764" lon="4.66214">
        <ele>427</ele>
        <time>2012-09-02T07:11:58Z</time>
      </trkpt>
      <trkpt lat="45.76757" lon="4.66214">
        <ele>427</ele>
        <time>2012-09-02T07:12:00Z</time>
      </trkpt>
      <trkpt lat="45.76751" lon="4.66213">
        <ele>426</ele>
        <time>2012-09-02T07:12:03Z</time>
      </trkpt>
      <trkpt lat="45.76747" lon="4.66212">
        <ele>426</ele>
        <time>2012-09-02T07:12:05Z</time>
      </trkpt>
      <trkpt lat="45.76741" lon="4.66208">
        <ele>426</ele>
        <time>2012-09-02T07:12:07Z</time>
      </trkpt>
      <trkpt lat="45.76736" lon="4.66204">
        <ele>426</ele>
        <time>2012-09-02T07:12:09Z</time>
      </trkpt>
      <trkpt lat="45.76731" lon="4.66199">
        <ele>426</ele>
        <time>2012-09-02T07:12:11Z</time>
      </trkpt>
      <trkpt lat="45.76728" lon="4.66192">
        <ele>425</ele>
        <time>2012-09-02T07:12:13Z</time>
      </trkpt>
      <trkpt lat="45.76724" lon="4.66183">
        <ele>425</ele>
        <time>2012-09-02T07:12:16Z</time>
      </trkpt>
      <trkpt lat="45.76721" lon="4.66177">
        <ele>424</ele>
        <time>2012-09-02T07:12:18Z</time>
      </trkpt>
      <trkpt lat="45.76712" lon="4.66167">
        <ele>423</ele>
        <time>2012-09-02T07:12:22Z</time>
      </trkpt>
      <trkpt lat="45.76709" lon="4.66159">
        <ele>424</ele>
        <time>2012-09-02T07:12:24Z</time>
      </trkpt>
      <trkpt lat="45.76706" lon="4.66152">
        <ele>424</ele>
        <time>2012-09-02T07:12:26Z</time>
      </trkpt>
      <trkpt lat="45.767" lon="4.6614">
        <ele>423</ele>
        <time>2012-09-02T07:12:30Z</time>
      </trkpt>
      <trkpt lat="45.76697" lon="4.66134">
        <ele>423</ele>
        <time>2012-09-02T07:12:32Z</time>
      </trkpt>
      <trkpt lat="45.76694" lon="4.66128">
        <ele>423</ele>
        <time>2012-09-02T07:12:34Z</time>
      </trkpt>
      <trkpt lat="45.7669" lon="4.66123">
        <ele>423</ele>
        <time>2012-09-02T07:12:36Z</time>
      </trkpt>
      <trkpt lat="45.76685" lon="4.66118">
        <ele>424</ele>
        <time>2012-09-02T07:12:38Z</time>
      </trkpt>
      <trkpt lat="45.76681" lon="4.66114">
        <ele>424</ele>
        <time>2012-09-02T07:12:40Z</time>
      </trkpt>
      <trkpt lat="45.76676" lon="4.66111">
        <ele>424</ele>
        <time>2012-09-02T07:12:42Z</time>
      </trkpt>
      <trkpt lat="45.7667" lon="4.66107">
        <ele>424</ele>
        <time>2012-09-02T07:12:44Z</time>
      </trkpt>
      <trkpt lat="45.76665" lon="4.66104">
        <ele>424</ele>
        <time>2012-09-02T07:12:46Z</time>
      </trkpt>
      <trkpt lat="45.7666" lon="4.66101">
        <ele>424</ele>
        <time>2012-09-02T07:12:48Z</time>
      </trkpt>
      <trkpt lat="45.76655" lon="4.66099">
        <ele>426</ele>
        <time>2012-09-02T07:12:50Z</time>
      </trkpt>
      <trkpt lat="45.76649" lon="4.66097">
        <ele>426</ele>
        <time>2012-09-02T07:12:52Z</time>
      </trkpt>
      <trkpt lat="45.76644" lon="4.66095">
        <ele>426</ele>
        <time>2012-09-02T07:12:54Z</time>
      </trkpt>
      <trkpt lat="45.7664" lon="4.66092">
        <ele>426</ele>
        <time>2012-09-02T07:12:56Z</time>
      </trkpt>
      <trkpt lat="45.76634" lon="4.6609">
        <ele>426</ele>
        <time>2012-09-02T07:12:58Z</time>
      </trkpt>
      <trkpt lat="45.76628" lon="4.66089">
        <ele>425</ele>
        <time>2012-09-02T07:13:00Z</time>
      </trkpt>
      <trkpt lat="45.76622" lon="4.6609">
        <ele>425</ele>
        <time>2012-09-02T07:13:02Z</time>
      </trkpt>
      <trkpt lat="45.76617" lon="4.66091">
        <ele>424</ele>
        <time>2012-09-02T07:13:04Z</time>
      </trkpt>
      <trkpt lat="45.76612" lon="4.66089">
        <ele>424</ele>
        <time>2012-09-02T07:13:06Z</time>
      </trkpt>
      <trkpt lat="45.76606" lon="4.66089">
        <ele>423</ele>
        <time>2012-09-02T07:13:08Z</time>
      </trkpt>
      <trkpt lat="45.766" lon="4.6609">
        <ele>423</ele>
        <time>2012-09-02T07:13:10Z</time>
      </trkpt>
      <trkpt lat="45.76594" lon="4.66092">
        <ele>423</ele>
        <time>2012-09-02T07:13:12Z</time>
      </trkpt>
      <trkpt lat="45.76589" lon="4.66095">
        <ele>423</ele>
        <time>2012-09-02T07:13:14Z</time>
      </trkpt>
      <trkpt lat="45.76582" lon="4.66099">
        <ele>423</ele>
        <time>2012-09-02T07:13:16Z</time>
      </trkpt>
      <trkpt lat="45.76577" lon="4.66101">
        <ele>423</ele>
        <time>2012-09-02T07:13:18Z</time>
      </trkpt>
      <trkpt lat="45.76572" lon="4.66105">
        <ele>423</ele>
        <time>2012-09-02T07:13:20Z</time>
      </trkpt>
      <trkpt lat="45.76566" lon="4.66109">
        <ele>424</ele>
        <time>2012-09-02T07:13:22Z</time>
      </trkpt>
      <trkpt lat="45.76561" lon="4.66111">
        <ele>424</ele>
        <time>2012-09-02T07:13:24Z</time>
      </trkpt>
      <trkpt lat="45.7655" lon="4.66112">
        <ele>424</ele>
        <time>2012-09-02T07:13:29Z</time>
      </trkpt>
      <trkpt lat="45.76544" lon="4.66113">
        <ele>425</ele>
        <time>2012-09-02T07:13:32Z</time>
      </trkpt>
      <trkpt lat="45.76533" lon="4.66114">
        <ele>426</ele>
        <time>2012-09-02T07:13:37Z</time>
      </trkpt>
      <trkpt lat="45.76523" lon="4.66112">
        <ele>427</ele>
        <time>2012-09-02T07:13:41Z</time>
      </trkpt>
      <trkpt lat="45.76514" lon="4.66113">
        <ele>428</ele>
        <time>2012-09-02T07:13:46Z</time>
      </trkpt>
      <trkpt lat="45.76509" lon="4.66109">
        <ele>429</ele>
        <time>2012-09-02T07:13:48Z</time>
      </trkpt>
      <trkpt lat="45.76505" lon="4.66103">
        <ele>432</ele>
        <time>2012-09-02T07:13:51Z</time>
      </trkpt>
      <trkpt lat="45.76503" lon="4.66097">
        <ele>432</ele>
        <time>2012-09-02T07:13:53Z</time>
      </trkpt>
      <trkpt lat="45.76501" lon="4.6609">
        <ele>432</ele>
        <time>2012-09-02T07:13:55Z</time>
      </trkpt>
      <trkpt lat="45.76499" lon="4.66083">
        <ele>431</ele>
        <time>2012-09-02T07:13:57Z</time>
      </trkpt>
      <trkpt lat="45.76499" lon="4.66076">
        <ele>430</ele>
        <time>2012-09-02T07:14:00Z</time>
      </trkpt>
      <trkpt lat="45.765" lon="4.66068">
        <ele>429</ele>
        <time>2012-09-02T07:14:03Z</time>
      </trkpt>
      <trkpt lat="45.76504" lon="4.66054">
        <ele>429</ele>
        <time>2012-09-02T07:14:08Z</time>
      </trkpt>
      <trkpt lat="45.76504" lon="4.66048">
        <ele>428</ele>
        <time>2012-09-02T07:14:10Z</time>
      </trkpt>
      <trkpt lat="45.76507" lon="4.66042">
        <ele>428</ele>
        <time>2012-09-02T07:14:12Z</time>
      </trkpt>
      <trkpt lat="45.76509" lon="4.66035">
        <ele>428</ele>
        <time>2012-09-02T07:14:14Z</time>
      </trkpt>
      <trkpt lat="45.7651" lon="4.66028">
        <ele>429</ele>
        <time>2012-09-02T07:14:16Z</time>
      </trkpt>
      <trkpt lat="45.76511" lon="4.66021">
        <ele>429</ele>
        <time>2012-09-02T07:14:18Z</time>
      </trkpt>
      <trkpt lat="45.76513" lon="4.66013">
        <ele>430</ele>
        <time>2012-09-02T07:14:21Z</time>
      </trkpt>
      <trkpt lat="45.76514" lon="4.66005">
        <ele>431</ele>
        <time>2012-09-02T07:14:24Z</time>
      </trkpt>
      <trkpt lat="45.76518" lon="4.65999">
        <ele>432</ele>
        <time>2012-09-02T07:14:28Z</time>
      </trkpt>
      <trkpt lat="45.76523" lon="4.65995">
        <ele>434</ele>
        <time>2012-09-02T07:14:32Z</time>
      </trkpt>
      <trkpt lat="45.76527" lon="4.65994">
        <ele>434</ele>
        <time>2012-09-02T07:14:34Z</time>
      </trkpt>
      <trkpt lat="45.76532" lon="4.65993">
        <ele>435</ele>
        <time>2012-09-02T07:14:36Z</time>
      </trkpt>
      <trkpt lat="45.76538" lon="4.6599">
        <ele>436</ele>
        <time>2012-09-02T07:14:38Z</time>
      </trkpt>
      <trkpt lat="45.76544" lon="4.65988">
        <ele>436</ele>
        <time>2012-09-02T07:14:41Z</time>
      </trkpt>
      <trkpt lat="45.7655" lon="4.65986">
        <ele>437</ele>
        <time>2012-09-02T07:14:44Z</time>
      </trkpt>
      <trkpt lat="45.76554" lon="4.65985">
        <ele>437</ele>
        <time>2012-09-02T07:14:46Z</time>
      </trkpt>
      <trkpt lat="45.76564" lon="4.65983">
        <ele>437</ele>
        <time>2012-09-02T07:14:50Z</time>
      </trkpt>
      <trkpt lat="45.76573" lon="4.65981">
        <ele>438</ele>
        <time>2012-09-02T07:14:54Z</time>
      </trkpt>
      <trkpt lat="45.76578" lon="4.6598">
        <ele>438</ele>
        <time>2012-09-02T07:14:56Z</time>
      </trkpt>
      <trkpt lat="45.76583" lon="4.6598">
        <ele>439</ele>
        <time>2012-09-02T07:14:58Z</time>
      </trkpt>
      <trkpt lat="45.7659" lon="4.65979">
        <ele>439</ele>
        <time>2012-09-02T07:15:01Z</time>
      </trkpt>
      <trkpt lat="45.76594" lon="4.65979">
        <ele>440</ele>
        <time>2012-09-02T07:15:03Z</time>
      </trkpt>
      <trkpt lat="45.76604" lon="4.65977">
        <ele>442</ele>
        <time>2012-09-02T07:15:07Z</time>
      </trkpt>
      <trkpt lat="45.76609" lon="4.65976">
        <ele>442</ele>
        <time>2012-09-02T07:15:09Z</time>
      </trkpt>
      <trkpt lat="45.76614" lon="4.65975">
        <ele>443</ele>
        <time>2012-09-02T07:15:11Z</time>
      </trkpt>
      <trkpt lat="45.76621" lon="4.65975">
        <ele>443</ele>
        <time>2012-09-02T07:15:14Z</time>
      </trkpt>
      <trkpt lat="45.76626" lon="4.65974">
        <ele>443</ele>
        <time>2012-09-02T07:15:16Z</time>
      </trkpt>
      <trkpt lat="45.76633" lon="4.65975">
        <ele>444</ele>
        <time>2012-09-02T07:15:19Z</time>
      </trkpt>
      <trkpt lat="45.76638" lon="4.65977">
        <ele>444</ele>
        <time>2012-09-02T07:15:21Z</time>
      </trkpt>
      <trkpt lat="45.76647" lon="4.65979">
        <ele>445</ele>
        <time>2012-09-02T07:15:25Z</time>
      </trkpt>
      <trkpt lat="45.76652" lon="4.6598">
        <ele>445</ele>
        <time>2012-09-02T07:15:27Z</time>
      </trkpt>
      <trkpt lat="45.76657" lon="4.65982">
        <ele>444</ele>
        <time>2012-09-02T07:15:29Z</time>
      </trkpt>
      <trkpt lat="45.76668" lon="4.65983">
        <ele>443</ele>
        <time>2012-09-02T07:15:34Z</time>
      </trkpt>
      <trkpt lat="45.76672" lon="4.65985">
        <ele>444</ele>
        <time>2012-09-02T07:15:36Z</time>
      </trkpt>
      <trkpt lat="45.76677" lon="4.65986">
        <ele>444</ele>
        <time>2012-09-02T07:15:38Z</time>
      </trkpt>
      <trkpt lat="45.76682" lon="4.65986">
        <ele>444</ele>
        <time>2012-09-02T07:15:40Z</time>
      </trkpt>
      <trkpt lat="45.76689" lon="4.65986">
        <ele>446</ele>
        <time>2012-09-02T07:15:43Z</time>
      </trkpt>
      <trkpt lat="45.76693" lon="4.65986">
        <ele>446</ele>
        <time>2012-09-02T07:15:45Z</time>
      </trkpt>
      <trkpt lat="45.76698" lon="4.65985">
        <ele>446</ele>
        <time>2012-09-02T07:15:47Z</time>
      </trkpt>
      <trkpt lat="45.76709" lon="4.65986">
        <ele>446</ele>
        <time>2012-09-02T07:15:52Z</time>
      </trkpt>
      <trkpt lat="45.76714" lon="4.65986">
        <ele>447</ele>
        <time>2012-09-02T07:15:54Z</time>
      </trkpt>
      <trkpt lat="45.76724" lon="4.65984">
        <ele>448</ele>
        <time>2012-09-02T07:15:59Z</time>
      </trkpt>
      <trkpt lat="45.76731" lon="4.65983">
        <ele>448</ele>
        <time>2012-09-02T07:16:02Z</time>
      </trkpt>
      <trkpt lat="45.76736" lon="4.65982">
        <ele>448</ele>
        <time>2012-09-02T07:16:04Z</time>
      </trkpt>
      <trkpt lat="45.76743" lon="4.65982">
        <ele>449</ele>
        <time>2012-09-02T07:16:07Z</time>
      </trkpt>
      <trkpt lat="45.76748" lon="4.65982">
        <ele>450</ele>
        <time>2012-09-02T07:16:09Z</time>
      </trkpt>
      <trkpt lat="45.76754" lon="4.65983">
        <ele>451</ele>
        <time>2012-09-02T07:16:12Z</time>
      </trkpt>
      <trkpt lat="45.76759" lon="4.6598">
        <ele>451</ele>
        <time>2012-09-02T07:16:14Z</time>
      </trkpt>
      <trkpt lat="45.76763" lon="4.65978">
        <ele>452</ele>
        <time>2012-09-02T07:16:16Z</time>
      </trkpt>
      <trkpt lat="45.76768" lon="4.65975">
        <ele>452</ele>
        <time>2012-09-02T07:16:18Z</time>
      </trkpt>
      <trkpt lat="45.76772" lon="4.65972">
        <ele>453</ele>
        <time>2012-09-02T07:16:20Z</time>
      </trkpt>
      <trkpt lat="45.76778" lon="4.65969">
        <ele>453</ele>
        <time>2012-09-02T07:16:23Z</time>
      </trkpt>
      <trkpt lat="45.76785" lon="4.65963">
        <ele>454</ele>
        <time>2012-09-02T07:16:26Z</time>
      </trkpt>
      <trkpt lat="45.7679" lon="4.6596">
        <ele>454</ele>
        <time>2012-09-02T07:16:28Z</time>
      </trkpt>
      <trkpt lat="45.76794" lon="4.65955">
        <ele>454</ele>
        <time>2012-09-02T07:16:30Z</time>
      </trkpt>
      <trkpt lat="45.76799" lon="4.65948">
        <ele>454</ele>
        <time>2012-09-02T07:16:33Z</time>
      </trkpt>
      <trkpt lat="45.76803" lon="4.65941">
        <ele>455</ele>
        <time>2012-09-02T07:16:36Z</time>
      </trkpt>
      <trkpt lat="45.76806" lon="4.65936">
        <ele>455</ele>
        <time>2012-09-02T07:16:38Z</time>
      </trkpt>
      <trkpt lat="45.76808" lon="4.65929">
        <ele>455</ele>
        <time>2012-09-02T07:16:40Z</time>
      </trkpt>
      <trkpt lat="45.7681" lon="4.65922">
        <ele>456</ele>
        <time>2012-09-02T07:16:43Z</time>
      </trkpt>
      <trkpt lat="45.76813" lon="4.65913">
        <ele>456</ele>
        <time>2012-09-02T07:16:45Z</time>
      </trkpt>
      <trkpt lat="45.76815" lon="4.65906">
        <ele>456</ele>
        <time>2012-09-02T07:16:47Z</time>
      </trkpt>
      <trkpt lat="45.76816" lon="4.65899">
        <ele>457</ele>
        <time>2012-09-02T07:16:49Z</time>
      </trkpt>
      <trkpt lat="45.76817" lon="4.65893">
        <ele>457</ele>
        <time>2012-09-02T07:16:51Z</time>
      </trkpt>
      <trkpt lat="45.76818" lon="4.65885">
        <ele>458</ele>
        <time>2012-09-02T07:16:53Z</time>
      </trkpt>
      <trkpt lat="45.76819" lon="4.65877">
        <ele>458</ele>
        <time>2012-09-02T07:16:55Z</time>
      </trkpt>
      <trkpt lat="45.7682" lon="4.65868">
        <ele>459</ele>
        <time>2012-09-02T07:16:57Z</time>
      </trkpt>
      <trkpt lat="45.76819" lon="4.6586">
        <ele>459</ele>
        <time>2012-09-02T07:16:59Z</time>
      </trkpt>
      <trkpt lat="45.76819" lon="4.65853">
        <ele>459</ele>
        <time>2012-09-02T07:17:01Z</time>
      </trkpt>
      <trkpt lat="45.76818" lon="4.65846">
        <ele>459</ele>
        <time>2012-09-02T07:17:03Z</time>
      </trkpt>
      <trkpt lat="45.76816" lon="4.65838">
        <ele>459</ele>
        <time>2012-09-02T07:17:05Z</time>
      </trkpt>
      <trkpt lat="45.76815" lon="4.65829">
        <ele>459</ele>
        <time>2012-09-02T07:17:08Z</time>
      </trkpt>
      <trkpt lat="45.76813" lon="4.65822">
        <ele>459</ele>
        <time>2012-09-02T07:17:10Z</time>
      </trkpt>
      <trkpt lat="45.76812" lon="4.65815">
        <ele>459</ele>
        <time>2012-09-02T07:17:12Z</time>
      </trkpt>
      <trkpt lat="45.76811" lon="4.65807">
        <ele>459</ele>
        <time>2012-09-02T07:17:14Z</time>
      </trkpt>
      <trkpt lat="45.76809" lon="4.658">
        <ele>460</ele>
        <time>2012-09-02T07:17:16Z</time>
      </trkpt>
      <trkpt lat="45.76808" lon="4.65793">
        <ele>460</ele>
        <time>2012-09-02T07:17:18Z</time>
      </trkpt>
      <trkpt lat="45.76806" lon="4.65779">
        <ele>460</ele>
        <time>2012-09-02T07:17:22Z</time>
      </trkpt>
      <trkpt lat="45.76805" lon="4.65772">
        <ele>460</ele>
        <time>2012-09-02T07:17:24Z</time>
      </trkpt>
      <trkpt lat="45.76802" lon="4.65764">
        <ele>460</ele>
        <time>2012-09-02T07:17:26Z</time>
      </trkpt>
      <trkpt lat="45.76799" lon="4.65752">
        <ele>460</ele>
        <time>2012-09-02T07:17:30Z</time>
      </trkpt>
      <trkpt lat="45.76797" lon="4.65745">
        <ele>461</ele>
        <time>2012-09-02T07:17:32Z</time>
      </trkpt>
      <trkpt lat="45.76796" lon="4.65738">
        <ele>461</ele>
        <time>2012-09-02T07:17:34Z</time>
      </trkpt>
      <trkpt lat="45.76792" lon="4.65724">
        <ele>461</ele>
        <time>2012-09-02T07:17:38Z</time>
      </trkpt>
      <trkpt lat="45.7679" lon="4.65717">
        <ele>460</ele>
        <time>2012-09-02T07:17:40Z</time>
      </trkpt>
      <trkpt lat="45.76788" lon="4.6571">
        <ele>460</ele>
        <time>2012-09-02T07:17:42Z</time>
      </trkpt>
      <trkpt lat="45.76787" lon="4.65704">
        <ele>460</ele>
        <time>2012-09-02T07:17:44Z</time>
      </trkpt>
      <trkpt lat="45.76783" lon="4.65692">
        <ele>461</ele>
        <time>2012-09-02T07:17:48Z</time>
      </trkpt>
      <trkpt lat="45.76781" lon="4.65684">
        <ele>461</ele>
        <time>2012-09-02T07:17:50Z</time>
      </trkpt>
      <trkpt lat="45.76778" lon="4.65678">
        <ele>461</ele>
        <time>2012-09-02T07:17:52Z</time>
      </trkpt>
      <trkpt lat="45.76776" lon="4.65671">
        <ele>461</ele>
        <time>2012-09-02T07:17:54Z</time>
      </trkpt>
      <trkpt lat="45.76774" lon="4.65664">
        <ele>462</ele>
        <time>2012-09-02T07:17:56Z</time>
      </trkpt>
      <trkpt lat="45.76772" lon="4.65658">
        <ele>462</ele>
        <time>2012-09-02T07:17:58Z</time>
      </trkpt>
      <trkpt lat="45.7677" lon="4.65652">
        <ele>463</ele>
        <time>2012-09-02T07:18:00Z</time>
      </trkpt>
      <trkpt lat="45.76768" lon="4.65645">
        <ele>463</ele>
        <time>2012-09-02T07:18:02Z</time>
      </trkpt>
      <trkpt lat="45.76767" lon="4.65639">
        <ele>463</ele>
        <time>2012-09-02T07:18:04Z</time>
      </trkpt>
      <trkpt lat="45.76765" lon="4.65633">
        <ele>463</ele>
        <time>2012-09-02T07:18:06Z</time>
      </trkpt>
      <trkpt lat="45.76763" lon="4.65627">
        <ele>464</ele>
        <time>2012-09-02T07:18:08Z</time>
      </trkpt>
      <trkpt lat="45.76761" lon="4.6562">
        <ele>464</ele>
        <time>2012-09-02T07:18:10Z</time>
      </trkpt>
      <trkpt lat="45.76759" lon="4.65614">
        <ele>464</ele>
        <time>2012-09-02T07:18:12Z</time>
      </trkpt>
      <trkpt lat="45.76757" lon="4.65608">
        <ele>465</ele>
        <time>2012-09-02T07:18:14Z</time>
      </trkpt>
      <trkpt lat="45.76755" lon="4.65601">
        <ele>465</ele>
        <time>2012-09-02T07:18:16Z</time>
      </trkpt>
      <trkpt lat="45.76753" lon="4.65594">
        <ele>465</ele>
        <time>2012-09-02T07:18:18Z</time>
      </trkpt>
      <trkpt lat="45.76751" lon="4.65587">
        <ele>465</ele>
        <time>2012-09-02T07:18:20Z</time>
      </trkpt>
      <trkpt lat="45.76749" lon="4.65581">
        <ele>465</ele>
        <time>2012-09-02T07:18:22Z</time>
      </trkpt>
      <trkpt lat="45.76747" lon="4.65575">
        <ele>466</ele>
        <time>2012-09-02T07:18:24Z</time>
      </trkpt>
      <trkpt lat="45.76745" lon="4.65569">
        <ele>467</ele>
        <time>2012-09-02T07:18:26Z</time>
      </trkpt>
      <trkpt lat="45.76744" lon="4.65562">
        <ele>467</ele>
        <time>2012-09-02T07:18:28Z</time>
      </trkpt>
      <trkpt lat="45.76744" lon="4.65553">
        <ele>467</ele>
        <time>2012-09-02T07:18:31Z</time>
      </trkpt>
      <trkpt lat="45.76742" lon="4.65544">
        <ele>468</ele>
        <time>2012-09-02T07:18:34Z</time>
      </trkpt>
      <trkpt lat="45.7674" lon="4.65536">
        <ele>469</ele>
        <time>2012-09-02T07:18:36Z</time>
      </trkpt>
      <trkpt lat="45.76738" lon="4.6553">
        <ele>470</ele>
        <time>2012-09-02T07:18:38Z</time>
      </trkpt>
      <trkpt lat="45.76736" lon="4.65524">
        <ele>471</ele>
        <time>2012-09-02T07:18:40Z</time>
      </trkpt>
      <trkpt lat="45.76735" lon="4.65517">
        <ele>471</ele>
        <time>2012-09-02T07:18:42Z</time>
      </trkpt>
      <trkpt lat="45.76734" lon="4.6551">
        <ele>472</ele>
        <time>2012-09-02T07:18:44Z</time>
      </trkpt>
      <trkpt lat="45.76732" lon="4.65503">
        <ele>472</ele>
        <time>2012-09-02T07:18:46Z</time>
      </trkpt>
      <trkpt lat="45.7673" lon="4.65497">
        <ele>472</ele>
        <time>2012-09-02T07:18:48Z</time>
      </trkpt>
      <trkpt lat="45.76728" lon="4.6549">
        <ele>473</ele>
        <time>2012-09-02T07:18:50Z</time>
      </trkpt>
      <trkpt lat="45.76727" lon="4.65484">
        <ele>473</ele>
        <time>2012-09-02T07:18:52Z</time>
      </trkpt>
      <trkpt lat="45.76724" lon="4.65476">
        <ele>474</ele>
        <time>2012-09-02T07:18:55Z</time>
      </trkpt>
      <trkpt lat="45.76718" lon="4.65465">
        <ele>475</ele>
        <time>2012-09-02T07:18:59Z</time>
      </trkpt>
      <trkpt lat="45.76715" lon="4.65459">
        <ele>475</ele>
        <time>2012-09-02T07:19:01Z</time>
      </trkpt>
      <trkpt lat="45.76712" lon="4.6545">
        <ele>474</ele>
        <time>2012-09-02T07:19:04Z</time>
      </trkpt>
      <trkpt lat="45.76709" lon="4.65435">
        <ele>474</ele>
        <time>2012-09-02T07:19:08Z</time>
      </trkpt>
      <trkpt lat="45.76705" lon="4.65426">
        <ele>474</ele>
        <time>2012-09-02T07:19:11Z</time>
      </trkpt>
      <trkpt lat="45.76701" lon="4.65418">
        <ele>475</ele>
        <time>2012-09-02T07:19:14Z</time>
      </trkpt>
      <trkpt lat="45.76698" lon="4.65405">
        <ele>476</ele>
        <time>2012-09-02T07:19:18Z</time>
      </trkpt>
      <trkpt lat="45.76694" lon="4.65391">
        <ele>477</ele>
        <time>2012-09-02T07:19:22Z</time>
      </trkpt>
      <trkpt lat="45.76693" lon="4.65384">
        <ele>477</ele>
        <time>2012-09-02T07:19:24Z</time>
      </trkpt>
      <trkpt lat="45.76691" lon="4.65377">
        <ele>477</ele>
        <time>2012-09-02T07:19:26Z</time>
      </trkpt>
      <trkpt lat="45.76689" lon="4.65371">
        <ele>477</ele>
        <time>2012-09-02T07:19:28Z</time>
      </trkpt>
      <trkpt lat="45.76688" lon="4.65364">
        <ele>477</ele>
        <time>2012-09-02T07:19:30Z</time>
      </trkpt>
      <trkpt lat="45.76686" lon="4.65357">
        <ele>478</ele>
        <time>2012-09-02T07:19:32Z</time>
      </trkpt>
      <trkpt lat="45.76685" lon="4.65351">
        <ele>478</ele>
        <time>2012-09-02T07:19:34Z</time>
      </trkpt>
      <trkpt lat="45.76684" lon="4.65344">
        <ele>478</ele>
        <time>2012-09-02T07:19:36Z</time>
      </trkpt>
      <trkpt lat="45.76683" lon="4.65337">
        <ele>477</ele>
        <time>2012-09-02T07:19:38Z</time>
      </trkpt>
      <trkpt lat="45.76681" lon="4.65327">
        <ele>477</ele>
        <time>2012-09-02T07:19:41Z</time>
      </trkpt>
      <trkpt lat="45.7668" lon="4.6532">
        <ele>477</ele>
        <time>2012-09-02T07:19:43Z</time>
      </trkpt>
      <trkpt lat="45.7668" lon="4.65304">
        <ele>477</ele>
        <time>2012-09-02T07:19:47Z</time>
      </trkpt>
      <trkpt lat="45.7668" lon="4.65295">
        <ele>478</ele>
        <time>2012-09-02T07:19:50Z</time>
      </trkpt>
      <trkpt lat="45.7668" lon="4.65287">
        <ele>477</ele>
        <time>2012-09-02T07:19:52Z</time>
      </trkpt>
      <trkpt lat="45.7668" lon="4.6528">
        <ele>477</ele>
        <time>2012-09-02T07:19:54Z</time>
      </trkpt>
      <trkpt lat="45.7668" lon="4.65271">
        <ele>477</ele>
        <time>2012-09-02T07:19:56Z</time>
      </trkpt>
      <trkpt lat="45.7668" lon="4.65264">
        <ele>477</ele>
        <time>2012-09-02T07:19:58Z</time>
      </trkpt>
      <trkpt lat="45.7668" lon="4.65256">
        <ele>477</ele>
        <time>2012-09-02T07:20:00Z</time>
      </trkpt>
      <trkpt lat="45.76679" lon="4.65249">
        <ele>478</ele>
        <time>2012-09-02T07:20:02Z</time>
      </trkpt>
      <trkpt lat="45.76679" lon="4.65242">
        <ele>478</ele>
        <time>2012-09-02T07:20:04Z</time>
      </trkpt>
      <trkpt lat="45.76679" lon="4.65234">
        <ele>479</ele>
        <time>2012-09-02T07:20:06Z</time>
      </trkpt>
      <trkpt lat="45.76678" lon="4.65226">
        <ele>479</ele>
        <time>2012-09-02T07:20:08Z</time>
      </trkpt>
      <trkpt lat="45.76677" lon="4.65218">
        <ele>479</ele>
        <time>2012-09-02T07:20:10Z</time>
      </trkpt>
      <trkpt lat="45.76677" lon="4.6521">
        <ele>479</ele>
        <time>2012-09-02T07:20:12Z</time>
      </trkpt>
      <trkpt lat="45.76677" lon="4.65202">
        <ele>479</ele>
        <time>2012-09-02T07:20:14Z</time>
      </trkpt>
      <trkpt lat="45.76676" lon="4.65196">
        <ele>479</ele>
        <time>2012-09-02T07:20:16Z</time>
      </trkpt>
      <trkpt lat="45.76675" lon="4.65186">
        <ele>479</ele>
        <time>2012-09-02T07:20:19Z</time>
      </trkpt>
      <trkpt lat="45.76674" lon="4.6518">
        <ele>479</ele>
        <time>2012-09-02T07:20:21Z</time>
      </trkpt>
      <trkpt lat="45.76674" lon="4.65173">
        <ele>479</ele>
        <time>2012-09-02T07:20:23Z</time>
      </trkpt>
      <trkpt lat="45.76676" lon="4.65164">
        <ele>479</ele>
        <time>2012-09-02T07:20:26Z</time>
      </trkpt>
      <trkpt lat="45.76679" lon="4.65158">
        <ele>479</ele>
        <time>2012-09-02T07:20:28Z</time>
      </trkpt>
      <trkpt lat="45.76681" lon="4.65151">
        <ele>480</ele>
        <time>2012-09-02T07:20:30Z</time>
      </trkpt>
      <trkpt lat="45.76685" lon="4.65142">
        <ele>481</ele>
        <time>2012-09-02T07:20:34Z</time>
      </trkpt>
      <trkpt lat="45.76689" lon="4.65134">
        <ele>482</ele>
        <time>2012-09-02T07:20:37Z</time>
      </trkpt>
      <trkpt lat="45.76694" lon="4.65124">
        <ele>483</ele>
        <time>2012-09-02T07:20:40Z</time>
      </trkpt>
      <trkpt lat="45.76698" lon="4.65117">
        <ele>483</ele>
        <time>2012-09-02T07:20:42Z</time>
      </trkpt>
      <trkpt lat="45.767" lon="4.6511">
        <ele>484</ele>
        <time>2012-09-02T07:20:45Z</time>
      </trkpt>
      <trkpt lat="45.76703" lon="4.65103">
        <ele>485</ele>
        <time>2012-09-02T07:20:47Z</time>
      </trkpt>
      <trkpt lat="45.76706" lon="4.65094">
        <ele>486</ele>
        <time>2012-09-02T07:20:50Z</time>
      </trkpt>
      <trkpt lat="45.76707" lon="4.65087">
        <ele>487</ele>
        <time>2012-09-02T07:20:53Z</time>
      </trkpt>
      <trkpt lat="45.76711" lon="4.65071">
        <ele>486</ele>
        <time>2012-09-02T07:20:58Z</time>
      </trkpt>
      <trkpt lat="45.76716" lon="4.65058">
        <ele>485</ele>
        <time>2012-09-02T07:21:02Z</time>
      </trkpt>
      <trkpt lat="45.76721" lon="4.65054">
        <ele>485</ele>
        <time>2012-09-02T07:21:05Z</time>
      </trkpt>
      <trkpt lat="45.76727" lon="4.65054">
        <ele>485</ele>
        <time>2012-09-02T07:21:08Z</time>
      </trkpt>
      <trkpt lat="45.76736" lon="4.65056">
        <ele>485</ele>
        <time>2012-09-02T07:21:12Z</time>
      </trkpt>
      <trkpt lat="45.76746" lon="4.65058">
        <ele>485</ele>
        <time>2012-09-02T07:21:16Z</time>
      </trkpt>
      <trkpt lat="45.76755" lon="4.65062">
        <ele>486</ele>
        <time>2012-09-02T07:21:21Z</time>
      </trkpt>
      <trkpt lat="45.76765" lon="4.65066">
        <ele>486</ele>
        <time>2012-09-02T07:21:25Z</time>
      </trkpt>
      <trkpt lat="45.76774" lon="4.65069">
        <ele>486</ele>
        <time>2012-09-02T07:21:29Z</time>
      </trkpt>
      <trkpt lat="45.76786" lon="4.65068">
        <ele>486</ele>
        <time>2012-09-02T07:21:33Z</time>
      </trkpt>
      <trkpt lat="45.76796" lon="4.65067">
        <ele>486</ele>
        <time>2012-09-02T07:21:36Z</time>
      </trkpt>
      <trkpt lat="45.76807" lon="4.65064">
        <ele>486</ele>
        <time>2012-09-02T07:21:40Z</time>
      </trkpt>
      <trkpt lat="45.76816" lon="4.6506">
        <ele>486</ele>
        <time>2012-09-02T07:21:43Z</time>
      </trkpt>
      <trkpt lat="45.76825" lon="4.65054">
        <ele>488</ele>
        <time>2012-09-02T07:21:46Z</time>
      </trkpt>
      <trkpt lat="45.76833" lon="4.65047">
        <ele>488</ele>
        <time>2012-09-02T07:21:50Z</time>
      </trkpt>
      <trkpt lat="45.76842" lon="4.6504">
        <ele>489</ele>
        <time>2012-09-02T07:21:54Z</time>
      </trkpt>
      <trkpt lat="45.7685" lon="4.65032">
        <ele>489</ele>
        <time>2012-09-02T07:21:58Z</time>
      </trkpt>
      <trkpt lat="45.76859" lon="4.65023">
        <ele>487</ele>
        <time>2012-09-02T07:22:04Z</time>
      </trkpt>
      <trkpt lat="45.76866" lon="4.65013">
        <ele>487</ele>
        <time>2012-09-02T07:22:08Z</time>
      </trkpt>
      <trkpt lat="45.76873" lon="4.65004">
        <ele>489</ele>
        <time>2012-09-02T07:22:14Z</time>
      </trkpt>
      <trkpt lat="45.7688" lon="4.64996">
        <ele>490</ele>
        <time>2012-09-02T07:22:19Z</time>
      </trkpt>
      <trkpt lat="45.7689" lon="4.6499">
        <ele>493</ele>
        <time>2012-09-02T07:22:24Z</time>
      </trkpt>
      <trkpt lat="45.769" lon="4.64987">
        <ele>496</ele>
        <time>2012-09-02T07:22:30Z</time>
      </trkpt>
      <trkpt lat="45.7691" lon="4.64985">
        <ele>500</ele>
        <time>2012-09-02T07:22:36Z</time>
      </trkpt>
      <trkpt lat="45.7692" lon="4.64989">
        <ele>501</ele>
        <time>2012-09-02T07:22:42Z</time>
      </trkpt>
      <trkpt lat="45.76931" lon="4.64988">
        <ele>500</ele>
        <time>2012-09-02T07:22:46Z</time>
      </trkpt>
      <trkpt lat="45.76941" lon="4.6499">
        <ele>499</ele>
        <time>2012-09-02T07:22:52Z</time>
      </trkpt>
      <trkpt lat="45.7695" lon="4.64995">
        <ele>500</ele>
        <time>2012-09-02T07:22:57Z</time>
      </trkpt>
      <trkpt lat="45.7696" lon="4.65001">
        <ele>499</ele>
        <time>2012-09-02T07:23:02Z</time>
      </trkpt>
      <trkpt lat="45.7697" lon="4.65004">
        <ele>499</ele>
        <time>2012-09-02T07:23:08Z</time>
      </trkpt>
      <trkpt lat="45.7698" lon="4.65004">
        <ele>500</ele>
        <time>2012-09-02T07:23:13Z</time>
      </trkpt>
      <trkpt lat="45.76984" lon="4.65003">
        <ele>501</ele>
        <time>2012-09-02T07:23:15Z</time>
      </trkpt>
      <trkpt lat="45.76994" lon="4.65002">
        <ele>502</ele>
        <time>2012-09-02T07:23:21Z</time>
      </trkpt>
      <trkpt lat="45.77004" lon="4.65001">
        <ele>505</ele>
        <time>2012-09-02T07:23:28Z</time>
      </trkpt>
      <trkpt lat="45.77015" lon="4.64996">
        <ele>507</ele>
        <time>2012-09-02T07:23:32Z</time>
      </trkpt>
      <trkpt lat="45.77023" lon="4.64987">
        <ele>511</ele>
        <time>2012-09-02T07:23:38Z</time>
      </trkpt>
      <trkpt lat="45.7703" lon="4.64977">
        <ele>514</ele>
        <time>2012-09-02T07:23:44Z</time>
      </trkpt>
      <trkpt lat="45.77037" lon="4.64967">
        <ele>516</ele>
        <time>2012-09-02T07:23:48Z</time>
      </trkpt>
      <trkpt lat="45.77043" lon="4.64957">
        <ele>518</ele>
        <time>2012-09-02T07:23:53Z</time>
      </trkpt>
      <trkpt lat="45.77047" lon="4.64945">
        <ele>518</ele>
        <time>2012-09-02T07:23:57Z</time>
      </trkpt>
      <trkpt lat="45.7705" lon="4.6493">
        <ele>519</ele>
        <time>2012-09-02T07:24:01Z</time>
      </trkpt>
      <trkpt lat="45.77054" lon="4.64917">
        <ele>519</ele>
        <time>2012-09-02T07:24:05Z</time>
      </trkpt>
      <trkpt lat="45.77057" lon="4.64898">
        <ele>520</ele>
        <time>2012-09-02T07:24:10Z</time>
      </trkpt>
      <trkpt lat="45.77059" lon="4.6488">
        <ele>520</ele>
        <time>2012-09-02T07:24:15Z</time>
      </trkpt>
      <trkpt lat="45.77062" lon="4.64863">
        <ele>519</ele>
        <time>2012-09-02T07:24:18Z</time>
      </trkpt>
      <trkpt lat="45.77066" lon="4.64846">
        <ele>518</ele>
        <time>2012-09-02T07:24:22Z</time>
      </trkpt>
      <trkpt lat="45.7707" lon="4.64834">
        <ele>517</ele>
        <time>2012-09-02T07:24:24Z</time>
      </trkpt>
      <trkpt lat="45.77075" lon="4.64821">
        <ele>515</ele>
        <time>2012-09-02T07:24:27Z</time>
      </trkpt>
      <trkpt lat="45.77079" lon="4.64808">
        <ele>515</ele>
        <time>2012-09-02T07:24:30Z</time>
      </trkpt>
      <trkpt lat="45.77081" lon="4.64793">
        <ele>515</ele>
        <time>2012-09-02T07:24:34Z</time>
      </trkpt>
      <trkpt lat="45.77085" lon="4.6478">
        <ele>515</ele>
        <time>2012-09-02T07:24:40Z</time>
      </trkpt>
      <trkpt lat="45.77092" lon="4.64772">
        <ele>516</ele>
        <time>2012-09-02T07:24:44Z</time>
      </trkpt>
      <trkpt lat="45.77101" lon="4.64769">
        <ele>517</ele>
        <time>2012-09-02T07:24:48Z</time>
      </trkpt>
      <trkpt lat="45.77113" lon="4.64764">
        <ele>518</ele>
        <time>2012-09-02T07:24:52Z</time>
      </trkpt>
      <trkpt lat="45.77124" lon="4.64761">
        <ele>517</ele>
        <time>2012-09-02T07:24:56Z</time>
      </trkpt>
      <trkpt lat="45.77134" lon="4.64763">
        <ele>515</ele>
        <time>2012-09-02T07:24:59Z</time>
      </trkpt>
      <trkpt lat="45.77145" lon="4.64763">
        <ele>511</ele>
        <time>2012-09-02T07:25:04Z</time>
      </trkpt>
      <trkpt lat="45.77157" lon="4.64765">
        <ele>511</ele>
        <time>2012-09-02T07:25:08Z</time>
      </trkpt>
      <trkpt lat="45.77167" lon="4.64766">
        <ele>511</ele>
        <time>2012-09-02T07:25:11Z</time>
      </trkpt>
      <trkpt lat="45.77177" lon="4.64766">
        <ele>511</ele>
        <time>2012-09-02T07:25:14Z</time>
      </trkpt>
      <trkpt lat="45.77186" lon="4.64763">
        <ele>512</ele>
        <time>2012-09-02T07:25:18Z</time>
      </trkpt>
      <trkpt lat="45.77196" lon="4.64762">
        <ele>513</ele>
        <time>2012-09-02T07:25:22Z</time>
      </trkpt>
      <trkpt lat="45.77207" lon="4.64759">
        <ele>513</ele>
        <time>2012-09-02T07:25:28Z</time>
      </trkpt>
      <trkpt lat="45.77216" lon="4.64754">
        <ele>513</ele>
        <time>2012-09-02T07:25:33Z</time>
      </trkpt>
      <trkpt lat="45.77224" lon="4.64745">
        <ele>513</ele>
        <time>2012-09-02T07:25:39Z</time>
      </trkpt>
      <trkpt lat="45.77231" lon="4.64734">
        <ele>516</ele>
        <time>2012-09-02T07:25:44Z</time>
      </trkpt>
      <trkpt lat="45.7724" lon="4.64721">
        <ele>515</ele>
        <time>2012-09-02T07:25:47Z</time>
      </trkpt>
      <trkpt lat="45.77246" lon="4.64708">
        <ele>514</ele>
        <time>2012-09-02T07:25:50Z</time>
      </trkpt>
      <trkpt lat="45.77252" lon="4.64696">
        <ele>513</ele>
        <time>2012-09-02T07:25:53Z</time>
      </trkpt>
      <trkpt lat="45.77257" lon="4.64681">
        <ele>511</ele>
        <time>2012-09-02T07:25:57Z</time>
      </trkpt>
      <trkpt lat="45.77259" lon="4.64666">
        <ele>509</ele>
        <time>2012-09-02T07:26:02Z</time>
      </trkpt>
      <trkpt lat="45.77262" lon="4.64653">
        <ele>507</ele>
        <time>2012-09-02T07:26:09Z</time>
      </trkpt>
      <trkpt lat="45.77265" lon="4.64637">
        <ele>507</ele>
        <time>2012-09-02T07:26:14Z</time>
      </trkpt>
      <trkpt lat="45.77263" lon="4.6462">
        <ele>510</ele>
        <time>2012-09-02T07:26:18Z</time>
      </trkpt>
      <trkpt lat="45.77259" lon="4.64607">
        <ele>513</ele>
        <time>2012-09-02T07:26:21Z</time>
      </trkpt>
      <trkpt lat="45.77256" lon="4.64594">
        <ele>517</ele>
        <time>2012-09-02T07:26:24Z</time>
      </trkpt>
      <trkpt lat="45.77256" lon="4.6458">
        <ele>519</ele>
        <time>2012-09-02T07:26:27Z</time>
      </trkpt>
      <trkpt lat="45.77251" lon="4.64564">
        <ele>520</ele>
        <time>2012-09-02T07:26:32Z</time>
      </trkpt>
      <trkpt lat="45.7725" lon="4.64547">
        <ele>523</ele>
        <time>2012-09-02T07:26:35Z</time>
      </trkpt>
      <trkpt lat="45.77252" lon="4.64534">
        <ele>524</ele>
        <time>2012-09-02T07:26:38Z</time>
      </trkpt>
      <trkpt lat="45.77261" lon="4.64528">
        <ele>527</ele>
        <time>2012-09-02T07:26:48Z</time>
      </trkpt>
      <trkpt lat="45.77272" lon="4.64535">
        <ele>523</ele>
        <time>2012-09-02T07:26:52Z</time>
      </trkpt>
      <trkpt lat="45.77282" lon="4.64542">
        <ele>521</ele>
        <time>2012-09-02T07:26:56Z</time>
      </trkpt>
      <trkpt lat="45.77293" lon="4.64545">
        <ele>520</ele>
        <time>2012-09-02T07:26:59Z</time>
      </trkpt>
      <trkpt lat="45.77304" lon="4.64547">
        <ele>519</ele>
        <time>2012-09-02T07:27:03Z</time>
      </trkpt>
      <trkpt lat="45.77314" lon="4.64547">
        <ele>517</ele>
        <time>2012-09-02T07:27:08Z</time>
      </trkpt>
      <trkpt lat="45.77325" lon="4.64547">
        <ele>515</ele>
        <time>2012-09-02T07:27:13Z</time>
      </trkpt>
      <trkpt lat="45.77335" lon="4.64545">
        <ele>514</ele>
        <time>2012-09-02T07:27:17Z</time>
      </trkpt>
      <trkpt lat="45.77345" lon="4.64542">
        <ele>514</ele>
        <time>2012-09-02T07:27:22Z</time>
      </trkpt>
      <trkpt lat="45.77354" lon="4.64539">
        <ele>517</ele>
        <time>2012-09-02T07:27:27Z</time>
      </trkpt>
      <trkpt lat="45.77363" lon="4.6453">
        <ele>520</ele>
        <time>2012-09-02T07:27:33Z</time>
      </trkpt>
      <trkpt lat="45.77366" lon="4.64517">
        <ele>522</ele>
        <time>2012-09-02T07:27:37Z</time>
      </trkpt>
      <trkpt lat="45.77368" lon="4.64505">
        <ele>523</ele>
        <time>2012-09-02T07:27:41Z</time>
      </trkpt>
      <trkpt lat="45.77372" lon="4.64491">
        <ele>525</ele>
        <time>2012-09-02T07:27:46Z</time>
      </trkpt>
      <trkpt lat="45.77376" lon="4.64479">
        <ele>527</ele>
        <time>2012-09-02T07:27:52Z</time>
      </trkpt>
      <trkpt lat="45.77383" lon="4.64467">
        <ele>529</ele>
        <time>2012-09-02T07:27:59Z</time>
      </trkpt>
      <trkpt lat="45.77391" lon="4.64456">
        <ele>531</ele>
        <time>2012-09-02T07:28:05Z</time>
      </trkpt>
      <trkpt lat="45.77398" lon="4.64446">
        <ele>534</ele>
        <time>2012-09-02T07:28:12Z</time>
      </trkpt>
      <trkpt lat="45.77403" lon="4.64434">
        <ele>537</ele>
        <time>2012-09-02T07:28:18Z</time>
      </trkpt>
      <trkpt lat="45.77409" lon="4.64425">
        <ele>538</ele>
        <time>2012-09-02T07:28:22Z</time>
      </trkpt>
      <trkpt lat="45.77413" lon="4.64407">
        <ele>544</ele>
        <time>2012-09-02T07:28:31Z</time>
      </trkpt>
      <trkpt lat="45.77419" lon="4.64397">
        <ele>546</ele>
        <time>2012-09-02T07:28:35Z</time>
      </trkpt>
      <trkpt lat="45.77426" lon="4.64387">
        <ele>549</ele>
        <time>2012-09-02T07:28:41Z</time>
      </trkpt>
      <trkpt lat="45.77429" lon="4.64374">
        <ele>550</ele>
        <time>2012-09-02T07:28:46Z</time>
      </trkpt>
      <trkpt lat="45.77438" lon="4.64353">
        <ele>549</ele>
        <time>2012-09-02T07:28:53Z</time>
      </trkpt>
      <trkpt lat="45.77444" lon="4.64343">
        <ele>545</ele>
        <time>2012-09-02T07:28:56Z</time>
      </trkpt>
      <trkpt lat="45.77451" lon="4.64333">
        <ele>543</ele>
        <time>2012-09-02T07:29:00Z</time>
      </trkpt>
      <trkpt lat="45.77456" lon="4.64322">
        <ele>542</ele>
        <time>2012-09-02T07:29:05Z</time>
      </trkpt>
      <trkpt lat="45.77459" lon="4.64306">
        <ele>544</ele>
        <time>2012-09-02T07:29:10Z</time>
      </trkpt>
      <trkpt lat="45.77464" lon="4.64295">
        <ele>546</ele>
        <time>2012-09-02T07:29:16Z</time>
      </trkpt>
      <trkpt lat="45.77469" lon="4.64283">
        <ele>547</ele>
        <time>2012-09-02T07:29:22Z</time>
      </trkpt>
      <trkpt lat="45.77474" lon="4.64271">
        <ele>548</ele>
        <time>2012-09-02T07:29:29Z</time>
      </trkpt>
      <trkpt lat="45.77477" lon="4.64259">
        <ele>551</ele>
        <time>2012-09-02T07:29:35Z</time>
      </trkpt>
      <trkpt lat="45.77481" lon="4.64246">
        <ele>556</ele>
        <time>2012-09-02T07:29:41Z</time>
      </trkpt>
      <trkpt lat="45.77485" lon="4.64234">
        <ele>558</ele>
        <time>2012-09-02T07:29:46Z</time>
      </trkpt>
      <trkpt lat="45.77489" lon="4.6422">
        <ele>559</ele>
        <time>2012-09-02T07:29:51Z</time>
      </trkpt>
      <trkpt lat="45.77492" lon="4.64206">
        <ele>559</ele>
        <time>2012-09-02T07:29:55Z</time>
      </trkpt>
      <trkpt lat="45.77493" lon="4.64191">
        <ele>561</ele>
        <time>2012-09-02T07:30:00Z</time>
      </trkpt>
      <trkpt lat="45.77492" lon="4.64176">
        <ele>563</ele>
        <time>2012-09-02T07:30:05Z</time>
      </trkpt>
      <trkpt lat="45.77493" lon="4.64162">
        <ele>564</ele>
        <time>2012-09-02T07:30:09Z</time>
      </trkpt>
      <trkpt lat="45.77491" lon="4.64149">
        <ele>563</ele>
        <time>2012-09-02T07:30:13Z</time>
      </trkpt>
      <trkpt lat="45.77489" lon="4.64136">
        <ele>562</ele>
        <time>2012-09-02T07:30:18Z</time>
      </trkpt>
      <trkpt lat="45.77491" lon="4.64122">
        <ele>560</ele>
        <time>2012-09-02T07:30:26Z</time>
      </trkpt>
      <trkpt lat="45.77497" lon="4.64111">
        <ele>565</ele>
        <time>2012-09-02T07:30:38Z</time>
      </trkpt>
      <trkpt lat="45.77505" lon="4.64104">
        <ele>569</ele>
        <time>2012-09-02T07:30:46Z</time>
      </trkpt>
      <trkpt lat="45.77515" lon="4.641">
        <ele>572</ele>
        <time>2012-09-02T07:30:54Z</time>
      </trkpt>
      <trkpt lat="45.77524" lon="4.64094">
        <ele>575</ele>
        <time>2012-09-02T07:31:00Z</time>
      </trkpt>
      <trkpt lat="45.77533" lon="4.64089">
        <ele>580</ele>
        <time>2012-09-02T07:31:08Z</time>
      </trkpt>
      <trkpt lat="45.77542" lon="4.64081">
        <ele>581</ele>
        <time>2012-09-02T07:31:12Z</time>
      </trkpt>
      <trkpt lat="45.77551" lon="4.64075">
        <ele>581</ele>
        <time>2012-09-02T07:31:16Z</time>
      </trkpt>
      <trkpt lat="45.77562" lon="4.64073">
        <ele>580</ele>
        <time>2012-09-02T07:31:22Z</time>
      </trkpt>
      <trkpt lat="45.77572" lon="4.64075">
        <ele>579</ele>
        <time>2012-09-02T07:31:27Z</time>
      </trkpt>
      <trkpt lat="45.77581" lon="4.64077">
        <ele>578</ele>
        <time>2012-09-02T07:31:32Z</time>
      </trkpt>
      <trkpt lat="45.77592" lon="4.64076">
        <ele>579</ele>
        <time>2012-09-02T07:31:38Z</time>
      </trkpt>
      <trkpt lat="45.77603" lon="4.64078">
        <ele>579</ele>
        <time>2012-09-02T07:31:42Z</time>
      </trkpt>
      <trkpt lat="45.77612" lon="4.64077">
        <ele>579</ele>
        <time>2012-09-02T07:31:45Z</time>
      </trkpt>
      <trkpt lat="45.77621" lon="4.64076">
        <ele>578</ele>
        <time>2012-09-02T07:31:49Z</time>
      </trkpt>
      <trkpt lat="45.77631" lon="4.64072">
        <ele>578</ele>
        <time>2012-09-02T07:31:54Z</time>
      </trkpt>
      <trkpt lat="45.7764" lon="4.64071">
        <ele>578</ele>
        <time>2012-09-02T07:31:58Z</time>
      </trkpt>
      <trkpt lat="45.7765" lon="4.64068">
        <ele>577</ele>
        <time>2012-09-02T07:32:03Z</time>
      </trkpt>
      <trkpt lat="45.7766" lon="4.64069">
        <ele>578</ele>
        <time>2012-09-02T07:32:08Z</time>
      </trkpt>
      <trkpt lat="45.77669" lon="4.64067">
        <ele>579</ele>
        <time>2012-09-02T07:32:12Z</time>
      </trkpt>
      <trkpt lat="45.77679" lon="4.64065">
        <ele>581</ele>
        <time>2012-09-02T07:32:17Z</time>
      </trkpt>
      <trkpt lat="45.77687" lon="4.6406">
        <ele>584</ele>
        <time>2012-09-02T07:32:23Z</time>
      </trkpt>
      <trkpt lat="45.77695" lon="4.64051">
        <ele>585</ele>
        <time>2012-09-02T07:32:28Z</time>
      </trkpt>
      <trkpt lat="45.77703" lon="4.64044">
        <ele>586</ele>
        <time>2012-09-02T07:32:35Z</time>
      </trkpt>
      <trkpt lat="45.7771" lon="4.64034">
        <ele>585</ele>
        <time>2012-09-02T07:32:47Z</time>
      </trkpt>
      <trkpt lat="45.7772" lon="4.64033">
        <ele>588</ele>
        <time>2012-09-02T07:32:55Z</time>
      </trkpt>
      <trkpt lat="45.7773" lon="4.64031">
        <ele>593</ele>
        <time>2012-09-02T07:33:06Z</time>
      </trkpt>
      <trkpt lat="45.77738" lon="4.64037">
        <ele>596</ele>
        <time>2012-09-02T07:33:13Z</time>
      </trkpt>
      <trkpt lat="45.77746" lon="4.6403">
        <ele>599</ele>
        <time>2012-09-02T07:33:20Z</time>
      </trkpt>
      <trkpt lat="45.77751" lon="4.64017">
        <ele>602</ele>
        <time>2012-09-02T07:33:28Z</time>
      </trkpt>
      <trkpt lat="45.77753" lon="4.6401">
        <ele>602</ele>
        <time>2012-09-02T07:33:31Z</time>
      </trkpt>
      <trkpt lat="45.77755" lon="4.64004">
        <ele>603</ele>
        <time>2012-09-02T07:33:36Z</time>
      </trkpt>
      <trkpt lat="45.77761" lon="4.64004">
        <ele>605</ele>
        <time>2012-09-02T07:33:41Z</time>
      </trkpt>
      <trkpt lat="45.77767" lon="4.64004">
        <ele>605</ele>
        <time>2012-09-02T07:33:45Z</time>
      </trkpt>
      <trkpt lat="45.77772" lon="4.64004">
        <ele>605</ele>
        <time>2012-09-02T07:33:48Z</time>
      </trkpt>
      <trkpt lat="45.77777" lon="4.64005">
        <ele>605</ele>
        <time>2012-09-02T07:33:53Z</time>
      </trkpt>
      <trkpt lat="45.77784" lon="4.64002">
        <ele>604</ele>
        <time>2012-09-02T07:33:57Z</time>
      </trkpt>
      <trkpt lat="45.77788" lon="4.63997">
        <ele>603</ele>
        <time>2012-09-02T07:34:00Z</time>
      </trkpt>
      <trkpt lat="45.77791" lon="4.6399">
        <ele>603</ele>
        <time>2012-09-02T07:34:03Z</time>
      </trkpt>
      <trkpt lat="45.77788" lon="4.63982">
        <ele>602</ele>
        <time>2012-09-02T07:34:07Z</time>
      </trkpt>
      <trkpt lat="45.77784" lon="4.63975">
        <ele>603</ele>
        <time>2012-09-02T07:34:10Z</time>
      </trkpt>
      <trkpt lat="45.7778" lon="4.63969">
        <ele>604</ele>
        <time>2012-09-02T07:34:12Z</time>
      </trkpt>
      <trkpt lat="45.77777" lon="4.63964">
        <ele>604</ele>
        <time>2012-09-02T07:34:14Z</time>
      </trkpt>
      <trkpt lat="45.77773" lon="4.63959">
        <ele>604</ele>
        <time>2012-09-02T07:34:16Z</time>
      </trkpt>
      <trkpt lat="45.77769" lon="4.63956">
        <ele>604</ele>
        <time>2012-09-02T07:34:18Z</time>
      </trkpt>
      <trkpt lat="45.77764" lon="4.63952">
        <ele>604</ele>
        <time>2012-09-02T07:34:20Z</time>
      </trkpt>
      <trkpt lat="45.77759" lon="4.63948">
        <ele>603</ele>
        <time>2012-09-02T07:34:22Z</time>
      </trkpt>
      <trkpt lat="45.7775" lon="4.63939">
        <ele>603</ele>
        <time>2012-09-02T07:34:27Z</time>
      </trkpt>
      <trkpt lat="45.77742" lon="4.63931">
        <ele>603</ele>
        <time>2012-09-02T07:34:31Z</time>
      </trkpt>
      <trkpt lat="45.77738" lon="4.63926">
        <ele>603</ele>
        <time>2012-09-02T07:34:34Z</time>
      </trkpt>
      <trkpt lat="45.77732" lon="4.63926">
        <ele>604</ele>
        <time>2012-09-02T07:34:36Z</time>
      </trkpt>
      <trkpt lat="45.77728" lon="4.63927">
        <ele>605</ele>
        <time>2012-09-02T07:34:38Z</time>
      </trkpt>
      <trkpt lat="45.77719" lon="4.63928">
        <ele>606</ele>
        <time>2012-09-02T07:34:41Z</time>
      </trkpt>
      <trkpt lat="45.77714" lon="4.63928">
        <ele>606</ele>
        <time>2012-09-02T07:34:43Z</time>
      </trkpt>
      <trkpt lat="45.77708" lon="4.63928">
        <ele>606</ele>
        <time>2012-09-02T07:34:45Z</time>
      </trkpt>
      <trkpt lat="45.77702" lon="4.63924">
        <ele>607</ele>
        <time>2012-09-02T07:34:48Z</time>
      </trkpt>
      <trkpt lat="45.77697" lon="4.63921">
        <ele>608</ele>
        <time>2012-09-02T07:34:50Z</time>
      </trkpt>
      <trkpt lat="45.77694" lon="4.63917">
        <ele>608</ele>
        <time>2012-09-02T07:34:52Z</time>
      </trkpt>
      <trkpt lat="45.77689" lon="4.63913">
        <ele>609</ele>
        <time>2012-09-02T07:34:54Z</time>
      </trkpt>
      <trkpt lat="45.77684" lon="4.6391">
        <ele>610</ele>
        <time>2012-09-02T07:34:56Z</time>
      </trkpt>
      <trkpt lat="45.77679" lon="4.63906">
        <ele>610</ele>
        <time>2012-09-02T07:34:58Z</time>
      </trkpt>
      <trkpt lat="45.77674" lon="4.63901">
        <ele>609</ele>
        <time>2012-09-02T07:35:00Z</time>
      </trkpt>
      <trkpt lat="45.77663" lon="4.63894">
        <ele>609</ele>
        <time>2012-09-02T07:35:04Z</time>
      </trkpt>
      <trkpt lat="45.77658" lon="4.63888">
        <ele>609</ele>
        <time>2012-09-02T07:35:06Z</time>
      </trkpt>
      <trkpt lat="45.7765" lon="4.63884">
        <ele>610</ele>
        <time>2012-09-02T07:35:10Z</time>
      </trkpt>
      <trkpt lat="45.77639" lon="4.63879">
        <ele>609</ele>
        <time>2012-09-02T07:35:14Z</time>
      </trkpt>
      <trkpt lat="45.77632" lon="4.63871">
        <ele>610</ele>
        <time>2012-09-02T07:35:18Z</time>
      </trkpt>
      <trkpt lat="45.77622" lon="4.63864">
        <ele>611</ele>
        <time>2012-09-02T07:35:23Z</time>
      </trkpt>
      <trkpt lat="45.77613" lon="4.6386">
        <ele>612</ele>
        <time>2012-09-02T07:35:27Z</time>
      </trkpt>
      <trkpt lat="45.77605" lon="4.63854">
        <ele>613</ele>
        <time>2012-09-02T07:35:31Z</time>
      </trkpt>
      <trkpt lat="45.776" lon="4.63851">
        <ele>613</ele>
        <time>2012-09-02T07:35:34Z</time>
      </trkpt>
      <trkpt lat="45.77591" lon="4.63847">
        <ele>613</ele>
        <time>2012-09-02T07:35:37Z</time>
      </trkpt>
      <trkpt lat="45.77587" lon="4.63831">
        <ele>615</ele>
        <time>2012-09-02T07:35:43Z</time>
      </trkpt>
      <trkpt lat="45.77584" lon="4.63818">
        <ele>616</ele>
        <time>2012-09-02T07:35:47Z</time>
      </trkpt>
      <trkpt lat="45.77576" lon="4.63806">
        <ele>617</ele>
        <time>2012-09-02T07:35:51Z</time>
      </trkpt>
      <trkpt lat="45.77568" lon="4.63796">
        <ele>619</ele>
        <time>2012-09-02T07:35:56Z</time>
      </trkpt>
      <trkpt lat="45.77559" lon="4.6379">
        <ele>619</ele>
        <time>2012-09-02T07:36:01Z</time>
      </trkpt>
      <trkpt lat="45.77551" lon="4.63782">
        <ele>619</ele>
        <time>2012-09-02T07:36:06Z</time>
      </trkpt>
      <trkpt lat="45.77541" lon="4.63776">
        <ele>620</ele>
        <time>2012-09-02T07:36:11Z</time>
      </trkpt>
      <trkpt lat="45.77532" lon="4.63774">
        <ele>623</ele>
        <time>2012-09-02T07:36:16Z</time>
      </trkpt>
      <trkpt lat="45.77522" lon="4.63771">
        <ele>626</ele>
        <time>2012-09-02T07:36:22Z</time>
      </trkpt>
      <trkpt lat="45.77517" lon="4.63769">
        <ele>630</ele>
        <time>2012-09-02T07:36:25Z</time>
      </trkpt>
      <trkpt lat="45.7751" lon="4.63759">
        <ele>632</ele>
        <time>2012-09-02T07:36:31Z</time>
      </trkpt>
      <trkpt lat="45.77501" lon="4.63751">
        <ele>633</ele>
        <time>2012-09-02T07:36:37Z</time>
      </trkpt>
      <trkpt lat="45.77491" lon="4.63749">
        <ele>634</ele>
        <time>2012-09-02T07:36:42Z</time>
      </trkpt>
      <trkpt lat="45.77483" lon="4.63746">
        <ele>636</ele>
        <time>2012-09-02T07:36:47Z</time>
      </trkpt>
      <trkpt lat="45.77472" lon="4.63744">
        <ele>638</ele>
        <time>2012-09-02T07:36:56Z</time>
      </trkpt>
      <trkpt lat="45.77462" lon="4.63745">
        <ele>639</ele>
        <time>2012-09-02T07:37:01Z</time>
      </trkpt>
      <trkpt lat="45.77452" lon="4.63745">
        <ele>639</ele>
        <time>2012-09-02T07:37:07Z</time>
      </trkpt>
      <trkpt lat="45.77443" lon="4.63751">
        <ele>640</ele>
        <time>2012-09-02T07:37:13Z</time>
      </trkpt>
      <trkpt lat="45.77439" lon="4.63755">
        <ele>640</ele>
        <time>2012-09-02T07:37:17Z</time>
      </trkpt>
      <trkpt lat="45.77433" lon="4.63761">
        <ele>642</ele>
        <time>2012-09-02T07:37:22Z</time>
      </trkpt>
      <trkpt lat="45.77427" lon="4.63765">
        <ele>646</ele>
        <time>2012-09-02T07:37:26Z</time>
      </trkpt>
      <trkpt lat="45.77417" lon="4.6377">
        <ele>647</ele>
        <time>2012-09-02T07:37:32Z</time>
      </trkpt>
      <trkpt lat="45.77408" lon="4.63777">
        <ele>647</ele>
        <time>2012-09-02T07:37:38Z</time>
      </trkpt>
      <trkpt lat="45.77398" lon="4.63783">
        <ele>649</ele>
        <time>2012-09-02T07:37:45Z</time>
      </trkpt>
      <trkpt lat="45.77389" lon="4.6379">
        <ele>651</ele>
        <time>2012-09-02T07:37:51Z</time>
      </trkpt>
      <trkpt lat="45.7738" lon="4.63796">
        <ele>651</ele>
        <time>2012-09-02T07:37:55Z</time>
      </trkpt>
      <trkpt lat="45.77371" lon="4.63806">
        <ele>652</ele>
        <time>2012-09-02T07:38:01Z</time>
      </trkpt>
      <trkpt lat="45.77362" lon="4.63812">
        <ele>653</ele>
        <time>2012-09-02T07:38:06Z</time>
      </trkpt>
      <trkpt lat="45.77353" lon="4.63818">
        <ele>654</ele>
        <time>2012-09-02T07:38:09Z</time>
      </trkpt>
      <trkpt lat="45.77342" lon="4.63821">
        <ele>653</ele>
        <time>2012-09-02T07:38:18Z</time>
      </trkpt>
      <trkpt lat="45.77332" lon="4.6382">
        <ele>654</ele>
        <time>2012-09-02T07:38:25Z</time>
      </trkpt>
      <trkpt lat="45.77323" lon="4.63816">
        <ele>657</ele>
        <time>2012-09-02T07:38:33Z</time>
      </trkpt>
      <trkpt lat="45.77314" lon="4.63812">
        <ele>657</ele>
        <time>2012-09-02T07:38:39Z</time>
      </trkpt>
      <trkpt lat="45.77306" lon="4.63806">
        <ele>659</ele>
        <time>2012-09-02T07:38:45Z</time>
      </trkpt>
      <trkpt lat="45.77296" lon="4.63806">
        <ele>660</ele>
        <time>2012-09-02T07:38:50Z</time>
      </trkpt>
      <trkpt lat="45.77286" lon="4.63802">
        <ele>663</ele>
        <time>2012-09-02T07:38:55Z</time>
      </trkpt>
      <trkpt lat="45.77278" lon="4.63793">
        <ele>665</ele>
        <time>2012-09-02T07:39:01Z</time>
      </trkpt>
      <trkpt lat="45.77271" lon="4.63783">
        <ele>668</ele>
        <time>2012-09-02T07:39:07Z</time>
      </trkpt>
      <trkpt lat="45.77263" lon="4.63773">
        <ele>671</ele>
        <time>2012-09-02T07:39:13Z</time>
      </trkpt>
      <trkpt lat="45.7726" lon="4.63759">
        <ele>674</ele>
        <time>2012-09-02T07:39:18Z</time>
      </trkpt>
      <trkpt lat="45.77259" lon="4.63745">
        <ele>676</ele>
        <time>2012-09-02T07:39:22Z</time>
      </trkpt>
      <trkpt lat="45.77251" lon="4.63732">
        <ele>679</ele>
        <time>2012-09-02T07:39:26Z</time>
      </trkpt>
      <trkpt lat="45.77245" lon="4.63723">
        <ele>680</ele>
        <time>2012-09-02T07:39:30Z</time>
      </trkpt>
      <trkpt lat="45.77242" lon="4.63718">
        <ele>680</ele>
        <time>2012-09-02T07:39:33Z</time>
      </trkpt>
      <trkpt lat="45.77235" lon="4.63709">
        <ele>681</ele>
        <time>2012-09-02T07:39:39Z</time>
      </trkpt>
      <trkpt lat="45.77225" lon="4.63706">
        <ele>682</ele>
        <time>2012-09-02T07:39:43Z</time>
      </trkpt>
      <trkpt lat="45.77218" lon="4.63696">
        <ele>682</ele>
        <time>2012-09-02T07:39:50Z</time>
      </trkpt>
      <trkpt lat="45.77208" lon="4.6369">
        <ele>681</ele>
        <time>2012-09-02T07:39:55Z</time>
      </trkpt>
      <trkpt lat="45.77198" lon="4.63685">
        <ele>681</ele>
        <time>2012-09-02T07:40:01Z</time>
      </trkpt>
      <trkpt lat="45.7719" lon="4.63676">
        <ele>681</ele>
        <time>2012-09-02T07:40:10Z</time>
      </trkpt>
      <trkpt lat="45.77179" lon="4.63675">
        <ele>680</ele>
        <time>2012-09-02T07:40:15Z</time>
      </trkpt>
      <trkpt lat="45.7717" lon="4.63673">
        <ele>680</ele>
        <time>2012-09-02T07:40:18Z</time>
      </trkpt>
      <trkpt lat="45.77158" lon="4.63678">
        <ele>681</ele>
        <time>2012-09-02T07:40:21Z</time>
      </trkpt>
      <trkpt lat="45.77149" lon="4.63682">
        <ele>680</ele>
        <time>2012-09-02T07:40:25Z</time>
      </trkpt>
      <trkpt lat="45.77138" lon="4.63686">
        <ele>680</ele>
        <time>2012-09-02T07:40:30Z</time>
      </trkpt>
      <trkpt lat="45.77129" lon="4.63688">
        <ele>682</ele>
        <time>2012-09-02T07:40:34Z</time>
      </trkpt>
      <trkpt lat="45.7712" lon="4.63687">
        <ele>686</ele>
        <time>2012-09-02T07:40:41Z</time>
      </trkpt>
      <trkpt lat="45.7711" lon="4.63686">
        <ele>688</ele>
        <time>2012-09-02T07:40:48Z</time>
      </trkpt>
      <trkpt lat="45.771" lon="4.6368">
        <ele>691</ele>
        <time>2012-09-02T07:40:54Z</time>
      </trkpt>
      <trkpt lat="45.77096" lon="4.63669">
        <ele>695</ele>
        <time>2012-09-02T07:41:01Z</time>
      </trkpt>
      <trkpt lat="45.7709" lon="4.63657">
        <ele>696</ele>
        <time>2012-09-02T07:41:08Z</time>
      </trkpt>
      <trkpt lat="45.77081" lon="4.63656">
        <ele>694</ele>
        <time>2012-09-02T07:41:11Z</time>
      </trkpt>
      <trkpt lat="45.77069" lon="4.6366">
        <ele>692</ele>
        <time>2012-09-02T07:41:14Z</time>
      </trkpt>
      <trkpt lat="45.77059" lon="4.63662">
        <ele>689</ele>
        <time>2012-09-02T07:41:18Z</time>
      </trkpt>
      <trkpt lat="45.77049" lon="4.63664">
        <ele>685</ele>
        <time>2012-09-02T07:41:24Z</time>
      </trkpt>
      <trkpt lat="45.7704" lon="4.63664">
        <ele>681</ele>
        <time>2012-09-02T07:41:31Z</time>
      </trkpt>
      <trkpt lat="45.7703" lon="4.63662">
        <ele>680</ele>
        <time>2012-09-02T07:41:38Z</time>
      </trkpt>
      <trkpt lat="45.77021" lon="4.6366">
        <ele>681</ele>
        <time>2012-09-02T07:41:45Z</time>
      </trkpt>
      <trkpt lat="45.77011" lon="4.63649">
        <ele>685</ele>
        <time>2012-09-02T07:41:56Z</time>
      </trkpt>
      <trkpt lat="45.77004" lon="4.6364">
        <ele>686</ele>
        <time>2012-09-02T07:42:03Z</time>
      </trkpt>
      <trkpt lat="45.76998" lon="4.6363">
        <ele>686</ele>
        <time>2012-09-02T07:42:10Z</time>
      </trkpt>
      <trkpt lat="45.7699" lon="4.6362">
        <ele>687</ele>
        <time>2012-09-02T07:42:16Z</time>
      </trkpt>
      <trkpt lat="45.76983" lon="4.63612">
        <ele>688</ele>
        <time>2012-09-02T07:42:20Z</time>
      </trkpt>
      <trkpt lat="45.76976" lon="4.63603">
        <ele>688</ele>
        <time>2012-09-02T07:42:24Z</time>
      </trkpt>
      <trkpt lat="45.7697" lon="4.63593">
        <ele>691</ele>
        <time>2012-09-02T07:42:30Z</time>
      </trkpt>
      <trkpt lat="45.76961" lon="4.6359">
        <ele>695</ele>
        <time>2012-09-02T07:42:36Z</time>
      </trkpt>
      <trkpt lat="45.76952" lon="4.63585">
        <ele>696</ele>
        <time>2012-09-02T07:42:42Z</time>
      </trkpt>
      <trkpt lat="45.7694" lon="4.6358">
        <ele>700</ele>
        <time>2012-09-02T07:42:52Z</time>
      </trkpt>
      <trkpt lat="45.76931" lon="4.63574">
        <ele>701</ele>
        <time>2012-09-02T07:42:58Z</time>
      </trkpt>
      <trkpt lat="45.76923" lon="4.63565">
        <ele>701</ele>
        <time>2012-09-02T07:43:07Z</time>
      </trkpt>
      <trkpt lat="45.76916" lon="4.63554">
        <ele>701</ele>
        <time>2012-09-02T07:43:14Z</time>
      </trkpt>
      <trkpt lat="45.76911" lon="4.63543">
        <ele>702</ele>
        <time>2012-09-02T07:43:20Z</time>
      </trkpt>
      <trkpt lat="45.76909" lon="4.63528">
        <ele>705</ele>
        <time>2012-09-02T07:43:24Z</time>
      </trkpt>
      <trkpt lat="45.76907" lon="4.63516">
        <ele>708</ele>
        <time>2012-09-02T07:43:28Z</time>
      </trkpt>
      <trkpt lat="45.76906" lon="4.63501">
        <ele>712</ele>
        <time>2012-09-02T07:43:33Z</time>
      </trkpt>
      <trkpt lat="45.76902" lon="4.63489">
        <ele>713</ele>
        <time>2012-09-02T07:43:36Z</time>
      </trkpt>
      <trkpt lat="45.769" lon="4.63477">
        <ele>714</ele>
        <time>2012-09-02T07:43:40Z</time>
      </trkpt>
      <trkpt lat="45.76896" lon="4.63465">
        <ele>715</ele>
        <time>2012-09-02T07:43:44Z</time>
      </trkpt>
      <trkpt lat="45.76888" lon="4.63453">
        <ele>716</ele>
        <time>2012-09-02T07:43:48Z</time>
      </trkpt>
      <trkpt lat="45.76883" lon="4.63439">
        <ele>716</ele>
        <time>2012-09-02T07:43:53Z</time>
      </trkpt>
      <trkpt lat="45.76877" lon="4.63425">
        <ele>717</ele>
        <time>2012-09-02T07:43:57Z</time>
      </trkpt>
      <trkpt lat="45.76874" lon="4.63413">
        <ele>718</ele>
        <time>2012-09-02T07:44:01Z</time>
      </trkpt>
      <trkpt lat="45.76869" lon="4.63399">
        <ele>718</ele>
        <time>2012-09-02T07:44:06Z</time>
      </trkpt>
      <trkpt lat="45.76867" lon="4.63386">
        <ele>718</ele>
        <time>2012-09-02T07:44:10Z</time>
      </trkpt>
      <trkpt lat="45.76864" lon="4.6337">
        <ele>717</ele>
        <time>2012-09-02T07:44:15Z</time>
      </trkpt>
      <trkpt lat="45.76861" lon="4.63358">
        <ele>716</ele>
        <time>2012-09-02T07:44:19Z</time>
      </trkpt>
      <trkpt lat="45.76858" lon="4.63345">
        <ele>716</ele>
        <time>2012-09-02T07:44:23Z</time>
      </trkpt>
      <trkpt lat="45.76853" lon="4.63333">
        <ele>716</ele>
        <time>2012-09-02T07:44:27Z</time>
      </trkpt>
      <trkpt lat="45.76847" lon="4.63323">
        <ele>718</ele>
        <time>2012-09-02T07:44:32Z</time>
      </trkpt>
      <trkpt lat="45.76839" lon="4.63311">
        <ele>720</ele>
        <time>2012-09-02T07:44:37Z</time>
      </trkpt>
      <trkpt lat="45.76833" lon="4.633">
        <ele>722</ele>
        <time>2012-09-02T07:44:41Z</time>
      </trkpt>
      <trkpt lat="45.76823" lon="4.6329">
        <ele>723</ele>
        <time>2012-09-02T07:44:45Z</time>
      </trkpt>
      <trkpt lat="45.76817" lon="4.63281">
        <ele>724</ele>
        <time>2012-09-02T07:44:48Z</time>
      </trkpt>
      <trkpt lat="45.7681" lon="4.6327">
        <ele>724</ele>
        <time>2012-09-02T07:44:52Z</time>
      </trkpt>
      <trkpt lat="45.76802" lon="4.63261">
        <ele>724</ele>
        <time>2012-09-02T07:44:56Z</time>
      </trkpt>
      <trkpt lat="45.76794" lon="4.63251">
        <ele>725</ele>
        <time>2012-09-02T07:45:01Z</time>
      </trkpt>
      <trkpt lat="45.7679" lon="4.63237">
        <ele>726</ele>
        <time>2012-09-02T07:45:05Z</time>
      </trkpt>
      <trkpt lat="45.76785" lon="4.63225">
        <ele>727</ele>
        <time>2012-09-02T07:45:09Z</time>
      </trkpt>
      <trkpt lat="45.76781" lon="4.63212">
        <ele>728</ele>
        <time>2012-09-02T07:45:14Z</time>
      </trkpt>
      <trkpt lat="45.76775" lon="4.632">
        <ele>729</ele>
        <time>2012-09-02T07:45:19Z</time>
      </trkpt>
      <trkpt lat="45.76767" lon="4.63192">
        <ele>728</ele>
        <time>2012-09-02T07:45:22Z</time>
      </trkpt>
      <trkpt lat="45.76762" lon="4.63181">
        <ele>728</ele>
        <time>2012-09-02T07:45:26Z</time>
      </trkpt>
      <trkpt lat="45.76755" lon="4.63168">
        <ele>728</ele>
        <time>2012-09-02T07:45:30Z</time>
      </trkpt>
      <trkpt lat="45.76747" lon="4.63156">
        <ele>726</ele>
        <time>2012-09-02T07:45:34Z</time>
      </trkpt>
      <trkpt lat="45.76742" lon="4.63144">
        <ele>727</ele>
        <time>2012-09-02T07:45:38Z</time>
      </trkpt>
      <trkpt lat="45.76736" lon="4.63131">
        <ele>728</ele>
        <time>2012-09-02T07:45:42Z</time>
      </trkpt>
      <trkpt lat="45.76729" lon="4.63119">
        <ele>729</ele>
        <time>2012-09-02T07:45:47Z</time>
      </trkpt>
      <trkpt lat="45.7672" lon="4.63109">
        <ele>730</ele>
        <time>2012-09-02T07:45:51Z</time>
      </trkpt>
      <trkpt lat="45.76712" lon="4.63104">
        <ele>731</ele>
        <time>2012-09-02T07:45:54Z</time>
      </trkpt>
      <trkpt lat="45.76704" lon="4.63093">
        <ele>731</ele>
        <time>2012-09-02T07:45:58Z</time>
      </trkpt>
      <trkpt lat="45.76697" lon="4.63081">
        <ele>730</ele>
        <time>2012-09-02T07:46:03Z</time>
      </trkpt>
      <trkpt lat="45.76687" lon="4.63074">
        <ele>728</ele>
        <time>2012-09-02T07:46:07Z</time>
      </trkpt>
      <trkpt lat="45.76677" lon="4.63071">
        <ele>727</ele>
        <time>2012-09-02T07:46:11Z</time>
      </trkpt>
      <trkpt lat="45.7667" lon="4.63061">
        <ele>726</ele>
        <time>2012-09-02T07:46:16Z</time>
      </trkpt>
      <trkpt lat="45.76662" lon="4.63054">
        <ele>725</ele>
        <time>2012-09-02T07:46:21Z</time>
      </trkpt>
      <trkpt lat="45.76651" lon="4.63049">
        <ele>727</ele>
        <time>2012-09-02T07:46:24Z</time>
      </trkpt>
      <trkpt lat="45.76637" lon="4.63044">
        <ele>728</ele>
        <time>2012-09-02T07:46:28Z</time>
      </trkpt>
      <trkpt lat="45.76626" lon="4.63041">
        <ele>729</ele>
        <time>2012-09-02T07:46:32Z</time>
      </trkpt>
      <trkpt lat="45.76613" lon="4.63041">
        <ele>730</ele>
        <time>2012-09-02T07:46:35Z</time>
      </trkpt>
      <trkpt lat="45.76604" lon="4.63041">
        <ele>730</ele>
        <time>2012-09-02T07:46:37Z</time>
      </trkpt>
      <trkpt lat="45.76593" lon="4.63044">
        <ele>731</ele>
        <time>2012-09-02T07:46:39Z</time>
      </trkpt>
      <trkpt lat="45.76582" lon="4.63047">
        <ele>731</ele>
        <time>2012-09-02T07:46:43Z</time>
      </trkpt>
      <trkpt lat="45.7657" lon="4.6305">
        <ele>731</ele>
        <time>2012-09-02T07:46:46Z</time>
      </trkpt>
      <trkpt lat="45.76559" lon="4.63055">
        <ele>730</ele>
        <time>2012-09-02T07:46:49Z</time>
      </trkpt>
      <trkpt lat="45.76548" lon="4.63059">
        <ele>730</ele>
        <time>2012-09-02T07:46:52Z</time>
      </trkpt>
      <trkpt lat="45.76537" lon="4.63061">
        <ele>731</ele>
        <time>2012-09-02T07:46:55Z</time>
      </trkpt>
      <trkpt lat="45.76528" lon="4.63061">
        <ele>731</ele>
        <time>2012-09-02T07:46:58Z</time>
      </trkpt>
      <trkpt lat="45.76519" lon="4.6306">
        <ele>731</ele>
        <time>2012-09-02T07:47:02Z</time>
      </trkpt>
      <trkpt lat="45.76507" lon="4.63059">
        <ele>730</ele>
        <time>2012-09-02T07:47:08Z</time>
      </trkpt>
      <trkpt lat="45.76497" lon="4.63055">
        <ele>730</ele>
        <time>2012-09-02T07:47:12Z</time>
      </trkpt>
      <trkpt lat="45.76488" lon="4.6305">
        <ele>730</ele>
        <time>2012-09-02T07:47:16Z</time>
      </trkpt>
      <trkpt lat="45.76478" lon="4.63046">
        <ele>730</ele>
        <time>2012-09-02T07:47:20Z</time>
      </trkpt>
      <trkpt lat="45.76468" lon="4.63041">
        <ele>730</ele>
        <time>2012-09-02T07:47:25Z</time>
      </trkpt>
      <trkpt lat="45.76459" lon="4.63033">
        <ele>732</ele>
        <time>2012-09-02T07:47:31Z</time>
      </trkpt>
      <trkpt lat="45.76448" lon="4.6303">
        <ele>734</ele>
        <time>2012-09-02T07:47:34Z</time>
      </trkpt>
      <trkpt lat="45.76439" lon="4.63023">
        <ele>736</ele>
        <time>2012-09-02T07:47:38Z</time>
      </trkpt>
      <trkpt lat="45.76432" lon="4.63016">
        <ele>738</ele>
        <time>2012-09-02T07:47:42Z</time>
      </trkpt>
      <trkpt lat="45.76422" lon="4.63004">
        <ele>741</ele>
        <time>2012-09-02T07:47:47Z</time>
      </trkpt>
      <trkpt lat="45.76414" lon="4.62993">
        <ele>742</ele>
        <time>2012-09-02T07:47:51Z</time>
      </trkpt>
      <trkpt lat="45.76404" lon="4.62986">
        <ele>742</ele>
        <time>2012-09-02T07:47:54Z</time>
      </trkpt>
      <trkpt lat="45.76395" lon="4.62978">
        <ele>744</ele>
        <time>2012-09-02T07:47:58Z</time>
      </trkpt>
      <trkpt lat="45.76386" lon="4.62974">
        <ele>744</ele>
        <time>2012-09-02T07:48:02Z</time>
      </trkpt>
      <trkpt lat="45.76375" lon="4.62968">
        <ele>743</ele>
        <time>2012-09-02T07:48:06Z</time>
      </trkpt>
      <trkpt lat="45.76367" lon="4.62963">
        <ele>742</ele>
        <time>2012-09-02T07:48:09Z</time>
      </trkpt>
      <trkpt lat="45.76358" lon="4.62957">
        <ele>741</ele>
        <time>2012-09-02T07:48:12Z</time>
      </trkpt>
      <trkpt lat="45.7635" lon="4.62948">
        <ele>739</ele>
        <time>2012-09-02T07:48:15Z</time>
      </trkpt>
      <trkpt lat="45.76343" lon="4.62937">
        <ele>738</ele>
        <time>2012-09-02T07:48:18Z</time>
      </trkpt>
      <trkpt lat="45.76335" lon="4.62928">
        <ele>737</ele>
        <time>2012-09-02T07:48:21Z</time>
      </trkpt>
      <trkpt lat="45.76325" lon="4.62923">
        <ele>735</ele>
        <time>2012-09-02T07:48:25Z</time>
      </trkpt>
      <trkpt lat="45.76318" lon="4.62914">
        <ele>733</ele>
        <time>2012-09-02T07:48:29Z</time>
      </trkpt>
      <trkpt lat="45.7631" lon="4.629">
        <ele>733</ele>
        <time>2012-09-02T07:48:33Z</time>
      </trkpt>
      <trkpt lat="45.76302" lon="4.6289">
        <ele>733</ele>
        <time>2012-09-02T07:48:36Z</time>
      </trkpt>
      <trkpt lat="45.76297" lon="4.62877">
        <ele>732</ele>
        <time>2012-09-02T07:48:41Z</time>
      </trkpt>
      <trkpt lat="45.7629" lon="4.62868">
        <ele>732</ele>
        <time>2012-09-02T07:48:45Z</time>
      </trkpt>
      <trkpt lat="45.76281" lon="4.6286">
        <ele>734</ele>
        <time>2012-09-02T07:48:50Z</time>
      </trkpt>
      <trkpt lat="45.76269" lon="4.62859">
        <ele>732</ele>
        <time>2012-09-02T07:48:53Z</time>
      </trkpt>
      <trkpt lat="45.7626" lon="4.62859">
        <ele>731</ele>
        <time>2012-09-02T07:48:56Z</time>
      </trkpt>
      <trkpt lat="45.7625" lon="4.62856">
        <ele>729</ele>
        <time>2012-09-02T07:48:59Z</time>
      </trkpt>
      <trkpt lat="45.76241" lon="4.62854">
        <ele>726</ele>
        <time>2012-09-02T07:49:02Z</time>
      </trkpt>
      <trkpt lat="45.76231" lon="4.62855">
        <ele>724</ele>
        <time>2012-09-02T07:49:05Z</time>
      </trkpt>
      <trkpt lat="45.76221" lon="4.62853">
        <ele>721</ele>
        <time>2012-09-02T07:49:09Z</time>
      </trkpt>
      <trkpt lat="45.76211" lon="4.62849">
        <ele>720</ele>
        <time>2012-09-02T07:49:14Z</time>
      </trkpt>
      <trkpt lat="45.76203" lon="4.6284">
        <ele>719</ele>
        <time>2012-09-02T07:49:19Z</time>
      </trkpt>
      <trkpt lat="45.76193" lon="4.62834">
        <ele>720</ele>
        <time>2012-09-02T07:49:23Z</time>
      </trkpt>
      <trkpt lat="45.76188" lon="4.62821">
        <ele>720</ele>
        <time>2012-09-02T07:49:28Z</time>
      </trkpt>
      <trkpt lat="45.76184" lon="4.62808">
        <ele>722</ele>
        <time>2012-09-02T07:49:34Z</time>
      </trkpt>
      <trkpt lat="45.76179" lon="4.62796">
        <ele>723</ele>
        <time>2012-09-02T07:49:39Z</time>
      </trkpt>
      <trkpt lat="45.76176" lon="4.62784">
        <ele>724</ele>
        <time>2012-09-02T07:49:43Z</time>
      </trkpt>
      <trkpt lat="45.76172" lon="4.62769">
        <ele>726</ele>
        <time>2012-09-02T07:49:48Z</time>
      </trkpt>
      <trkpt lat="45.76165" lon="4.62756">
        <ele>729</ele>
        <time>2012-09-02T07:49:53Z</time>
      </trkpt>
      <trkpt lat="45.76156" lon="4.62748">
        <ele>732</ele>
        <time>2012-09-02T07:49:58Z</time>
      </trkpt>
      <trkpt lat="45.76151" lon="4.62735">
        <ele>735</ele>
        <time>2012-09-02T07:50:02Z</time>
      </trkpt>
      <trkpt lat="45.76143" lon="4.6273">
        <ele>737</ele>
        <time>2012-09-02T07:50:06Z</time>
      </trkpt>
      <trkpt lat="45.76132" lon="4.62733">
        <ele>738</ele>
        <time>2012-09-02T07:50:10Z</time>
      </trkpt>
      <trkpt lat="45.76124" lon="4.62743">
        <ele>741</ele>
        <time>2012-09-02T07:50:14Z</time>
      </trkpt>
      <trkpt lat="45.76115" lon="4.62754">
        <ele>744</ele>
        <time>2012-09-02T07:50:20Z</time>
      </trkpt>
      <trkpt lat="45.76105" lon="4.62765">
        <ele>745</ele>
        <time>2012-09-02T07:50:24Z</time>
      </trkpt>
      <trkpt lat="45.76097" lon="4.62776">
        <ele>745</ele>
        <time>2012-09-02T07:50:27Z</time>
      </trkpt>
      <trkpt lat="45.76086" lon="4.62785">
        <ele>744</ele>
        <time>2012-09-02T07:50:29Z</time>
      </trkpt>
      <trkpt lat="45.76076" lon="4.62793">
        <ele>742</ele>
        <time>2012-09-02T07:50:31Z</time>
      </trkpt>
      <trkpt lat="45.76068" lon="4.62801">
        <ele>739</ele>
        <time>2012-09-02T07:50:34Z</time>
      </trkpt>
      <trkpt lat="45.76061" lon="4.6281">
        <ele>737</ele>
        <time>2012-09-02T07:50:37Z</time>
      </trkpt>
      <trkpt lat="45.76062" lon="4.62808">
        <ele>728</ele>
        <time>2012-09-02T07:50:59Z</time>
      </trkpt>
      <trkpt lat="45.76061" lon="4.62786">
        <ele>728</ele>
        <time>2012-09-02T07:51:11Z</time>
      </trkpt>
      <trkpt lat="45.76062" lon="4.62767">
        <ele>732</ele>
        <time>2012-09-02T07:51:17Z</time>
      </trkpt>
      <trkpt lat="45.76063" lon="4.62752">
        <ele>734</ele>
        <time>2012-09-02T07:51:21Z</time>
      </trkpt>
      <trkpt lat="45.76063" lon="4.62738">
        <ele>737</ele>
        <time>2012-09-02T07:51:27Z</time>
      </trkpt>
      <trkpt lat="45.76068" lon="4.62727">
        <ele>740</ele>
        <time>2012-09-02T07:51:31Z</time>
      </trkpt>
      <trkpt lat="45.7608" lon="4.62713">
        <ele>741</ele>
        <time>2012-09-02T07:51:37Z</time>
      </trkpt>
      <trkpt lat="45.76088" lon="4.62705">
        <ele>742</ele>
        <time>2012-09-02T07:51:41Z</time>
      </trkpt>
      <trkpt lat="45.76098" lon="4.62698">
        <ele>743</ele>
        <time>2012-09-02T07:51:47Z</time>
      </trkpt>
      <trkpt lat="45.76109" lon="4.62695">
        <ele>743</ele>
        <time>2012-09-02T07:51:50Z</time>
      </trkpt>
      <trkpt lat="45.76121" lon="4.62695">
        <ele>742</ele>
        <time>2012-09-02T07:51:53Z</time>
      </trkpt>
      <trkpt lat="45.76132" lon="4.62695">
        <ele>741</ele>
        <time>2012-09-02T07:51:57Z</time>
      </trkpt>
      <trkpt lat="45.76138" lon="4.6268">
        <ele>742</ele>
        <time>2012-09-02T07:52:01Z</time>
      </trkpt>
      <trkpt lat="45.76134" lon="4.62667">
        <ele>745</ele>
        <time>2012-09-02T07:52:08Z</time>
      </trkpt>
      <trkpt lat="45.76125" lon="4.62662">
        <ele>747</ele>
        <time>2012-09-02T07:52:12Z</time>
      </trkpt>
      <trkpt lat="45.76116" lon="4.6266">
        <ele>751</ele>
        <time>2012-09-02T07:52:18Z</time>
      </trkpt>
      <trkpt lat="45.76107" lon="4.62655">
        <ele>754</ele>
        <time>2012-09-02T07:52:24Z</time>
      </trkpt>
      <trkpt lat="45.76097" lon="4.62653">
        <ele>756</ele>
        <time>2012-09-02T07:52:29Z</time>
      </trkpt>
      <trkpt lat="45.76087" lon="4.62651">
        <ele>757</ele>
        <time>2012-09-02T07:52:33Z</time>
      </trkpt>
      <trkpt lat="45.76078" lon="4.62647">
        <ele>757</ele>
        <time>2012-09-02T07:52:36Z</time>
      </trkpt>
      <trkpt lat="45.76068" lon="4.62642">
        <ele>755</ele>
        <time>2012-09-02T07:52:40Z</time>
      </trkpt>
      <trkpt lat="45.76057" lon="4.62639">
        <ele>753</ele>
        <time>2012-09-02T07:52:44Z</time>
      </trkpt>
      <trkpt lat="45.76047" lon="4.62637">
        <ele>753</ele>
        <time>2012-09-02T07:52:47Z</time>
      </trkpt>
      <trkpt lat="45.76039" lon="4.62646">
        <ele>754</ele>
        <time>2012-09-02T07:52:51Z</time>
      </trkpt>
      <trkpt lat="45.76034" lon="4.62656">
        <ele>755</ele>
        <time>2012-09-02T07:52:54Z</time>
      </trkpt>
      <trkpt lat="45.76028" lon="4.62667">
        <ele>757</ele>
        <time>2012-09-02T07:52:58Z</time>
      </trkpt>
      <trkpt lat="45.76021" lon="4.62681">
        <ele>757</ele>
        <time>2012-09-02T07:53:04Z</time>
      </trkpt>
      <trkpt lat="45.76013" lon="4.62692">
        <ele>757</ele>
        <time>2012-09-02T07:53:09Z</time>
      </trkpt>
      <trkpt lat="45.76006" lon="4.62702">
        <ele>755</ele>
        <time>2012-09-02T07:53:13Z</time>
      </trkpt>
      <trkpt lat="45.75999" lon="4.62711">
        <ele>753</ele>
        <time>2012-09-02T07:53:17Z</time>
      </trkpt>
      <trkpt lat="45.75993" lon="4.62721">
        <ele>751</ele>
        <time>2012-09-02T07:53:21Z</time>
      </trkpt>
      <trkpt lat="45.7599" lon="4.62733">
        <ele>747</ele>
        <time>2012-09-02T07:53:25Z</time>
      </trkpt>
      <trkpt lat="45.75987" lon="4.62747">
        <ele>745</ele>
        <time>2012-09-02T07:53:30Z</time>
      </trkpt>
      <trkpt lat="45.75982" lon="4.62759">
        <ele>745</ele>
        <time>2012-09-02T07:53:33Z</time>
      </trkpt>
      <trkpt lat="45.75977" lon="4.62772">
        <ele>747</ele>
        <time>2012-09-02T07:53:39Z</time>
      </trkpt>
      <trkpt lat="45.75967" lon="4.62779">
        <ele>747</ele>
        <time>2012-09-02T07:53:42Z</time>
      </trkpt>
      <trkpt lat="45.75958" lon="4.62784">
        <ele>746</ele>
        <time>2012-09-02T07:53:45Z</time>
      </trkpt>
      <trkpt lat="45.75947" lon="4.62789">
        <ele>746</ele>
        <time>2012-09-02T07:53:49Z</time>
      </trkpt>
      <trkpt lat="45.75936" lon="4.62797">
        <ele>747</ele>
        <time>2012-09-02T07:53:53Z</time>
      </trkpt>
      <trkpt lat="45.75926" lon="4.62802">
        <ele>748</ele>
        <time>2012-09-02T07:53:56Z</time>
      </trkpt>
      <trkpt lat="45.75917" lon="4.62806">
        <ele>749</ele>
        <time>2012-09-02T07:54:00Z</time>
      </trkpt>
      <trkpt lat="45.75907" lon="4.62805">
        <ele>748</ele>
        <time>2012-09-02T07:54:05Z</time>
      </trkpt>
      <trkpt lat="45.75896" lon="4.62803">
        <ele>751</ele>
        <time>2012-09-02T07:54:10Z</time>
      </trkpt>
      <trkpt lat="45.75886" lon="4.62801">
        <ele>754</ele>
        <time>2012-09-02T07:54:15Z</time>
      </trkpt>
      <trkpt lat="45.75877" lon="4.628">
        <ele>756</ele>
        <time>2012-09-02T07:54:19Z</time>
      </trkpt>
      <trkpt lat="45.75867" lon="4.62798">
        <ele>757</ele>
        <time>2012-09-02T07:54:23Z</time>
      </trkpt>
      <trkpt lat="45.75855" lon="4.62799">
        <ele>758</ele>
        <time>2012-09-02T07:54:27Z</time>
      </trkpt>
      <trkpt lat="45.75842" lon="4.62801">
        <ele>758</ele>
        <time>2012-09-02T07:54:30Z</time>
      </trkpt>
      <trkpt lat="45.75832" lon="4.62801">
        <ele>758</ele>
        <time>2012-09-02T07:54:34Z</time>
      </trkpt>
      <trkpt lat="45.75823" lon="4.62798">
        <ele>759</ele>
        <time>2012-09-02T07:54:38Z</time>
      </trkpt>
      <trkpt lat="45.75813" lon="4.62795">
        <ele>759</ele>
        <time>2012-09-02T07:54:43Z</time>
      </trkpt>
      <trkpt lat="45.75803" lon="4.62791">
        <ele>759</ele>
        <time>2012-09-02T07:54:47Z</time>
      </trkpt>
      <trkpt lat="45.75793" lon="4.62786">
        <ele>761</ele>
        <time>2012-09-02T07:54:51Z</time>
      </trkpt>
      <trkpt lat="45.75784" lon="4.6278">
        <ele>761</ele>
        <time>2012-09-02T07:54:54Z</time>
      </trkpt>
      <trkpt lat="45.75774" lon="4.62772">
        <ele>761</ele>
        <time>2012-09-02T07:54:58Z</time>
      </trkpt>
      <trkpt lat="45.75767" lon="4.62763">
        <ele>760</ele>
        <time>2012-09-02T07:55:02Z</time>
      </trkpt>
      <trkpt lat="45.7576" lon="4.62751">
        <ele>759</ele>
        <time>2012-09-02T07:55:06Z</time>
      </trkpt>
      <trkpt lat="45.75752" lon="4.62739">
        <ele>760</ele>
        <time>2012-09-02T07:55:10Z</time>
      </trkpt>
      <trkpt lat="45.75747" lon="4.62732">
        <ele>760</ele>
        <time>2012-09-02T07:55:13Z</time>
      </trkpt>
      <trkpt lat="45.75743" lon="4.62724">
        <ele>761</ele>
        <time>2012-09-02T07:55:16Z</time>
      </trkpt>
      <trkpt lat="45.75741" lon="4.62716">
        <ele>762</ele>
        <time>2012-09-02T07:55:19Z</time>
      </trkpt>
      <trkpt lat="45.75739" lon="4.62709">
        <ele>762</ele>
        <time>2012-09-02T07:55:21Z</time>
      </trkpt>
      <trkpt lat="45.75736" lon="4.62699">
        <ele>763</ele>
        <time>2012-09-02T07:55:24Z</time>
      </trkpt>
      <trkpt lat="45.75734" lon="4.62689">
        <ele>764</ele>
        <time>2012-09-02T07:55:27Z</time>
      </trkpt>
      <trkpt lat="45.7573" lon="4.62673">
        <ele>766</ele>
        <time>2012-09-02T07:55:31Z</time>
      </trkpt>
      <trkpt lat="45.75729" lon="4.62666">
        <ele>766</ele>
        <time>2012-09-02T07:55:33Z</time>
      </trkpt>
      <trkpt lat="45.75727" lon="4.6266">
        <ele>766</ele>
        <time>2012-09-02T07:55:35Z</time>
      </trkpt>
      <trkpt lat="45.75725" lon="4.62652">
        <ele>766</ele>
        <time>2012-09-02T07:55:37Z</time>
      </trkpt>
      <trkpt lat="45.75724" lon="4.62645">
        <ele>765</ele>
        <time>2012-09-02T07:55:39Z</time>
      </trkpt>
      <trkpt lat="45.75724" lon="4.62638">
        <ele>765</ele>
        <time>2012-09-02T07:55:41Z</time>
      </trkpt>
      <trkpt lat="45.75722" lon="4.62631">
        <ele>766</ele>
        <time>2012-09-02T07:55:43Z</time>
      </trkpt>
      <trkpt lat="45.75721" lon="4.62623">
        <ele>766</ele>
        <time>2012-09-02T07:55:45Z</time>
      </trkpt>
      <trkpt lat="45.7572" lon="4.62616">
        <ele>766</ele>
        <time>2012-09-02T07:55:47Z</time>
      </trkpt>
      <trkpt lat="45.75719" lon="4.62608">
        <ele>766</ele>
        <time>2012-09-02T07:55:49Z</time>
      </trkpt>
      <trkpt lat="45.75718" lon="4.62601">
        <ele>766</ele>
        <time>2012-09-02T07:55:51Z</time>
      </trkpt>
      <trkpt lat="45.75718" lon="4.62592">
        <ele>765</ele>
        <time>2012-09-02T07:55:53Z</time>
      </trkpt>
      <trkpt lat="45.75717" lon="4.62585">
        <ele>765</ele>
        <time>2012-09-02T07:55:55Z</time>
      </trkpt>
      <trkpt lat="45.75717" lon="4.62577">
        <ele>765</ele>
        <time>2012-09-02T07:55:57Z</time>
      </trkpt>
      <trkpt lat="45.75717" lon="4.6257">
        <ele>765</ele>
        <time>2012-09-02T07:55:59Z</time>
      </trkpt>
      <trkpt lat="45.75716" lon="4.62562">
        <ele>765</ele>
        <time>2012-09-02T07:56:01Z</time>
      </trkpt>
      <trkpt lat="45.75716" lon="4.62555">
        <ele>765</ele>
        <time>2012-09-02T07:56:03Z</time>
      </trkpt>
      <trkpt lat="45.75715" lon="4.62546">
        <ele>766</ele>
        <time>2012-09-02T07:56:05Z</time>
      </trkpt>
      <trkpt lat="45.75714" lon="4.62537">
        <ele>765</ele>
        <time>2012-09-02T07:56:07Z</time>
      </trkpt>
      <trkpt lat="45.75714" lon="4.62529">
        <ele>765</ele>
        <time>2012-09-02T07:56:09Z</time>
      </trkpt>
      <trkpt lat="45.75713" lon="4.62521">
        <ele>765</ele>
        <time>2012-09-02T07:56:11Z</time>
      </trkpt>
      <trkpt lat="45.75711" lon="4.62512">
        <ele>764</ele>
        <time>2012-09-02T07:56:13Z</time>
      </trkpt>
      <trkpt lat="45.7571" lon="4.62503">
        <ele>764</ele>
        <time>2012-09-02T07:56:16Z</time>
      </trkpt>
      <trkpt lat="45.75709" lon="4.62494">
        <ele>764</ele>
        <time>2012-09-02T07:56:18Z</time>
      </trkpt>
      <trkpt lat="45.75709" lon="4.62485">
        <ele>764</ele>
        <time>2012-09-02T07:56:20Z</time>
      </trkpt>
      <trkpt lat="45.75708" lon="4.62478">
        <ele>763</ele>
        <time>2012-09-02T07:56:22Z</time>
      </trkpt>
      <trkpt lat="45.75708" lon="4.62468">
        <ele>764</ele>
        <time>2012-09-02T07:56:24Z</time>
      </trkpt>
      <trkpt lat="45.75708" lon="4.62459">
        <ele>764</ele>
        <time>2012-09-02T07:56:26Z</time>
      </trkpt>
      <trkpt lat="45.75708" lon="4.62449">
        <ele>764</ele>
        <time>2012-09-02T07:56:28Z</time>
      </trkpt>
      <trkpt lat="45.75707" lon="4.62442">
        <ele>765</ele>
        <time>2012-09-02T07:56:30Z</time>
      </trkpt>
      <trkpt lat="45.75707" lon="4.62434">
        <ele>765</ele>
        <time>2012-09-02T07:56:32Z</time>
      </trkpt>
      <trkpt lat="45.75706" lon="4.62426">
        <ele>765</ele>
        <time>2012-09-02T07:56:34Z</time>
      </trkpt>
      <trkpt lat="45.75705" lon="4.62418">
        <ele>764</ele>
        <time>2012-09-02T07:56:36Z</time>
      </trkpt>
      <trkpt lat="45.75704" lon="4.6241">
        <ele>764</ele>
        <time>2012-09-02T07:56:38Z</time>
      </trkpt>
      <trkpt lat="45.75704" lon="4.62402">
        <ele>764</ele>
        <time>2012-09-02T07:56:40Z</time>
      </trkpt>
      <trkpt lat="45.75703" lon="4.62395">
        <ele>763</ele>
        <time>2012-09-02T07:56:42Z</time>
      </trkpt>
      <trkpt lat="45.75698" lon="4.62384">
        <ele>762</ele>
        <time>2012-09-02T07:56:47Z</time>
      </trkpt>
      <trkpt lat="45.75702" lon="4.62374">
        <ele>762</ele>
        <time>2012-09-02T07:56:52Z</time>
      </trkpt>
      <trkpt lat="45.75704" lon="4.62361">
        <ele>762</ele>
        <time>2012-09-02T07:56:55Z</time>
      </trkpt>
      <trkpt lat="45.75704" lon="4.62352">
        <ele>762</ele>
        <time>2012-09-02T07:56:57Z</time>
      </trkpt>
      <trkpt lat="45.75703" lon="4.62343">
        <ele>762</ele>
        <time>2012-09-02T07:56:59Z</time>
      </trkpt>
      <trkpt lat="45.75701" lon="4.62329">
        <ele>762</ele>
        <time>2012-09-02T07:57:03Z</time>
      </trkpt>
      <trkpt lat="45.757" lon="4.62322">
        <ele>762</ele>
        <time>2012-09-02T07:57:05Z</time>
      </trkpt>
      <trkpt lat="45.75698" lon="4.62306">
        <ele>762</ele>
        <time>2012-09-02T07:57:09Z</time>
      </trkpt>
      <trkpt lat="45.75697" lon="4.62295">
        <ele>761</ele>
        <time>2012-09-02T07:57:12Z</time>
      </trkpt>
      <trkpt lat="45.75697" lon="4.62288">
        <ele>761</ele>
        <time>2012-09-02T07:57:14Z</time>
      </trkpt>
      <trkpt lat="45.75697" lon="4.62281">
        <ele>760</ele>
        <time>2012-09-02T07:57:16Z</time>
      </trkpt>
      <trkpt lat="45.75698" lon="4.62267">
        <ele>761</ele>
        <time>2012-09-02T07:57:20Z</time>
      </trkpt>
      <trkpt lat="45.75696" lon="4.62253">
        <ele>760</ele>
        <time>2012-09-02T07:57:25Z</time>
      </trkpt>
      <trkpt lat="45.75693" lon="4.62238">
        <ele>761</ele>
        <time>2012-09-02T07:57:30Z</time>
      </trkpt>
      <trkpt lat="45.75693" lon="4.62224">
        <ele>762</ele>
        <time>2012-09-02T07:57:34Z</time>
      </trkpt>
      <trkpt lat="45.75691" lon="4.62211">
        <ele>763</ele>
        <time>2012-09-02T07:57:38Z</time>
      </trkpt>
      <trkpt lat="45.75689" lon="4.62194">
        <ele>764</ele>
        <time>2012-09-02T07:57:42Z</time>
      </trkpt>
      <trkpt lat="45.75689" lon="4.62181">
        <ele>764</ele>
        <time>2012-09-02T07:57:46Z</time>
      </trkpt>
      <trkpt lat="45.7569" lon="4.62166">
        <ele>764</ele>
        <time>2012-09-02T07:57:49Z</time>
      </trkpt>
      <trkpt lat="45.75689" lon="4.62151">
        <ele>764</ele>
        <time>2012-09-02T07:57:52Z</time>
      </trkpt>
      <trkpt lat="45.75687" lon="4.62136">
        <ele>766</ele>
        <time>2012-09-02T07:57:56Z</time>
      </trkpt>
      <trkpt lat="45.75688" lon="4.62122">
        <ele>766</ele>
        <time>2012-09-02T07:57:59Z</time>
      </trkpt>
      <trkpt lat="45.75687" lon="4.62107">
        <ele>765</ele>
        <time>2012-09-02T07:58:02Z</time>
      </trkpt>
      <trkpt lat="45.75687" lon="4.6209">
        <ele>765</ele>
        <time>2012-09-02T07:58:06Z</time>
      </trkpt>
      <trkpt lat="45.75687" lon="4.62074">
        <ele>766</ele>
        <time>2012-09-02T07:58:10Z</time>
      </trkpt>
      <trkpt lat="45.75689" lon="4.62059">
        <ele>766</ele>
        <time>2012-09-02T07:58:14Z</time>
      </trkpt>
      <trkpt lat="45.75689" lon="4.62045">
        <ele>766</ele>
        <time>2012-09-02T07:58:17Z</time>
      </trkpt>
      <trkpt lat="45.75688" lon="4.62037">
        <ele>766</ele>
        <time>2012-09-02T07:58:19Z</time>
      </trkpt>
      <trkpt lat="45.75688" lon="4.6203">
        <ele>766</ele>
        <time>2012-09-02T07:58:21Z</time>
      </trkpt>
      <trkpt lat="45.75685" lon="4.62015">
        <ele>765</ele>
        <time>2012-09-02T07:58:25Z</time>
      </trkpt>
      <trkpt lat="45.75684" lon="4.62002">
        <ele>765</ele>
        <time>2012-09-02T07:58:29Z</time>
      </trkpt>
      <trkpt lat="45.75683" lon="4.61986">
        <ele>766</ele>
        <time>2012-09-02T07:58:32Z</time>
      </trkpt>
      <trkpt lat="45.75682" lon="4.61972">
        <ele>767</ele>
        <time>2012-09-02T07:58:35Z</time>
      </trkpt>
      <trkpt lat="45.7568" lon="4.61962">
        <ele>768</ele>
        <time>2012-09-02T07:58:37Z</time>
      </trkpt>
      <trkpt lat="45.75678" lon="4.61947">
        <ele>769</ele>
        <time>2012-09-02T07:58:41Z</time>
      </trkpt>
      <trkpt lat="45.75676" lon="4.6194">
        <ele>770</ele>
        <time>2012-09-02T07:58:43Z</time>
      </trkpt>
      <trkpt lat="45.75672" lon="4.61925">
        <ele>770</ele>
        <time>2012-09-02T07:58:47Z</time>
      </trkpt>
      <trkpt lat="45.75668" lon="4.61912">
        <ele>769</ele>
        <time>2012-09-02T07:58:50Z</time>
      </trkpt>
      <trkpt lat="45.75664" lon="4.619">
        <ele>767</ele>
        <time>2012-09-02T07:58:53Z</time>
      </trkpt>
      <trkpt lat="45.7566" lon="4.61886">
        <ele>765</ele>
        <time>2012-09-02T07:58:57Z</time>
      </trkpt>
      <trkpt lat="45.75656" lon="4.6187">
        <ele>762</ele>
        <time>2012-09-02T07:59:01Z</time>
      </trkpt>
      <trkpt lat="45.75651" lon="4.61858">
        <ele>762</ele>
        <time>2012-09-02T07:59:04Z</time>
      </trkpt>
      <trkpt lat="45.75646" lon="4.61845">
        <ele>762</ele>
        <time>2012-09-02T07:59:08Z</time>
      </trkpt>
      <trkpt lat="45.75645" lon="4.61832">
        <ele>762</ele>
        <time>2012-09-02T07:59:12Z</time>
      </trkpt>
      <trkpt lat="45.75643" lon="4.61819">
        <ele>761</ele>
        <time>2012-09-02T07:59:15Z</time>
      </trkpt>
      <trkpt lat="45.75638" lon="4.61801">
        <ele>759</ele>
        <time>2012-09-02T07:59:18Z</time>
      </trkpt>
      <trkpt lat="45.75632" lon="4.6179">
        <ele>758</ele>
        <time>2012-09-02T07:59:20Z</time>
      </trkpt>
      <trkpt lat="45.75625" lon="4.6178">
        <ele>758</ele>
        <time>2012-09-02T07:59:24Z</time>
      </trkpt>
      <trkpt lat="45.7562" lon="4.61776">
        <ele>759</ele>
        <time>2012-09-02T07:59:27Z</time>
      </trkpt>
      <trkpt lat="45.75611" lon="4.6178">
        <ele>762</ele>
        <time>2012-09-02T07:59:31Z</time>
      </trkpt>
      <trkpt lat="45.756" lon="4.61782">
        <ele>764</ele>
        <time>2012-09-02T07:59:36Z</time>
      </trkpt>
      <trkpt lat="45.75591" lon="4.61774">
        <ele>765</ele>
        <time>2012-09-02T07:59:42Z</time>
      </trkpt>
      <trkpt lat="45.75584" lon="4.61765">
        <ele>765</ele>
        <time>2012-09-02T07:59:47Z</time>
      </trkpt>
      <trkpt lat="45.75578" lon="4.61754">
        <ele>765</ele>
        <time>2012-09-02T07:59:52Z</time>
      </trkpt>
      <trkpt lat="45.7557" lon="4.61744">
        <ele>765</ele>
        <time>2012-09-02T07:59:57Z</time>
      </trkpt>
      <trkpt lat="45.75563" lon="4.6173">
        <ele>766</ele>
        <time>2012-09-02T08:00:05Z</time>
      </trkpt>
      <trkpt lat="45.75558" lon="4.61718">
        <ele>767</ele>
        <time>2012-09-02T08:00:10Z</time>
      </trkpt>
      <trkpt lat="45.7555" lon="4.61709">
        <ele>771</ele>
        <time>2012-09-02T08:00:15Z</time>
      </trkpt>
      <trkpt lat="45.75544" lon="4.61698">
        <ele>772</ele>
        <time>2012-09-02T08:00:20Z</time>
      </trkpt>
      <trkpt lat="45.75534" lon="4.61686">
        <ele>774</ele>
        <time>2012-09-02T08:00:26Z</time>
      </trkpt>
      <trkpt lat="45.75527" lon="4.61676">
        <ele>775</ele>
        <time>2012-09-02T08:00:30Z</time>
      </trkpt>
      <trkpt lat="45.75519" lon="4.6167">
        <ele>777</ele>
        <time>2012-09-02T08:00:34Z</time>
      </trkpt>
      <trkpt lat="45.75509" lon="4.61664">
        <ele>777</ele>
        <time>2012-09-02T08:00:39Z</time>
      </trkpt>
      <trkpt lat="45.75499" lon="4.61658">
        <ele>779</ele>
        <time>2012-09-02T08:00:44Z</time>
      </trkpt>
      <trkpt lat="45.75489" lon="4.61655">
        <ele>781</ele>
        <time>2012-09-02T08:00:49Z</time>
      </trkpt>
      <trkpt lat="45.75479" lon="4.61649">
        <ele>784</ele>
        <time>2012-09-02T08:00:53Z</time>
      </trkpt>
      <trkpt lat="45.75469" lon="4.61642">
        <ele>786</ele>
        <time>2012-09-02T08:00:57Z</time>
      </trkpt>
      <trkpt lat="45.75459" lon="4.61637">
        <ele>786</ele>
        <time>2012-09-02T08:01:01Z</time>
      </trkpt>
      <trkpt lat="45.7545" lon="4.61636">
        <ele>787</ele>
        <time>2012-09-02T08:01:05Z</time>
      </trkpt>
      <trkpt lat="45.75439" lon="4.61636">
        <ele>788</ele>
        <time>2012-09-02T08:01:09Z</time>
      </trkpt>
      <trkpt lat="45.7543" lon="4.61629">
        <ele>789</ele>
        <time>2012-09-02T08:01:14Z</time>
      </trkpt>
      <trkpt lat="45.75421" lon="4.61623">
        <ele>789</ele>
        <time>2012-09-02T08:01:18Z</time>
      </trkpt>
      <trkpt lat="45.75411" lon="4.61619">
        <ele>789</ele>
        <time>2012-09-02T08:01:23Z</time>
      </trkpt>
      <trkpt lat="45.75402" lon="4.61608">
        <ele>789</ele>
        <time>2012-09-02T08:01:30Z</time>
      </trkpt>
      <trkpt lat="45.75394" lon="4.61599">
        <ele>788</ele>
        <time>2012-09-02T08:01:35Z</time>
      </trkpt>
      <trkpt lat="45.75385" lon="4.61589">
        <ele>787</ele>
        <time>2012-09-02T08:01:39Z</time>
      </trkpt>
      <trkpt lat="45.75375" lon="4.61578">
        <ele>786</ele>
        <time>2012-09-02T08:01:44Z</time>
      </trkpt>
      <trkpt lat="45.75367" lon="4.6157">
        <ele>785</ele>
        <time>2012-09-02T08:01:48Z</time>
      </trkpt>
      <trkpt lat="45.75358" lon="4.61564">
        <ele>784</ele>
        <time>2012-09-02T08:01:53Z</time>
      </trkpt>
      <trkpt lat="45.7535" lon="4.61561">
        <ele>783</ele>
        <time>2012-09-02T08:01:56Z</time>
      </trkpt>
      <trkpt lat="45.75337" lon="4.6156">
        <ele>782</ele>
        <time>2012-09-02T08:02:00Z</time>
      </trkpt>
      <trkpt lat="45.75327" lon="4.6156">
        <ele>782</ele>
        <time>2012-09-02T08:02:03Z</time>
      </trkpt>
      <trkpt lat="45.75316" lon="4.61557">
        <ele>783</ele>
        <time>2012-09-02T08:02:07Z</time>
      </trkpt>
      <trkpt lat="45.75312" lon="4.61552">
        <ele>784</ele>
        <time>2012-09-02T08:02:09Z</time>
      </trkpt>
      <trkpt lat="45.75306" lon="4.61538">
        <ele>785</ele>
        <time>2012-09-02T08:02:14Z</time>
      </trkpt>
      <trkpt lat="45.75301" lon="4.61527">
        <ele>785</ele>
        <time>2012-09-02T08:02:17Z</time>
      </trkpt>
      <trkpt lat="45.75296" lon="4.61513">
        <ele>784</ele>
        <time>2012-09-02T08:02:21Z</time>
      </trkpt>
      <trkpt lat="45.75292" lon="4.61496">
        <ele>784</ele>
        <time>2012-09-02T08:02:25Z</time>
      </trkpt>
      <trkpt lat="45.7529" lon="4.61483">
        <ele>784</ele>
        <time>2012-09-02T08:02:28Z</time>
      </trkpt>
      <trkpt lat="45.75288" lon="4.61466">
        <ele>783</ele>
        <time>2012-09-02T08:02:31Z</time>
      </trkpt>
      <trkpt lat="45.75286" lon="4.61452">
        <ele>782</ele>
        <time>2012-09-02T08:02:34Z</time>
      </trkpt>
      <trkpt lat="45.75284" lon="4.61442">
        <ele>781</ele>
        <time>2012-09-02T08:02:36Z</time>
      </trkpt>
      <trkpt lat="45.75283" lon="4.61434">
        <ele>780</ele>
        <time>2012-09-02T08:02:38Z</time>
      </trkpt>
      <trkpt lat="45.75282" lon="4.61425">
        <ele>780</ele>
        <time>2012-09-02T08:02:40Z</time>
      </trkpt>
      <trkpt lat="45.75282" lon="4.61418">
        <ele>779</ele>
        <time>2012-09-02T08:02:42Z</time>
      </trkpt>
      <trkpt lat="45.7528" lon="4.61405">
        <ele>778</ele>
        <time>2012-09-02T08:02:46Z</time>
      </trkpt>
      <trkpt lat="45.75277" lon="4.61388">
        <ele>777</ele>
        <time>2012-09-02T08:02:50Z</time>
      </trkpt>
      <trkpt lat="45.75273" lon="4.61373">
        <ele>778</ele>
        <time>2012-09-02T08:02:53Z</time>
      </trkpt>
      <trkpt lat="45.7527" lon="4.61355">
        <ele>778</ele>
        <time>2012-09-02T08:02:56Z</time>
      </trkpt>
      <trkpt lat="45.75269" lon="4.61342">
        <ele>778</ele>
        <time>2012-09-02T08:02:59Z</time>
      </trkpt>
      <trkpt lat="45.75267" lon="4.61328">
        <ele>777</ele>
        <time>2012-09-02T08:03:02Z</time>
      </trkpt>
      <trkpt lat="45.75265" lon="4.6131">
        <ele>776</ele>
        <time>2012-09-02T08:03:05Z</time>
      </trkpt>
      <trkpt lat="45.75262" lon="4.61295">
        <ele>776</ele>
        <time>2012-09-02T08:03:08Z</time>
      </trkpt>
      <trkpt lat="45.7526" lon="4.6128">
        <ele>775</ele>
        <time>2012-09-02T08:03:11Z</time>
      </trkpt>
      <trkpt lat="45.75259" lon="4.61266">
        <ele>774</ele>
        <time>2012-09-02T08:03:14Z</time>
      </trkpt>
      <trkpt lat="45.75256" lon="4.61253">
        <ele>772</ele>
        <time>2012-09-02T08:03:17Z</time>
      </trkpt>
      <trkpt lat="45.75255" lon="4.6124">
        <ele>771</ele>
        <time>2012-09-02T08:03:20Z</time>
      </trkpt>
      <trkpt lat="45.75253" lon="4.61228">
        <ele>770</ele>
        <time>2012-09-02T08:03:23Z</time>
      </trkpt>
      <trkpt lat="45.75251" lon="4.61219">
        <ele>770</ele>
        <time>2012-09-02T08:03:25Z</time>
      </trkpt>
      <trkpt lat="45.75247" lon="4.61202">
        <ele>769</ele>
        <time>2012-09-02T08:03:28Z</time>
      </trkpt>
      <trkpt lat="45.75241" lon="4.61187">
        <ele>769</ele>
        <time>2012-09-02T08:03:32Z</time>
      </trkpt>
      <trkpt lat="45.75234" lon="4.61176">
        <ele>768</ele>
        <time>2012-09-02T08:03:35Z</time>
      </trkpt>
      <trkpt lat="45.75226" lon="4.61169">
        <ele>768</ele>
        <time>2012-09-02T08:03:38Z</time>
      </trkpt>
      <trkpt lat="45.75218" lon="4.61159">
        <ele>767</ele>
        <time>2012-09-02T08:03:41Z</time>
      </trkpt>
      <trkpt lat="45.75213" lon="4.61148">
        <ele>766</ele>
        <time>2012-09-02T08:03:44Z</time>
      </trkpt>
      <trkpt lat="45.75206" lon="4.61138">
        <ele>764</ele>
        <time>2012-09-02T08:03:48Z</time>
      </trkpt>
      <trkpt lat="45.75199" lon="4.61128">
        <ele>762</ele>
        <time>2012-09-02T08:03:52Z</time>
      </trkpt>
      <trkpt lat="45.75191" lon="4.61121">
        <ele>762</ele>
        <time>2012-09-02T08:03:56Z</time>
      </trkpt>
      <trkpt lat="45.75185" lon="4.61108">
        <ele>761</ele>
        <time>2012-09-02T08:04:00Z</time>
      </trkpt>
      <trkpt lat="45.75177" lon="4.61098">
        <ele>759</ele>
        <time>2012-09-02T08:04:03Z</time>
      </trkpt>
      <trkpt lat="45.75171" lon="4.61088">
        <ele>759</ele>
        <time>2012-09-02T08:04:06Z</time>
      </trkpt>
      <trkpt lat="45.75165" lon="4.61073">
        <ele>761</ele>
        <time>2012-09-02T08:04:10Z</time>
      </trkpt>
      <trkpt lat="45.75159" lon="4.61061">
        <ele>762</ele>
        <time>2012-09-02T08:04:13Z</time>
      </trkpt>
      <trkpt lat="45.75153" lon="4.61046">
        <ele>763</ele>
        <time>2012-09-02T08:04:17Z</time>
      </trkpt>
      <trkpt lat="45.75143" lon="4.61035">
        <ele>762</ele>
        <time>2012-09-02T08:04:20Z</time>
      </trkpt>
      <trkpt lat="45.75133" lon="4.61026">
        <ele>761</ele>
        <time>2012-09-02T08:04:23Z</time>
      </trkpt>
      <trkpt lat="45.75122" lon="4.61022">
        <ele>761</ele>
        <time>2012-09-02T08:04:26Z</time>
      </trkpt>
      <trkpt lat="45.75116" lon="4.61019">
        <ele>760</ele>
        <time>2012-09-02T08:04:28Z</time>
      </trkpt>
      <trkpt lat="45.75109" lon="4.61018">
        <ele>760</ele>
        <time>2012-09-02T08:04:30Z</time>
      </trkpt>
      <trkpt lat="45.75103" lon="4.61017">
        <ele>760</ele>
        <time>2012-09-02T08:04:32Z</time>
      </trkpt>
      <trkpt lat="45.75097" lon="4.61017">
        <ele>760</ele>
        <time>2012-09-02T08:04:34Z</time>
      </trkpt>
      <trkpt lat="45.75086" lon="4.61017">
        <ele>758</ele>
        <time>2012-09-02T08:04:37Z</time>
      </trkpt>
      <trkpt lat="45.7508" lon="4.61017">
        <ele>757</ele>
        <time>2012-09-02T08:04:39Z</time>
      </trkpt>
      <trkpt lat="45.75075" lon="4.61017">
        <ele>757</ele>
        <time>2012-09-02T08:04:41Z</time>
      </trkpt>
      <trkpt lat="45.7507" lon="4.61018">
        <ele>757</ele>
        <time>2012-09-02T08:04:43Z</time>
      </trkpt>
      <trkpt lat="45.7506" lon="4.61022">
        <ele>757</ele>
        <time>2012-09-02T08:04:47Z</time>
      </trkpt>
      <trkpt lat="45.75049" lon="4.61023">
        <ele>756</ele>
        <time>2012-09-02T08:04:50Z</time>
      </trkpt>
      <trkpt lat="45.75041" lon="4.61022">
        <ele>756</ele>
        <time>2012-09-02T08:04:52Z</time>
      </trkpt>
      <trkpt lat="45.75035" lon="4.61023">
        <ele>756</ele>
        <time>2012-09-02T08:04:54Z</time>
      </trkpt>
      <trkpt lat="45.75025" lon="4.61026">
        <ele>758</ele>
        <time>2012-09-02T08:04:58Z</time>
      </trkpt>
      <trkpt lat="45.75014" lon="4.61029">
        <ele>760</ele>
        <time>2012-09-02T08:05:02Z</time>
      </trkpt>
      <trkpt lat="45.75005" lon="4.6103">
        <ele>760</ele>
        <time>2012-09-02T08:05:05Z</time>
      </trkpt>
      <trkpt lat="45.74995" lon="4.61034">
        <ele>761</ele>
        <time>2012-09-02T08:05:08Z</time>
      </trkpt>
      <trkpt lat="45.74991" lon="4.61037">
        <ele>762</ele>
        <time>2012-09-02T08:05:10Z</time>
      </trkpt>
      <trkpt lat="45.74982" lon="4.61041">
        <ele>762</ele>
        <time>2012-09-02T08:05:15Z</time>
      </trkpt>
      <trkpt lat="45.7497" lon="4.61047">
        <ele>760</ele>
        <time>2012-09-02T08:05:19Z</time>
      </trkpt>
      <trkpt lat="45.74959" lon="4.61053">
        <ele>758</ele>
        <time>2012-09-02T08:05:22Z</time>
      </trkpt>
      <trkpt lat="45.7495" lon="4.61057">
        <ele>757</ele>
        <time>2012-09-02T08:05:25Z</time>
      </trkpt>
      <trkpt lat="45.7494" lon="4.61066">
        <ele>756</ele>
        <time>2012-09-02T08:05:29Z</time>
      </trkpt>
      <trkpt lat="45.74932" lon="4.61072">
        <ele>756</ele>
        <time>2012-09-02T08:05:32Z</time>
      </trkpt>
      <trkpt lat="45.74922" lon="4.6108">
        <ele>756</ele>
        <time>2012-09-02T08:05:35Z</time>
      </trkpt>
      <trkpt lat="45.74912" lon="4.61086">
        <ele>755</ele>
        <time>2012-09-02T08:05:38Z</time>
      </trkpt>
      <trkpt lat="45.74902" lon="4.61092">
        <ele>755</ele>
        <time>2012-09-02T08:05:41Z</time>
      </trkpt>
      <trkpt lat="45.74897" lon="4.61095">
        <ele>755</ele>
        <time>2012-09-02T08:05:43Z</time>
      </trkpt>
      <trkpt lat="45.74891" lon="4.61097">
        <ele>755</ele>
        <time>2012-09-02T08:05:45Z</time>
      </trkpt>
      <trkpt lat="45.74886" lon="4.61101">
        <ele>753</ele>
        <time>2012-09-02T08:05:47Z</time>
      </trkpt>
      <trkpt lat="45.74875" lon="4.61107">
        <ele>752</ele>
        <time>2012-09-02T08:05:51Z</time>
      </trkpt>
      <trkpt lat="45.74867" lon="4.61114">
        <ele>751</ele>
        <time>2012-09-02T08:05:53Z</time>
      </trkpt>
      <trkpt lat="45.74863" lon="4.61119">
        <ele>751</ele>
        <time>2012-09-02T08:05:55Z</time>
      </trkpt>
      <trkpt lat="45.74858" lon="4.61123">
        <ele>750</ele>
        <time>2012-09-02T08:05:58Z</time>
      </trkpt>
      <trkpt lat="45.74851" lon="4.61126">
        <ele>749</ele>
        <time>2012-09-02T08:06:01Z</time>
      </trkpt>
      <trkpt lat="45.74844" lon="4.61131">
        <ele>748</ele>
        <time>2012-09-02T08:06:04Z</time>
      </trkpt>
      <trkpt lat="45.7484" lon="4.61136">
        <ele>747</ele>
        <time>2012-09-02T08:06:06Z</time>
      </trkpt>
      <trkpt lat="45.74833" lon="4.61138">
        <ele>745</ele>
        <time>2012-09-02T08:06:09Z</time>
      </trkpt>
      <trkpt lat="45.74822" lon="4.61141">
        <ele>744</ele>
        <time>2012-09-02T08:06:15Z</time>
      </trkpt>
      <trkpt lat="45.74816" lon="4.61141">
        <ele>744</ele>
        <time>2012-09-02T08:06:17Z</time>
      </trkpt>
      <trkpt lat="45.74807" lon="4.6114">
        <ele>744</ele>
        <time>2012-09-02T08:06:19Z</time>
      </trkpt>
      <trkpt lat="45.74797" lon="4.61144">
        <ele>744</ele>
        <time>2012-09-02T08:06:21Z</time>
      </trkpt>
      <trkpt lat="45.74791" lon="4.61145">
        <ele>743</ele>
        <time>2012-09-02T08:06:23Z</time>
      </trkpt>
      <trkpt lat="45.74787" lon="4.61142">
        <ele>742</ele>
        <time>2012-09-02T08:06:26Z</time>
      </trkpt>
      <trkpt lat="45.74787" lon="4.61135">
        <ele>741</ele>
        <time>2012-09-02T08:06:31Z</time>
      </trkpt>
      <trkpt lat="45.74787" lon="4.61129">
        <ele>739</ele>
        <time>2012-09-02T08:06:35Z</time>
      </trkpt>
      <trkpt lat="45.74789" lon="4.61127">
        <ele>739</ele>
        <time>2012-09-02T08:07:09Z</time>
      </trkpt>
      <trkpt lat="45.74793" lon="4.61125">
        <ele>739</ele>
        <time>2012-09-02T08:07:14Z</time>
      </trkpt>
      <trkpt lat="45.74794" lon="4.61114">
        <ele>735</ele>
        <time>2012-09-02T08:07:20Z</time>
      </trkpt>
      <trkpt lat="45.74798" lon="4.61102">
        <ele>735</ele>
        <time>2012-09-02T08:07:24Z</time>
      </trkpt>
      <trkpt lat="45.74802" lon="4.6109">
        <ele>734</ele>
        <time>2012-09-02T08:07:27Z</time>
      </trkpt>
      <trkpt lat="45.74807" lon="4.61077">
        <ele>734</ele>
        <time>2012-09-02T08:07:31Z</time>
      </trkpt>
      <trkpt lat="45.7481" lon="4.6107">
        <ele>733</ele>
        <time>2012-09-02T08:07:33Z</time>
      </trkpt>
      <trkpt lat="45.74813" lon="4.61063">
        <ele>733</ele>
        <time>2012-09-02T08:07:36Z</time>
      </trkpt>
      <trkpt lat="45.7482" lon="4.6105">
        <ele>731</ele>
        <time>2012-09-02T08:07:41Z</time>
      </trkpt>
      <trkpt lat="45.74823" lon="4.61045">
        <ele>730</ele>
        <time>2012-09-02T08:07:43Z</time>
      </trkpt>
      <trkpt lat="45.7483" lon="4.61032">
        <ele>728</ele>
        <time>2012-09-02T08:07:47Z</time>
      </trkpt>
      <trkpt lat="45.74834" lon="4.61017">
        <ele>726</ele>
        <time>2012-09-02T08:07:51Z</time>
      </trkpt>
      <trkpt lat="45.74838" lon="4.61004">
        <ele>724</ele>
        <time>2012-09-02T08:07:55Z</time>
      </trkpt>
      <trkpt lat="45.74843" lon="4.6099">
        <ele>722</ele>
        <time>2012-09-02T08:07:59Z</time>
      </trkpt>
      <trkpt lat="45.7485" lon="4.6098">
        <ele>721</ele>
        <time>2012-09-02T08:08:03Z</time>
      </trkpt>
      <trkpt lat="45.74856" lon="4.60968">
        <ele>720</ele>
        <time>2012-09-02T08:08:07Z</time>
      </trkpt>
      <trkpt lat="45.7486" lon="4.60954">
        <ele>718</ele>
        <time>2012-09-02T08:08:11Z</time>
      </trkpt>
      <trkpt lat="45.74865" lon="4.60939">
        <ele>717</ele>
        <time>2012-09-02T08:08:15Z</time>
      </trkpt>
      <trkpt lat="45.74869" lon="4.60925">
        <ele>716</ele>
        <time>2012-09-02T08:08:19Z</time>
      </trkpt>
      <trkpt lat="45.74874" lon="4.60911">
        <ele>716</ele>
        <time>2012-09-02T08:08:23Z</time>
      </trkpt>
      <trkpt lat="45.7488" lon="4.60896">
        <ele>717</ele>
        <time>2012-09-02T08:08:27Z</time>
      </trkpt>
      <trkpt lat="45.74884" lon="4.60881">
        <ele>715</ele>
        <time>2012-09-02T08:08:31Z</time>
      </trkpt>
      <trkpt lat="45.74888" lon="4.60865">
        <ele>713</ele>
        <time>2012-09-02T08:08:36Z</time>
      </trkpt>
      <trkpt lat="45.74891" lon="4.60851">
        <ele>710</ele>
        <time>2012-09-02T08:08:40Z</time>
      </trkpt>
      <trkpt lat="45.74894" lon="4.60837">
        <ele>708</ele>
        <time>2012-09-02T08:08:44Z</time>
      </trkpt>
      <trkpt lat="45.749" lon="4.60823">
        <ele>707</ele>
        <time>2012-09-02T08:08:48Z</time>
      </trkpt>
      <trkpt lat="45.74907" lon="4.60809">
        <ele>705</ele>
        <time>2012-09-02T08:08:52Z</time>
      </trkpt>
      <trkpt lat="45.74913" lon="4.60798">
        <ele>704</ele>
        <time>2012-09-02T08:08:56Z</time>
      </trkpt>
      <trkpt lat="45.74918" lon="4.60785">
        <ele>703</ele>
        <time>2012-09-02T08:09:01Z</time>
      </trkpt>
      <trkpt lat="45.74921" lon="4.60769">
        <ele>701</ele>
        <time>2012-09-02T08:09:05Z</time>
      </trkpt>
      <trkpt lat="45.74928" lon="4.60759">
        <ele>700</ele>
        <time>2012-09-02T08:09:10Z</time>
      </trkpt>
      <trkpt lat="45.74937" lon="4.60756">
        <ele>699</ele>
        <time>2012-09-02T08:09:14Z</time>
      </trkpt>
      <trkpt lat="45.74948" lon="4.60757">
        <ele>699</ele>
        <time>2012-09-02T08:09:18Z</time>
      </trkpt>
      <trkpt lat="45.74958" lon="4.60758">
        <ele>698</ele>
        <time>2012-09-02T08:09:22Z</time>
      </trkpt>
      <trkpt lat="45.74969" lon="4.60765">
        <ele>696</ele>
        <time>2012-09-02T08:09:26Z</time>
      </trkpt>
      <trkpt lat="45.74979" lon="4.6077">
        <ele>695</ele>
        <time>2012-09-02T08:09:29Z</time>
      </trkpt>
      <trkpt lat="45.74989" lon="4.60777">
        <ele>693</ele>
        <time>2012-09-02T08:09:32Z</time>
      </trkpt>
      <trkpt lat="45.74999" lon="4.60783">
        <ele>693</ele>
        <time>2012-09-02T08:09:35Z</time>
      </trkpt>
      <trkpt lat="45.75007" lon="4.6079">
        <ele>693</ele>
        <time>2012-09-02T08:09:39Z</time>
      </trkpt>
      <trkpt lat="45.75017" lon="4.60792">
        <ele>694</ele>
        <time>2012-09-02T08:09:43Z</time>
      </trkpt>
      <trkpt lat="45.75027" lon="4.6079">
        <ele>695</ele>
        <time>2012-09-02T08:09:47Z</time>
      </trkpt>
      <trkpt lat="45.75037" lon="4.60789">
        <ele>697</ele>
        <time>2012-09-02T08:09:51Z</time>
      </trkpt>
      <trkpt lat="45.75048" lon="4.60793">
        <ele>699</ele>
        <time>2012-09-02T08:09:55Z</time>
      </trkpt>
      <trkpt lat="45.7506" lon="4.60794">
        <ele>700</ele>
        <time>2012-09-02T08:09:59Z</time>
      </trkpt>
      <trkpt lat="45.7507" lon="4.60794">
        <ele>700</ele>
        <time>2012-09-02T08:10:03Z</time>
      </trkpt>
      <trkpt lat="45.75081" lon="4.60794">
        <ele>702</ele>
        <time>2012-09-02T08:10:08Z</time>
      </trkpt>
      <trkpt lat="45.75091" lon="4.60793">
        <ele>702</ele>
        <time>2012-09-02T08:10:12Z</time>
      </trkpt>
      <trkpt lat="45.751" lon="4.60793">
        <ele>702</ele>
        <time>2012-09-02T08:10:16Z</time>
      </trkpt>
      <trkpt lat="45.7511" lon="4.6079">
        <ele>704</ele>
        <time>2012-09-02T08:10:21Z</time>
      </trkpt>
      <trkpt lat="45.75121" lon="4.60787">
        <ele>704</ele>
        <time>2012-09-02T08:10:25Z</time>
      </trkpt>
      <trkpt lat="45.75131" lon="4.60786">
        <ele>705</ele>
        <time>2012-09-02T08:10:29Z</time>
      </trkpt>
      <trkpt lat="45.75141" lon="4.60783">
        <ele>707</ele>
        <time>2012-09-02T08:10:33Z</time>
      </trkpt>
      <trkpt lat="45.75151" lon="4.6078">
        <ele>709</ele>
        <time>2012-09-02T08:10:37Z</time>
      </trkpt>
      <trkpt lat="45.75162" lon="4.60779">
        <ele>710</ele>
        <time>2012-09-02T08:10:41Z</time>
      </trkpt>
      <trkpt lat="45.75174" lon="4.60781">
        <ele>712</ele>
        <time>2012-09-02T08:10:49Z</time>
      </trkpt>
      <trkpt lat="45.75183" lon="4.60789">
        <ele>712</ele>
        <time>2012-09-02T08:10:53Z</time>
      </trkpt>
      <trkpt lat="45.75192" lon="4.60797">
        <ele>711</ele>
        <time>2012-09-02T08:10:56Z</time>
      </trkpt>
      <trkpt lat="45.752" lon="4.60804">
        <ele>710</ele>
        <time>2012-09-02T08:10:58Z</time>
      </trkpt>
      <trkpt lat="45.7521" lon="4.60815">
        <ele>708</ele>
        <time>2012-09-02T08:11:01Z</time>
      </trkpt>
      <trkpt lat="45.75219" lon="4.60826">
        <ele>707</ele>
        <time>2012-09-02T08:11:04Z</time>
      </trkpt>
      <trkpt lat="45.75227" lon="4.60835">
        <ele>706</ele>
        <time>2012-09-02T08:11:08Z</time>
      </trkpt>
      <trkpt lat="45.75234" lon="4.60844">
        <ele>705</ele>
        <time>2012-09-02T08:11:11Z</time>
      </trkpt>
      <trkpt lat="45.75242" lon="4.60852">
        <ele>705</ele>
        <time>2012-09-02T08:11:14Z</time>
      </trkpt>
      <trkpt lat="45.7525" lon="4.60861">
        <ele>705</ele>
        <time>2012-09-02T08:11:18Z</time>
      </trkpt>
      <trkpt lat="45.75256" lon="4.60872">
        <ele>704</ele>
        <time>2012-09-02T08:11:23Z</time>
      </trkpt>
      <trkpt lat="45.75261" lon="4.60882">
        <ele>707</ele>
        <time>2012-09-02T08:11:27Z</time>
      </trkpt>
      <trkpt lat="45.7527" lon="4.60895">
        <ele>708</ele>
        <time>2012-09-02T08:11:31Z</time>
      </trkpt>
      <trkpt lat="45.75277" lon="4.6091">
        <ele>708</ele>
        <time>2012-09-02T08:11:34Z</time>
      </trkpt>
      <trkpt lat="45.75282" lon="4.60923">
        <ele>708</ele>
        <time>2012-09-02T08:11:37Z</time>
      </trkpt>
      <trkpt lat="45.75288" lon="4.60935">
        <ele>708</ele>
        <time>2012-09-02T08:11:41Z</time>
      </trkpt>
      <trkpt lat="45.75294" lon="4.60946">
        <ele>707</ele>
        <time>2012-09-02T08:11:45Z</time>
      </trkpt>
      <trkpt lat="45.753" lon="4.60959">
        <ele>705</ele>
        <time>2012-09-02T08:11:49Z</time>
      </trkpt>
      <trkpt lat="45.75306" lon="4.60971">
        <ele>705</ele>
        <time>2012-09-02T08:11:53Z</time>
      </trkpt>
      <trkpt lat="45.7531" lon="4.60985">
        <ele>706</ele>
        <time>2012-09-02T08:11:57Z</time>
      </trkpt>
      <trkpt lat="45.75315" lon="4.61">
        <ele>704</ele>
        <time>2012-09-02T08:12:01Z</time>
      </trkpt>
      <trkpt lat="45.75322" lon="4.61008">
        <ele>703</ele>
        <time>2012-09-02T08:12:04Z</time>
      </trkpt>
      <trkpt lat="45.75332" lon="4.61014">
        <ele>703</ele>
        <time>2012-09-02T08:12:08Z</time>
      </trkpt>
      <trkpt lat="45.75341" lon="4.61019">
        <ele>703</ele>
        <time>2012-09-02T08:12:13Z</time>
      </trkpt>
      <trkpt lat="45.7535" lon="4.61021">
        <ele>703</ele>
        <time>2012-09-02T08:12:18Z</time>
      </trkpt>
      <trkpt lat="45.75361" lon="4.61022">
        <ele>705</ele>
        <time>2012-09-02T08:12:21Z</time>
      </trkpt>
      <trkpt lat="45.75372" lon="4.61025">
        <ele>705</ele>
        <time>2012-09-02T08:12:24Z</time>
      </trkpt>
      <trkpt lat="45.75385" lon="4.61026">
        <ele>706</ele>
        <time>2012-09-02T08:12:26Z</time>
      </trkpt>
      <trkpt lat="45.75396" lon="4.61025">
        <ele>706</ele>
        <time>2012-09-02T08:12:28Z</time>
      </trkpt>
      <trkpt lat="45.75408" lon="4.61025">
        <ele>707</ele>
        <time>2012-09-02T08:12:31Z</time>
      </trkpt>
      <trkpt lat="45.75419" lon="4.61027">
        <ele>706</ele>
        <time>2012-09-02T08:12:34Z</time>
      </trkpt>
      <trkpt lat="45.75427" lon="4.61035">
        <ele>705</ele>
        <time>2012-09-02T08:12:38Z</time>
      </trkpt>
      <trkpt lat="45.75433" lon="4.61044">
        <ele>704</ele>
        <time>2012-09-02T08:12:42Z</time>
      </trkpt>
      <trkpt lat="45.75441" lon="4.61053">
        <ele>703</ele>
        <time>2012-09-02T08:12:46Z</time>
      </trkpt>
      <trkpt lat="45.75449" lon="4.6106">
        <ele>704</ele>
        <time>2012-09-02T08:12:51Z</time>
      </trkpt>
      <trkpt lat="45.75458" lon="4.61064">
        <ele>704</ele>
        <time>2012-09-02T08:12:55Z</time>
      </trkpt>
      <trkpt lat="45.75467" lon="4.61074">
        <ele>704</ele>
        <time>2012-09-02T08:13:00Z</time>
      </trkpt>
      <trkpt lat="45.75479" lon="4.61083">
        <ele>703</ele>
        <time>2012-09-02T08:13:05Z</time>
      </trkpt>
      <trkpt lat="45.75487" lon="4.61091">
        <ele>702</ele>
        <time>2012-09-02T08:13:09Z</time>
      </trkpt>
      <trkpt lat="45.75496" lon="4.61097">
        <ele>702</ele>
        <time>2012-09-02T08:13:13Z</time>
      </trkpt>
      <trkpt lat="45.75505" lon="4.61101">
        <ele>702</ele>
        <time>2012-09-02T08:13:17Z</time>
      </trkpt>
      <trkpt lat="45.75515" lon="4.61107">
        <ele>702</ele>
        <time>2012-09-02T08:13:21Z</time>
      </trkpt>
      <trkpt lat="45.75526" lon="4.61113">
        <ele>702</ele>
        <time>2012-09-02T08:13:25Z</time>
      </trkpt>
      <trkpt lat="45.75535" lon="4.6112">
        <ele>703</ele>
        <time>2012-09-02T08:13:29Z</time>
      </trkpt>
      <trkpt lat="45.75542" lon="4.61132">
        <ele>706</ele>
        <time>2012-09-02T08:13:34Z</time>
      </trkpt>
      <trkpt lat="45.75552" lon="4.6114">
        <ele>704</ele>
        <time>2012-09-02T08:13:37Z</time>
      </trkpt>
      <trkpt lat="45.7556" lon="4.61148">
        <ele>703</ele>
        <time>2012-09-02T08:13:40Z</time>
      </trkpt>
      <trkpt lat="45.75569" lon="4.61156">
        <ele>702</ele>
        <time>2012-09-02T08:13:43Z</time>
      </trkpt>
      <trkpt lat="45.75577" lon="4.61165">
        <ele>702</ele>
        <time>2012-09-02T08:13:46Z</time>
      </trkpt>
      <trkpt lat="45.75586" lon="4.61173">
        <ele>701</ele>
        <time>2012-09-02T08:13:50Z</time>
      </trkpt>
      <trkpt lat="45.75595" lon="4.61182">
        <ele>701</ele>
        <time>2012-09-02T08:13:55Z</time>
      </trkpt>
      <trkpt lat="45.75605" lon="4.6119">
        <ele>701</ele>
        <time>2012-09-02T08:13:59Z</time>
      </trkpt>
      <trkpt lat="45.7561" lon="4.61194">
        <ele>701</ele>
        <time>2012-09-02T08:14:01Z</time>
      </trkpt>
      <trkpt lat="45.75614" lon="4.61197">
        <ele>702</ele>
        <time>2012-09-02T08:14:03Z</time>
      </trkpt>
      <trkpt lat="45.75618" lon="4.612">
        <ele>703</ele>
        <time>2012-09-02T08:14:05Z</time>
      </trkpt>
      <trkpt lat="45.75623" lon="4.61203">
        <ele>704</ele>
        <time>2012-09-02T08:14:07Z</time>
      </trkpt>
      <trkpt lat="45.75631" lon="4.61215">
        <ele>705</ele>
        <time>2012-09-02T08:14:13Z</time>
      </trkpt>
      <trkpt lat="45.75639" lon="4.61226">
        <ele>707</ele>
        <time>2012-09-02T08:14:17Z</time>
      </trkpt>
      <trkpt lat="45.75646" lon="4.61236">
        <ele>708</ele>
        <time>2012-09-02T08:14:20Z</time>
      </trkpt>
      <trkpt lat="45.75654" lon="4.61245">
        <ele>710</ele>
        <time>2012-09-02T08:14:23Z</time>
      </trkpt>
      <trkpt lat="45.75662" lon="4.61256">
        <ele>712</ele>
        <time>2012-09-02T08:14:27Z</time>
      </trkpt>
      <trkpt lat="45.75668" lon="4.61267">
        <ele>715</ele>
        <time>2012-09-02T08:14:32Z</time>
      </trkpt>
      <trkpt lat="45.75676" lon="4.61278">
        <ele>716</ele>
        <time>2012-09-02T08:14:36Z</time>
      </trkpt>
      <trkpt lat="45.75683" lon="4.6129">
        <ele>716</ele>
        <time>2012-09-02T08:14:41Z</time>
      </trkpt>
      <trkpt lat="45.75691" lon="4.61301">
        <ele>717</ele>
        <time>2012-09-02T08:14:46Z</time>
      </trkpt>
      <trkpt lat="45.757" lon="4.61314">
        <ele>718</ele>
        <time>2012-09-02T08:14:50Z</time>
      </trkpt>
      <trkpt lat="45.75708" lon="4.61325">
        <ele>716</ele>
        <time>2012-09-02T08:14:54Z</time>
      </trkpt>
      <trkpt lat="45.75711" lon="4.6133">
        <ele>716</ele>
        <time>2012-09-02T08:14:56Z</time>
      </trkpt>
      <trkpt lat="45.75714" lon="4.61337">
        <ele>716</ele>
        <time>2012-09-02T08:14:59Z</time>
      </trkpt>
      <trkpt lat="45.7572" lon="4.61351">
        <ele>717</ele>
        <time>2012-09-02T08:15:04Z</time>
      </trkpt>
      <trkpt lat="45.75725" lon="4.61366">
        <ele>718</ele>
        <time>2012-09-02T08:15:08Z</time>
      </trkpt>
      <trkpt lat="45.75727" lon="4.61382">
        <ele>717</ele>
        <time>2012-09-02T08:15:12Z</time>
      </trkpt>
      <trkpt lat="45.75728" lon="4.6139">
        <ele>716</ele>
        <time>2012-09-02T08:15:14Z</time>
      </trkpt>
      <trkpt lat="45.75727" lon="4.61398">
        <ele>716</ele>
        <time>2012-09-02T08:15:16Z</time>
      </trkpt>
      <trkpt lat="45.75725" lon="4.61405">
        <ele>716</ele>
        <time>2012-09-02T08:15:18Z</time>
      </trkpt>
      <trkpt lat="45.75722" lon="4.61414">
        <ele>715</ele>
        <time>2012-09-02T08:15:21Z</time>
      </trkpt>
      <trkpt lat="45.75723" lon="4.61427">
        <ele>715</ele>
        <time>2012-09-02T08:15:25Z</time>
      </trkpt>
      <trkpt lat="45.7572" lon="4.6144">
        <ele>714</ele>
        <time>2012-09-02T08:15:30Z</time>
      </trkpt>
      <trkpt lat="45.75716" lon="4.61451">
        <ele>712</ele>
        <time>2012-09-02T08:15:35Z</time>
      </trkpt>
      <trkpt lat="45.75711" lon="4.61459">
        <ele>710</ele>
        <time>2012-09-02T08:15:39Z</time>
      </trkpt>
      <trkpt lat="45.75708" lon="4.61467">
        <ele>709</ele>
        <time>2012-09-02T08:15:42Z</time>
      </trkpt>
      <trkpt lat="45.75706" lon="4.6148">
        <ele>710</ele>
        <time>2012-09-02T08:15:47Z</time>
      </trkpt>
      <trkpt lat="45.75702" lon="4.61494">
        <ele>710</ele>
        <time>2012-09-02T08:15:52Z</time>
      </trkpt>
      <trkpt lat="45.75699" lon="4.61508">
        <ele>709</ele>
        <time>2012-09-02T08:15:57Z</time>
      </trkpt>
      <trkpt lat="45.75698" lon="4.61522">
        <ele>708</ele>
        <time>2012-09-02T08:16:02Z</time>
      </trkpt>
      <trkpt lat="45.75692" lon="4.61534">
        <ele>709</ele>
        <time>2012-09-02T08:16:07Z</time>
      </trkpt>
      <trkpt lat="45.75692" lon="4.61547">
        <ele>709</ele>
        <time>2012-09-02T08:16:11Z</time>
      </trkpt>
      <trkpt lat="45.75688" lon="4.6156">
        <ele>707</ele>
        <time>2012-09-02T08:16:16Z</time>
      </trkpt>
      <trkpt lat="45.75689" lon="4.61574">
        <ele>707</ele>
        <time>2012-09-02T08:16:21Z</time>
      </trkpt>
      <trkpt lat="45.75693" lon="4.61587">
        <ele>707</ele>
        <time>2012-09-02T08:16:26Z</time>
      </trkpt>
      <trkpt lat="45.75693" lon="4.61602">
        <ele>710</ele>
        <time>2012-09-02T08:16:31Z</time>
      </trkpt>
      <trkpt lat="45.75691" lon="4.61617">
        <ele>711</ele>
        <time>2012-09-02T08:16:35Z</time>
      </trkpt>
      <trkpt lat="45.75694" lon="4.6163">
        <ele>715</ele>
        <time>2012-09-02T08:16:40Z</time>
      </trkpt>
      <trkpt lat="45.75697" lon="4.61658">
        <ele>726</ele>
        <time>2012-09-02T08:16:51Z</time>
      </trkpt>
      <trkpt lat="45.75694" lon="4.61667">
        <ele>731</ele>
        <time>2012-09-02T08:16:56Z</time>
      </trkpt>
      <trkpt lat="45.75688" lon="4.61658">
        <ele>736</ele>
        <time>2012-09-02T08:17:02Z</time>
      </trkpt>
      <trkpt lat="45.75682" lon="4.61647">
        <ele>738</ele>
        <time>2012-09-02T08:17:07Z</time>
      </trkpt>
      <trkpt lat="45.75672" lon="4.61641">
        <ele>740</ele>
        <time>2012-09-02T08:17:13Z</time>
      </trkpt>
      <trkpt lat="45.75664" lon="4.61634">
        <ele>744</ele>
        <time>2012-09-02T08:17:19Z</time>
      </trkpt>
      <trkpt lat="45.75654" lon="4.61629">
        <ele>746</ele>
        <time>2012-09-02T08:17:26Z</time>
      </trkpt>
      <trkpt lat="45.75645" lon="4.61627">
        <ele>749</ele>
        <time>2012-09-02T08:17:30Z</time>
      </trkpt>
      <trkpt lat="45.7564" lon="4.61636">
        <ele>753</ele>
        <time>2012-09-02T08:17:33Z</time>
      </trkpt>
      <trkpt lat="45.75638" lon="4.61642">
        <ele>755</ele>
        <time>2012-09-02T08:17:35Z</time>
      </trkpt>
      <trkpt lat="45.75636" lon="4.61656">
        <ele>757</ele>
        <time>2012-09-02T08:17:39Z</time>
      </trkpt>
      <trkpt lat="45.75635" lon="4.61663">
        <ele>758</ele>
        <time>2012-09-02T08:17:41Z</time>
      </trkpt>
      <trkpt lat="45.75632" lon="4.61673">
        <ele>760</ele>
        <time>2012-09-02T08:17:44Z</time>
      </trkpt>
      <trkpt lat="45.75629" lon="4.61681">
        <ele>761</ele>
        <time>2012-09-02T08:17:47Z</time>
      </trkpt>
      <trkpt lat="45.75627" lon="4.61686">
        <ele>761</ele>
        <time>2012-09-02T08:17:49Z</time>
      </trkpt>
      <trkpt lat="45.75622" lon="4.61698">
        <ele>761</ele>
        <time>2012-09-02T08:17:54Z</time>
      </trkpt>
      <trkpt lat="45.75621" lon="4.61711">
        <ele>761</ele>
        <time>2012-09-02T08:18:00Z</time>
      </trkpt>
      <trkpt lat="45.75618" lon="4.61721">
        <ele>762</ele>
        <time>2012-09-02T08:18:06Z</time>
      </trkpt>
      <trkpt lat="45.75614" lon="4.6173">
        <ele>763</ele>
        <time>2012-09-02T08:18:14Z</time>
      </trkpt>
      <trkpt lat="45.75614" lon="4.6174">
        <ele>765</ele>
        <time>2012-09-02T08:18:20Z</time>
      </trkpt>
      <trkpt lat="45.75616" lon="4.61746">
        <ele>765</ele>
        <time>2012-09-02T08:18:24Z</time>
      </trkpt>
      <trkpt lat="45.75618" lon="4.61754">
        <ele>765</ele>
        <time>2012-09-02T08:18:30Z</time>
      </trkpt>
      <trkpt lat="45.75618" lon="4.61767">
        <ele>765</ele>
        <time>2012-09-02T08:18:39Z</time>
      </trkpt>
      <trkpt lat="45.75614" lon="4.6178">
        <ele>764</ele>
        <time>2012-09-02T08:18:43Z</time>
      </trkpt>
      <trkpt lat="45.75607" lon="4.61792">
        <ele>764</ele>
        <time>2012-09-02T08:18:47Z</time>
      </trkpt>
      <trkpt lat="45.756" lon="4.61803">
        <ele>762</ele>
        <time>2012-09-02T08:18:51Z</time>
      </trkpt>
      <trkpt lat="45.75597" lon="4.61809">
        <ele>761</ele>
        <time>2012-09-02T08:18:53Z</time>
      </trkpt>
      <trkpt lat="45.75594" lon="4.61816">
        <ele>762</ele>
        <time>2012-09-02T08:18:55Z</time>
      </trkpt>
      <trkpt lat="45.75591" lon="4.61831">
        <ele>762</ele>
        <time>2012-09-02T08:18:59Z</time>
      </trkpt>
      <trkpt lat="45.7559" lon="4.61838">
        <ele>762</ele>
        <time>2012-09-02T08:19:01Z</time>
      </trkpt>
      <trkpt lat="45.7559" lon="4.61845">
        <ele>762</ele>
        <time>2012-09-02T08:19:03Z</time>
      </trkpt>
      <trkpt lat="45.75588" lon="4.6186">
        <ele>762</ele>
        <time>2012-09-02T08:19:07Z</time>
      </trkpt>
      <trkpt lat="45.75588" lon="4.61877">
        <ele>762</ele>
        <time>2012-09-02T08:19:11Z</time>
      </trkpt>
      <trkpt lat="45.75589" lon="4.61892">
        <ele>762</ele>
        <time>2012-09-02T08:19:14Z</time>
      </trkpt>
      <trkpt lat="45.75589" lon="4.61909">
        <ele>762</ele>
        <time>2012-09-02T08:19:18Z</time>
      </trkpt>
      <trkpt lat="45.75589" lon="4.61922">
        <ele>763</ele>
        <time>2012-09-02T08:19:21Z</time>
      </trkpt>
      <trkpt lat="45.7559" lon="4.61938">
        <ele>763</ele>
        <time>2012-09-02T08:19:25Z</time>
      </trkpt>
      <trkpt lat="45.7559" lon="4.61954">
        <ele>763</ele>
        <time>2012-09-02T08:19:29Z</time>
      </trkpt>
      <trkpt lat="45.7559" lon="4.6197">
        <ele>763</ele>
        <time>2012-09-02T08:19:33Z</time>
      </trkpt>
      <trkpt lat="45.7559" lon="4.61985">
        <ele>762</ele>
        <time>2012-09-02T08:19:36Z</time>
      </trkpt>
      <trkpt lat="45.75592" lon="4.62001">
        <ele>761</ele>
        <time>2012-09-02T08:19:39Z</time>
      </trkpt>
      <trkpt lat="45.75592" lon="4.62017">
        <ele>761</ele>
        <time>2012-09-02T08:19:42Z</time>
      </trkpt>
      <trkpt lat="45.75593" lon="4.6203">
        <ele>761</ele>
        <time>2012-09-02T08:19:45Z</time>
      </trkpt>
      <trkpt lat="45.75592" lon="4.62043">
        <ele>762</ele>
        <time>2012-09-02T08:19:48Z</time>
      </trkpt>
      <trkpt lat="45.75593" lon="4.62058">
        <ele>762</ele>
        <time>2012-09-02T08:19:51Z</time>
      </trkpt>
      <trkpt lat="45.75593" lon="4.62074">
        <ele>762</ele>
        <time>2012-09-02T08:19:54Z</time>
      </trkpt>
      <trkpt lat="45.75592" lon="4.6209">
        <ele>761</ele>
        <time>2012-09-02T08:19:57Z</time>
      </trkpt>
      <trkpt lat="45.7559" lon="4.62109">
        <ele>759</ele>
        <time>2012-09-02T08:20:00Z</time>
      </trkpt>
      <trkpt lat="45.75588" lon="4.62122">
        <ele>758</ele>
        <time>2012-09-02T08:20:02Z</time>
      </trkpt>
      <trkpt lat="45.75589" lon="4.62139">
        <ele>756</ele>
        <time>2012-09-02T08:20:05Z</time>
      </trkpt>
      <trkpt lat="45.75588" lon="4.62157">
        <ele>755</ele>
        <time>2012-09-02T08:20:08Z</time>
      </trkpt>
      <trkpt lat="45.75589" lon="4.62174">
        <ele>754</ele>
        <time>2012-09-02T08:20:11Z</time>
      </trkpt>
      <trkpt lat="45.75589" lon="4.62189">
        <ele>752</ele>
        <time>2012-09-02T08:20:14Z</time>
      </trkpt>
      <trkpt lat="45.75591" lon="4.62201">
        <ele>750</ele>
        <time>2012-09-02T08:20:16Z</time>
      </trkpt>
      <trkpt lat="45.75592" lon="4.62207">
        <ele>750</ele>
        <time>2012-09-02T08:20:17Z</time>
      </trkpt>
      <trkpt lat="45.75592" lon="4.62226">
        <ele>748</ele>
        <time>2012-09-02T08:20:20Z</time>
      </trkpt>
      <trkpt lat="45.75591" lon="4.62241">
        <ele>745</ele>
        <time>2012-09-02T08:20:23Z</time>
      </trkpt>
      <trkpt lat="45.75592" lon="4.62262">
        <ele>744</ele>
        <time>2012-09-02T08:20:26Z</time>
      </trkpt>
      <trkpt lat="45.75594" lon="4.62278">
        <ele>742</ele>
        <time>2012-09-02T08:20:28Z</time>
      </trkpt>
      <trkpt lat="45.75595" lon="4.62284">
        <ele>740</ele>
        <time>2012-09-02T08:20:29Z</time>
      </trkpt>
      <trkpt lat="45.75598" lon="4.62294">
        <ele>739</ele>
        <time>2012-09-02T08:20:31Z</time>
      </trkpt>
      <trkpt lat="45.75598" lon="4.62307">
        <ele>739</ele>
        <time>2012-09-02T08:20:34Z</time>
      </trkpt>
      <trkpt lat="45.75601" lon="4.6232">
        <ele>739</ele>
        <time>2012-09-02T08:20:37Z</time>
      </trkpt>
      <trkpt lat="45.75603" lon="4.62334">
        <ele>738</ele>
        <time>2012-09-02T08:20:41Z</time>
      </trkpt>
      <trkpt lat="45.75606" lon="4.6235">
        <ele>738</ele>
        <time>2012-09-02T08:20:44Z</time>
      </trkpt>
      <trkpt lat="45.75606" lon="4.62364">
        <ele>738</ele>
        <time>2012-09-02T08:20:47Z</time>
      </trkpt>
      <trkpt lat="45.75606" lon="4.62379">
        <ele>738</ele>
        <time>2012-09-02T08:20:50Z</time>
      </trkpt>
      <trkpt lat="45.75605" lon="4.62393">
        <ele>738</ele>
        <time>2012-09-02T08:20:53Z</time>
      </trkpt>
      <trkpt lat="45.75605" lon="4.6241">
        <ele>738</ele>
        <time>2012-09-02T08:20:57Z</time>
      </trkpt>
      <trkpt lat="45.75603" lon="4.62426">
        <ele>739</ele>
        <time>2012-09-02T08:21:00Z</time>
      </trkpt>
      <trkpt lat="45.75603" lon="4.6244">
        <ele>739</ele>
        <time>2012-09-02T08:21:03Z</time>
      </trkpt>
      <trkpt lat="45.75602" lon="4.62457">
        <ele>739</ele>
        <time>2012-09-02T08:21:07Z</time>
      </trkpt>
      <trkpt lat="45.75601" lon="4.62472">
        <ele>739</ele>
        <time>2012-09-02T08:21:10Z</time>
      </trkpt>
      <trkpt lat="45.756" lon="4.62488">
        <ele>738</ele>
        <time>2012-09-02T08:21:13Z</time>
      </trkpt>
      <trkpt lat="45.75597" lon="4.62502">
        <ele>736</ele>
        <time>2012-09-02T08:21:16Z</time>
      </trkpt>
      <trkpt lat="45.75593" lon="4.62522">
        <ele>734</ele>
        <time>2012-09-02T08:21:19Z</time>
      </trkpt>
      <trkpt lat="45.75591" lon="4.62537">
        <ele>733</ele>
        <time>2012-09-02T08:21:21Z</time>
      </trkpt>
      <trkpt lat="45.7559" lon="4.62551">
        <ele>733</ele>
        <time>2012-09-02T08:21:23Z</time>
      </trkpt>
      <trkpt lat="45.75588" lon="4.62569">
        <ele>732</ele>
        <time>2012-09-02T08:21:26Z</time>
      </trkpt>
      <trkpt lat="45.75582" lon="4.6258">
        <ele>731</ele>
        <time>2012-09-02T08:21:29Z</time>
      </trkpt>
      <trkpt lat="45.75575" lon="4.62594">
        <ele>729</ele>
        <time>2012-09-02T08:21:32Z</time>
      </trkpt>
      <trkpt lat="45.75568" lon="4.62607">
        <ele>727</ele>
        <time>2012-09-02T08:21:35Z</time>
      </trkpt>
      <trkpt lat="45.75561" lon="4.62621">
        <ele>725</ele>
        <time>2012-09-02T08:21:38Z</time>
      </trkpt>
      <trkpt lat="45.75554" lon="4.62635">
        <ele>724</ele>
        <time>2012-09-02T08:21:41Z</time>
      </trkpt>
      <trkpt lat="45.75548" lon="4.62645">
        <ele>724</ele>
        <time>2012-09-02T08:21:43Z</time>
      </trkpt>
      <trkpt lat="45.75542" lon="4.62656">
        <ele>723</ele>
        <time>2012-09-02T08:21:45Z</time>
      </trkpt>
      <trkpt lat="45.75541" lon="4.62663">
        <ele>722</ele>
        <time>2012-09-02T08:21:46Z</time>
      </trkpt>
      <trkpt lat="45.75541" lon="4.6267">
        <ele>720</ele>
        <time>2012-09-02T08:21:47Z</time>
      </trkpt>
      <trkpt lat="45.75541" lon="4.62678">
        <ele>719</ele>
        <time>2012-09-02T08:21:48Z</time>
      </trkpt>
      <trkpt lat="45.75539" lon="4.62688">
        <ele>717</ele>
        <time>2012-09-02T08:21:50Z</time>
      </trkpt>
      <trkpt lat="45.75535" lon="4.62696">
        <ele>716</ele>
        <time>2012-09-02T08:21:52Z</time>
      </trkpt>
      <trkpt lat="45.75532" lon="4.62707">
        <ele>715</ele>
        <time>2012-09-02T08:21:54Z</time>
      </trkpt>
      <trkpt lat="45.75529" lon="4.62718">
        <ele>713</ele>
        <time>2012-09-02T08:21:56Z</time>
      </trkpt>
      <trkpt lat="45.75525" lon="4.62732">
        <ele>710</ele>
        <time>2012-09-02T08:21:59Z</time>
      </trkpt>
      <trkpt lat="45.75523" lon="4.6274">
        <ele>709</ele>
        <time>2012-09-02T08:22:01Z</time>
      </trkpt>
      <trkpt lat="45.7552" lon="4.62749">
        <ele>708</ele>
        <time>2012-09-02T08:22:03Z</time>
      </trkpt>
      <trkpt lat="45.75517" lon="4.62763">
        <ele>707</ele>
        <time>2012-09-02T08:22:06Z</time>
      </trkpt>
      <trkpt lat="45.75515" lon="4.6277">
        <ele>707</ele>
        <time>2012-09-02T08:22:08Z</time>
      </trkpt>
      <trkpt lat="45.75512" lon="4.62779">
        <ele>707</ele>
        <time>2012-09-02T08:22:10Z</time>
      </trkpt>
      <trkpt lat="45.7551" lon="4.62788">
        <ele>707</ele>
        <time>2012-09-02T08:22:12Z</time>
      </trkpt>
      <trkpt lat="45.75507" lon="4.62796">
        <ele>707</ele>
        <time>2012-09-02T08:22:14Z</time>
      </trkpt>
      <trkpt lat="45.75505" lon="4.62805">
        <ele>707</ele>
        <time>2012-09-02T08:22:16Z</time>
      </trkpt>
      <trkpt lat="45.75502" lon="4.62814">
        <ele>707</ele>
        <time>2012-09-02T08:22:18Z</time>
      </trkpt>
      <trkpt lat="45.75501" lon="4.62823">
        <ele>707</ele>
        <time>2012-09-02T08:22:20Z</time>
      </trkpt>
      <trkpt lat="45.75497" lon="4.62836">
        <ele>707</ele>
        <time>2012-09-02T08:22:23Z</time>
      </trkpt>
      <trkpt lat="45.75496" lon="4.62845">
        <ele>707</ele>
        <time>2012-09-02T08:22:25Z</time>
      </trkpt>
      <trkpt lat="45.75499" lon="4.62852">
        <ele>706</ele>
        <time>2012-09-02T08:22:27Z</time>
      </trkpt>
      <trkpt lat="45.75504" lon="4.62852">
        <ele>706</ele>
        <time>2012-09-02T08:22:29Z</time>
      </trkpt>
      <trkpt lat="45.7551" lon="4.62851">
        <ele>704</ele>
        <time>2012-09-02T08:22:32Z</time>
      </trkpt>
      <trkpt lat="45.75515" lon="4.6285">
        <ele>704</ele>
        <time>2012-09-02T08:22:34Z</time>
      </trkpt>
      <trkpt lat="45.7552" lon="4.62848">
        <ele>703</ele>
        <time>2012-09-02T08:22:36Z</time>
      </trkpt>
      <trkpt lat="45.75526" lon="4.62846">
        <ele>702</ele>
        <time>2012-09-02T08:22:39Z</time>
      </trkpt>
      <trkpt lat="45.75536" lon="4.62843">
        <ele>701</ele>
        <time>2012-09-02T08:22:43Z</time>
      </trkpt>
      <trkpt lat="45.75546" lon="4.6284">
        <ele>699</ele>
        <time>2012-09-02T08:22:48Z</time>
      </trkpt>
      <trkpt lat="45.75555" lon="4.62838">
        <ele>697</ele>
        <time>2012-09-02T08:22:54Z</time>
      </trkpt>
      <trkpt lat="45.75566" lon="4.62837">
        <ele>695</ele>
        <time>2012-09-02T08:22:59Z</time>
      </trkpt>
      <trkpt lat="45.75576" lon="4.62837">
        <ele>693</ele>
        <time>2012-09-02T08:23:04Z</time>
      </trkpt>
      <trkpt lat="45.75586" lon="4.62838">
        <ele>694</ele>
        <time>2012-09-02T08:23:09Z</time>
      </trkpt>
      <trkpt lat="45.75594" lon="4.62844">
        <ele>695</ele>
        <time>2012-09-02T08:23:14Z</time>
      </trkpt>
      <trkpt lat="45.75603" lon="4.6285">
        <ele>697</ele>
        <time>2012-09-02T08:23:19Z</time>
      </trkpt>
      <trkpt lat="45.75612" lon="4.62858">
        <ele>697</ele>
        <time>2012-09-02T08:23:24Z</time>
      </trkpt>
      <trkpt lat="45.75623" lon="4.62864">
        <ele>698</ele>
        <time>2012-09-02T08:23:28Z</time>
      </trkpt>
      <trkpt lat="45.75633" lon="4.62871">
        <ele>698</ele>
        <time>2012-09-02T08:23:31Z</time>
      </trkpt>
      <trkpt lat="45.75643" lon="4.62878">
        <ele>699</ele>
        <time>2012-09-02T08:23:34Z</time>
      </trkpt>
      <trkpt lat="45.75652" lon="4.62886">
        <ele>699</ele>
        <time>2012-09-02T08:23:37Z</time>
      </trkpt>
      <trkpt lat="45.75661" lon="4.62893">
        <ele>701</ele>
        <time>2012-09-02T08:23:41Z</time>
      </trkpt>
      <trkpt lat="45.75668" lon="4.62901">
        <ele>702</ele>
        <time>2012-09-02T08:23:46Z</time>
      </trkpt>
      <trkpt lat="45.75678" lon="4.62906">
        <ele>703</ele>
        <time>2012-09-02T08:23:52Z</time>
      </trkpt>
      <trkpt lat="45.75687" lon="4.62912">
        <ele>703</ele>
        <time>2012-09-02T08:23:57Z</time>
      </trkpt>
      <trkpt lat="45.75697" lon="4.6292">
        <ele>706</ele>
        <time>2012-09-02T08:24:01Z</time>
      </trkpt>
      <trkpt lat="45.75707" lon="4.62923">
        <ele>708</ele>
        <time>2012-09-02T08:24:07Z</time>
      </trkpt>
      <trkpt lat="45.75716" lon="4.62928">
        <ele>710</ele>
        <time>2012-09-02T08:24:12Z</time>
      </trkpt>
      <trkpt lat="45.75725" lon="4.62933">
        <ele>711</ele>
        <time>2012-09-02T08:24:17Z</time>
      </trkpt>
      <trkpt lat="45.75735" lon="4.62941">
        <ele>709</ele>
        <time>2012-09-02T08:24:22Z</time>
      </trkpt>
      <trkpt lat="45.75746" lon="4.62946">
        <ele>706</ele>
        <time>2012-09-02T08:24:25Z</time>
      </trkpt>
      <trkpt lat="45.75754" lon="4.62953">
        <ele>705</ele>
        <time>2012-09-02T08:24:28Z</time>
      </trkpt>
      <trkpt lat="45.75764" lon="4.62958">
        <ele>705</ele>
        <time>2012-09-02T08:24:32Z</time>
      </trkpt>
      <trkpt lat="45.75776" lon="4.62959">
        <ele>705</ele>
        <time>2012-09-02T08:24:36Z</time>
      </trkpt>
      <trkpt lat="45.75787" lon="4.62962">
        <ele>706</ele>
        <time>2012-09-02T08:24:40Z</time>
      </trkpt>
      <trkpt lat="45.75798" lon="4.62968">
        <ele>710</ele>
        <time>2012-09-02T08:24:47Z</time>
      </trkpt>
      <trkpt lat="45.75806" lon="4.62977">
        <ele>710</ele>
        <time>2012-09-02T08:24:51Z</time>
      </trkpt>
      <trkpt lat="45.75815" lon="4.62983">
        <ele>709</ele>
        <time>2012-09-02T08:24:57Z</time>
      </trkpt>
      <trkpt lat="45.75825" lon="4.62992">
        <ele>710</ele>
        <time>2012-09-02T08:25:02Z</time>
      </trkpt>
      <trkpt lat="45.75833" lon="4.62998">
        <ele>711</ele>
        <time>2012-09-02T08:25:04Z</time>
      </trkpt>
      <trkpt lat="45.75845" lon="4.63004">
        <ele>712</ele>
        <time>2012-09-02T08:25:07Z</time>
      </trkpt>
      <trkpt lat="45.75855" lon="4.6301">
        <ele>713</ele>
        <time>2012-09-02T08:25:10Z</time>
      </trkpt>
      <trkpt lat="45.75865" lon="4.63018">
        <ele>715</ele>
        <time>2012-09-02T08:25:14Z</time>
      </trkpt>
      <trkpt lat="45.75876" lon="4.63021">
        <ele>715</ele>
        <time>2012-09-02T08:25:18Z</time>
      </trkpt>
      <trkpt lat="45.75885" lon="4.63024">
        <ele>716</ele>
        <time>2012-09-02T08:25:23Z</time>
      </trkpt>
      <trkpt lat="45.75894" lon="4.63031">
        <ele>716</ele>
        <time>2012-09-02T08:25:29Z</time>
      </trkpt>
      <trkpt lat="45.75902" lon="4.63038">
        <ele>716</ele>
        <time>2012-09-02T08:25:35Z</time>
      </trkpt>
      <trkpt lat="45.7591" lon="4.63047">
        <ele>717</ele>
        <time>2012-09-02T08:25:41Z</time>
      </trkpt>
      <trkpt lat="45.75917" lon="4.63055">
        <ele>716</ele>
        <time>2012-09-02T08:25:46Z</time>
      </trkpt>
      <trkpt lat="45.75925" lon="4.63064">
        <ele>714</ele>
        <time>2012-09-02T08:25:50Z</time>
      </trkpt>
      <trkpt lat="45.75934" lon="4.63075">
        <ele>714</ele>
        <time>2012-09-02T08:25:54Z</time>
      </trkpt>
      <trkpt lat="45.75945" lon="4.63084">
        <ele>716</ele>
        <time>2012-09-02T08:25:57Z</time>
      </trkpt>
      <trkpt lat="45.75954" lon="4.6309">
        <ele>718</ele>
        <time>2012-09-02T08:25:59Z</time>
      </trkpt>
      <trkpt lat="45.75963" lon="4.63095">
        <ele>719</ele>
        <time>2012-09-02T08:26:01Z</time>
      </trkpt>
      <trkpt lat="45.75973" lon="4.63099">
        <ele>719</ele>
        <time>2012-09-02T08:26:03Z</time>
      </trkpt>
      <trkpt lat="45.75986" lon="4.63102">
        <ele>720</ele>
        <time>2012-09-02T08:26:06Z</time>
      </trkpt>
      <trkpt lat="45.75994" lon="4.63104">
        <ele>720</ele>
        <time>2012-09-02T08:26:08Z</time>
      </trkpt>
      <trkpt lat="45.75999" lon="4.63106">
        <ele>720</ele>
        <time>2012-09-02T08:26:10Z</time>
      </trkpt>
      <trkpt lat="45.7601" lon="4.63105">
        <ele>720</ele>
        <time>2012-09-02T08:26:14Z</time>
      </trkpt>
      <trkpt lat="45.7602" lon="4.63107">
        <ele>718</ele>
        <time>2012-09-02T08:26:18Z</time>
      </trkpt>
      <trkpt lat="45.76031" lon="4.63106">
        <ele>717</ele>
        <time>2012-09-02T08:26:22Z</time>
      </trkpt>
      <trkpt lat="45.7604" lon="4.631">
        <ele>715</ele>
        <time>2012-09-02T08:26:25Z</time>
      </trkpt>
      <trkpt lat="45.76049" lon="4.63087">
        <ele>713</ele>
        <time>2012-09-02T08:26:28Z</time>
      </trkpt>
      <trkpt lat="45.76056" lon="4.63076">
        <ele>711</ele>
        <time>2012-09-02T08:26:31Z</time>
      </trkpt>
      <trkpt lat="45.76063" lon="4.63063">
        <ele>708</ele>
        <time>2012-09-02T08:26:36Z</time>
      </trkpt>
      <trkpt lat="45.76069" lon="4.63049">
        <ele>707</ele>
        <time>2012-09-02T08:26:39Z</time>
      </trkpt>
      <trkpt lat="45.76075" lon="4.63038">
        <ele>706</ele>
        <time>2012-09-02T08:26:42Z</time>
      </trkpt>
      <trkpt lat="45.76081" lon="4.63025">
        <ele>705</ele>
        <time>2012-09-02T08:26:45Z</time>
      </trkpt>
      <trkpt lat="45.76086" lon="4.63011">
        <ele>704</ele>
        <time>2012-09-02T08:26:49Z</time>
      </trkpt>
      <trkpt lat="45.76092" lon="4.62997">
        <ele>704</ele>
        <time>2012-09-02T08:26:52Z</time>
      </trkpt>
      <trkpt lat="45.76098" lon="4.62983">
        <ele>704</ele>
        <time>2012-09-02T08:26:56Z</time>
      </trkpt>
      <trkpt lat="45.76105" lon="4.6297">
        <ele>706</ele>
        <time>2012-09-02T08:27:01Z</time>
      </trkpt>
      <trkpt lat="45.76106" lon="4.6295">
        <ele>707</ele>
        <time>2012-09-02T08:27:04Z</time>
      </trkpt>
      <trkpt lat="45.76105" lon="4.62935">
        <ele>708</ele>
        <time>2012-09-02T08:27:07Z</time>
      </trkpt>
      <trkpt lat="45.76107" lon="4.62922">
        <ele>709</ele>
        <time>2012-09-02T08:27:12Z</time>
      </trkpt>
      <trkpt lat="45.76111" lon="4.62908">
        <ele>712</ele>
        <time>2012-09-02T08:27:19Z</time>
      </trkpt>
      <trkpt lat="45.76117" lon="4.62896">
        <ele>713</ele>
        <time>2012-09-02T08:27:25Z</time>
      </trkpt>
      <trkpt lat="45.76121" lon="4.62882">
        <ele>714</ele>
        <time>2012-09-02T08:27:30Z</time>
      </trkpt>
      <trkpt lat="45.76127" lon="4.62872">
        <ele>715</ele>
        <time>2012-09-02T08:27:34Z</time>
      </trkpt>
      <trkpt lat="45.76136" lon="4.62866">
        <ele>716</ele>
        <time>2012-09-02T08:27:38Z</time>
      </trkpt>
      <trkpt lat="45.76144" lon="4.6286">
        <ele>717</ele>
        <time>2012-09-02T08:27:41Z</time>
      </trkpt>
      <trkpt lat="45.76154" lon="4.62858">
        <ele>718</ele>
        <time>2012-09-02T08:27:45Z</time>
      </trkpt>
      <trkpt lat="45.76163" lon="4.62863">
        <ele>720</ele>
        <time>2012-09-02T08:27:52Z</time>
      </trkpt>
      <trkpt lat="45.76173" lon="4.62863">
        <ele>723</ele>
        <time>2012-09-02T08:28:03Z</time>
      </trkpt>
      <trkpt lat="45.76182" lon="4.6286">
        <ele>724</ele>
        <time>2012-09-02T08:28:09Z</time>
      </trkpt>
      <trkpt lat="45.76192" lon="4.62862">
        <ele>725</ele>
        <time>2012-09-02T08:28:19Z</time>
      </trkpt>
      <trkpt lat="45.76202" lon="4.62863">
        <ele>728</ele>
        <time>2012-09-02T08:28:27Z</time>
      </trkpt>
      <trkpt lat="45.76213" lon="4.62864">
        <ele>729</ele>
        <time>2012-09-02T08:28:32Z</time>
      </trkpt>
      <trkpt lat="45.76225" lon="4.62868">
        <ele>727</ele>
        <time>2012-09-02T08:28:37Z</time>
      </trkpt>
      <trkpt lat="45.76234" lon="4.62869">
        <ele>722</ele>
        <time>2012-09-02T08:28:48Z</time>
      </trkpt>
      <trkpt lat="45.76246" lon="4.62866">
        <ele>720</ele>
        <time>2012-09-02T08:29:02Z</time>
      </trkpt>
      <trkpt lat="45.76255" lon="4.62869">
        <ele>719</ele>
        <time>2012-09-02T08:29:07Z</time>
      </trkpt>
      <trkpt lat="45.76264" lon="4.62874">
        <ele>720</ele>
        <time>2012-09-02T08:29:14Z</time>
      </trkpt>
      <trkpt lat="45.76258" lon="4.62886">
        <ele>723</ele>
        <time>2012-09-02T08:29:20Z</time>
      </trkpt>
      <trkpt lat="45.76255" lon="4.629">
        <ele>725</ele>
        <time>2012-09-02T08:29:23Z</time>
      </trkpt>
      <trkpt lat="45.76249" lon="4.62916">
        <ele>724</ele>
        <time>2012-09-02T08:29:27Z</time>
      </trkpt>
      <trkpt lat="45.76244" lon="4.62933">
        <ele>723</ele>
        <time>2012-09-02T08:29:32Z</time>
      </trkpt>
      <trkpt lat="45.7624" lon="4.62948">
        <ele>723</ele>
        <time>2012-09-02T08:29:36Z</time>
      </trkpt>
      <trkpt lat="45.76239" lon="4.6296">
        <ele>723</ele>
        <time>2012-09-02T08:29:40Z</time>
      </trkpt>
      <trkpt lat="45.76239" lon="4.62976">
        <ele>723</ele>
        <time>2012-09-02T08:29:43Z</time>
      </trkpt>
      <trkpt lat="45.76239" lon="4.62985">
        <ele>723</ele>
        <time>2012-09-02T08:29:45Z</time>
      </trkpt>
      <trkpt lat="45.76239" lon="4.62995">
        <ele>724</ele>
        <time>2012-09-02T08:29:47Z</time>
      </trkpt>
      <trkpt lat="45.76238" lon="4.63004">
        <ele>725</ele>
        <time>2012-09-02T08:29:49Z</time>
      </trkpt>
      <trkpt lat="45.76238" lon="4.63018">
        <ele>726</ele>
        <time>2012-09-02T08:29:52Z</time>
      </trkpt>
      <trkpt lat="45.76236" lon="4.63028">
        <ele>727</ele>
        <time>2012-09-02T08:29:54Z</time>
      </trkpt>
      <trkpt lat="45.76234" lon="4.63038">
        <ele>728</ele>
        <time>2012-09-02T08:29:56Z</time>
      </trkpt>
      <trkpt lat="45.76231" lon="4.6305">
        <ele>729</ele>
        <time>2012-09-02T08:29:59Z</time>
      </trkpt>
      <trkpt lat="45.76228" lon="4.63063">
        <ele>727</ele>
        <time>2012-09-02T08:30:02Z</time>
      </trkpt>
      <trkpt lat="45.76227" lon="4.63074">
        <ele>725</ele>
        <time>2012-09-02T08:30:04Z</time>
      </trkpt>
      <trkpt lat="45.76225" lon="4.63083">
        <ele>723</ele>
        <time>2012-09-02T08:30:06Z</time>
      </trkpt>
      <trkpt lat="45.76224" lon="4.63091">
        <ele>722</ele>
        <time>2012-09-02T08:30:08Z</time>
      </trkpt>
      <trkpt lat="45.76223" lon="4.631">
        <ele>722</ele>
        <time>2012-09-02T08:30:10Z</time>
      </trkpt>
      <trkpt lat="45.76223" lon="4.63111">
        <ele>720</ele>
        <time>2012-09-02T08:30:12Z</time>
      </trkpt>
      <trkpt lat="45.76223" lon="4.63121">
        <ele>718</ele>
        <time>2012-09-02T08:30:14Z</time>
      </trkpt>
      <trkpt lat="45.76222" lon="4.63135">
        <ele>717</ele>
        <time>2012-09-02T08:30:17Z</time>
      </trkpt>
      <trkpt lat="45.76222" lon="4.63147">
        <ele>715</ele>
        <time>2012-09-02T08:30:19Z</time>
      </trkpt>
      <trkpt lat="45.76222" lon="4.63158">
        <ele>715</ele>
        <time>2012-09-02T08:30:21Z</time>
      </trkpt>
      <trkpt lat="45.76223" lon="4.63164">
        <ele>714</ele>
        <time>2012-09-02T08:30:22Z</time>
      </trkpt>
      <trkpt lat="45.76225" lon="4.63174">
        <ele>713</ele>
        <time>2012-09-02T08:30:24Z</time>
      </trkpt>
      <trkpt lat="45.76225" lon="4.63185">
        <ele>712</ele>
        <time>2012-09-02T08:30:26Z</time>
      </trkpt>
      <trkpt lat="45.76226" lon="4.63195">
        <ele>711</ele>
        <time>2012-09-02T08:30:28Z</time>
      </trkpt>
      <trkpt lat="45.76226" lon="4.63204">
        <ele>709</ele>
        <time>2012-09-02T08:30:30Z</time>
      </trkpt>
      <trkpt lat="45.76227" lon="4.63212">
        <ele>709</ele>
        <time>2012-09-02T08:30:32Z</time>
      </trkpt>
      <trkpt lat="45.7623" lon="4.63224">
        <ele>707</ele>
        <time>2012-09-02T08:30:35Z</time>
      </trkpt>
      <trkpt lat="45.76231" lon="4.63234">
        <ele>707</ele>
        <time>2012-09-02T08:30:37Z</time>
      </trkpt>
      <trkpt lat="45.76233" lon="4.63248">
        <ele>706</ele>
        <time>2012-09-02T08:30:40Z</time>
      </trkpt>
      <trkpt lat="45.76235" lon="4.63265">
        <ele>705</ele>
        <time>2012-09-02T08:30:44Z</time>
      </trkpt>
      <trkpt lat="45.76235" lon="4.63275">
        <ele>705</ele>
        <time>2012-09-02T08:30:46Z</time>
      </trkpt>
      <trkpt lat="45.76234" lon="4.63284">
        <ele>705</ele>
        <time>2012-09-02T08:30:48Z</time>
      </trkpt>
      <trkpt lat="45.76232" lon="4.63295">
        <ele>706</ele>
        <time>2012-09-02T08:30:50Z</time>
      </trkpt>
      <trkpt lat="45.76228" lon="4.63304">
        <ele>706</ele>
        <time>2012-09-02T08:30:52Z</time>
      </trkpt>
      <trkpt lat="45.76223" lon="4.63317">
        <ele>705</ele>
        <time>2012-09-02T08:30:56Z</time>
      </trkpt>
      <trkpt lat="45.76222" lon="4.63334">
        <ele>706</ele>
        <time>2012-09-02T08:31:00Z</time>
      </trkpt>
      <trkpt lat="45.76221" lon="4.63349">
        <ele>706</ele>
        <time>2012-09-02T08:31:03Z</time>
      </trkpt>
      <trkpt lat="45.76219" lon="4.63362">
        <ele>706</ele>
        <time>2012-09-02T08:31:06Z</time>
      </trkpt>
      <trkpt lat="45.76219" lon="4.6338">
        <ele>705</ele>
        <time>2012-09-02T08:31:09Z</time>
      </trkpt>
      <trkpt lat="45.76218" lon="4.63396">
        <ele>705</ele>
        <time>2012-09-02T08:31:13Z</time>
      </trkpt>
      <trkpt lat="45.76215" lon="4.6341">
        <ele>704</ele>
        <time>2012-09-02T08:31:16Z</time>
      </trkpt>
      <trkpt lat="45.76211" lon="4.63425">
        <ele>704</ele>
        <time>2012-09-02T08:31:19Z</time>
      </trkpt>
      <trkpt lat="45.7621" lon="4.63438">
        <ele>704</ele>
        <time>2012-09-02T08:31:21Z</time>
      </trkpt>
      <trkpt lat="45.76211" lon="4.63456">
        <ele>703</ele>
        <time>2012-09-02T08:31:24Z</time>
      </trkpt>
      <trkpt lat="45.76212" lon="4.63468">
        <ele>701</ele>
        <time>2012-09-02T08:31:26Z</time>
      </trkpt>
      <trkpt lat="45.76213" lon="4.63475">
        <ele>700</ele>
        <time>2012-09-02T08:31:27Z</time>
      </trkpt>
      <trkpt lat="45.76214" lon="4.63485">
        <ele>698</ele>
        <time>2012-09-02T08:31:29Z</time>
      </trkpt>
      <trkpt lat="45.76214" lon="4.63499">
        <ele>696</ele>
        <time>2012-09-02T08:31:32Z</time>
      </trkpt>
      <trkpt lat="45.76217" lon="4.63513">
        <ele>693</ele>
        <time>2012-09-02T08:31:35Z</time>
      </trkpt>
      <trkpt lat="45.76219" lon="4.63523">
        <ele>691</ele>
        <time>2012-09-02T08:31:37Z</time>
      </trkpt>
      <trkpt lat="45.76221" lon="4.63535">
        <ele>689</ele>
        <time>2012-09-02T08:31:40Z</time>
      </trkpt>
      <trkpt lat="45.76224" lon="4.63548">
        <ele>689</ele>
        <time>2012-09-02T08:31:43Z</time>
      </trkpt>
      <trkpt lat="45.76229" lon="4.63564">
        <ele>688</ele>
        <time>2012-09-02T08:31:46Z</time>
      </trkpt>
      <trkpt lat="45.76229" lon="4.63578">
        <ele>687</ele>
        <time>2012-09-02T08:31:49Z</time>
      </trkpt>
      <trkpt lat="45.76228" lon="4.63596">
        <ele>686</ele>
        <time>2012-09-02T08:31:53Z</time>
      </trkpt>
      <trkpt lat="45.76227" lon="4.63607">
        <ele>685</ele>
        <time>2012-09-02T08:31:55Z</time>
      </trkpt>
      <trkpt lat="45.76227" lon="4.63623">
        <ele>683</ele>
        <time>2012-09-02T08:31:58Z</time>
      </trkpt>
      <trkpt lat="45.76228" lon="4.63629">
        <ele>682</ele>
        <time>2012-09-02T08:31:59Z</time>
      </trkpt>
      <trkpt lat="45.76231" lon="4.63641">
        <ele>680</ele>
        <time>2012-09-02T08:32:01Z</time>
      </trkpt>
      <trkpt lat="45.76234" lon="4.63651">
        <ele>677</ele>
        <time>2012-09-02T08:32:03Z</time>
      </trkpt>
      <trkpt lat="45.76236" lon="4.63661">
        <ele>676</ele>
        <time>2012-09-02T08:32:05Z</time>
      </trkpt>
      <trkpt lat="45.76236" lon="4.6367">
        <ele>675</ele>
        <time>2012-09-02T08:32:07Z</time>
      </trkpt>
      <trkpt lat="45.76237" lon="4.6368">
        <ele>674</ele>
        <time>2012-09-02T08:32:09Z</time>
      </trkpt>
      <trkpt lat="45.76239" lon="4.63696">
        <ele>673</ele>
        <time>2012-09-02T08:32:13Z</time>
      </trkpt>
      <trkpt lat="45.76241" lon="4.63707">
        <ele>671</ele>
        <time>2012-09-02T08:32:15Z</time>
      </trkpt>
      <trkpt lat="45.76242" lon="4.63714">
        <ele>670</ele>
        <time>2012-09-02T08:32:16Z</time>
      </trkpt>
      <trkpt lat="45.76246" lon="4.63729">
        <ele>667</ele>
        <time>2012-09-02T08:32:19Z</time>
      </trkpt>
      <trkpt lat="45.7625" lon="4.63743">
        <ele>664</ele>
        <time>2012-09-02T08:32:22Z</time>
      </trkpt>
      <trkpt lat="45.76252" lon="4.63757">
        <ele>661</ele>
        <time>2012-09-02T08:32:25Z</time>
      </trkpt>
      <trkpt lat="45.76253" lon="4.6377">
        <ele>660</ele>
        <time>2012-09-02T08:32:28Z</time>
      </trkpt>
      <trkpt lat="45.76254" lon="4.63786">
        <ele>659</ele>
        <time>2012-09-02T08:32:32Z</time>
      </trkpt>
      <trkpt lat="45.7626" lon="4.63802">
        <ele>659</ele>
        <time>2012-09-02T08:32:36Z</time>
      </trkpt>
      <trkpt lat="45.76265" lon="4.63815">
        <ele>658</ele>
        <time>2012-09-02T08:32:39Z</time>
      </trkpt>
      <trkpt lat="45.76273" lon="4.6383">
        <ele>656</ele>
        <time>2012-09-02T08:32:42Z</time>
      </trkpt>
      <trkpt lat="45.76281" lon="4.63838">
        <ele>655</ele>
        <time>2012-09-02T08:32:44Z</time>
      </trkpt>
      <trkpt lat="45.7629" lon="4.63849">
        <ele>652</ele>
        <time>2012-09-02T08:32:47Z</time>
      </trkpt>
      <trkpt lat="45.76299" lon="4.63858">
        <ele>650</ele>
        <time>2012-09-02T08:32:50Z</time>
      </trkpt>
      <trkpt lat="45.76305" lon="4.6387">
        <ele>648</ele>
        <time>2012-09-02T08:32:54Z</time>
      </trkpt>
      <trkpt lat="45.76307" lon="4.63884">
        <ele>646</ele>
        <time>2012-09-02T08:32:57Z</time>
      </trkpt>
      <trkpt lat="45.76307" lon="4.63902">
        <ele>643</ele>
        <time>2012-09-02T08:33:01Z</time>
      </trkpt>
      <trkpt lat="45.76309" lon="4.63914">
        <ele>642</ele>
        <time>2012-09-02T08:33:04Z</time>
      </trkpt>
      <trkpt lat="45.76311" lon="4.63927">
        <ele>641</ele>
        <time>2012-09-02T08:33:07Z</time>
      </trkpt>
      <trkpt lat="45.76311" lon="4.6394">
        <ele>640</ele>
        <time>2012-09-02T08:33:10Z</time>
      </trkpt>
      <trkpt lat="45.76313" lon="4.63956">
        <ele>638</ele>
        <time>2012-09-02T08:33:13Z</time>
      </trkpt>
      <trkpt lat="45.76315" lon="4.63973">
        <ele>635</ele>
        <time>2012-09-02T08:33:17Z</time>
      </trkpt>
      <trkpt lat="45.76318" lon="4.63989">
        <ele>633</ele>
        <time>2012-09-02T08:33:20Z</time>
      </trkpt>
      <trkpt lat="45.76321" lon="4.64004">
        <ele>630</ele>
        <time>2012-09-02T08:33:23Z</time>
      </trkpt>
      <trkpt lat="45.76324" lon="4.64018">
        <ele>629</ele>
        <time>2012-09-02T08:33:26Z</time>
      </trkpt>
      <trkpt lat="45.76329" lon="4.64032">
        <ele>626</ele>
        <time>2012-09-02T08:33:30Z</time>
      </trkpt>
      <trkpt lat="45.76334" lon="4.64043">
        <ele>625</ele>
        <time>2012-09-02T08:33:32Z</time>
      </trkpt>
      <trkpt lat="45.76334" lon="4.64059">
        <ele>622</ele>
        <time>2012-09-02T08:33:35Z</time>
      </trkpt>
      <trkpt lat="45.76336" lon="4.64074">
        <ele>618</ele>
        <time>2012-09-02T08:33:40Z</time>
      </trkpt>
      <trkpt lat="45.7634" lon="4.6409">
        <ele>615</ele>
        <time>2012-09-02T08:33:44Z</time>
      </trkpt>
      <trkpt lat="45.76344" lon="4.64102">
        <ele>614</ele>
        <time>2012-09-02T08:33:47Z</time>
      </trkpt>
      <trkpt lat="45.76342" lon="4.64116">
        <ele>612</ele>
        <time>2012-09-02T08:33:50Z</time>
      </trkpt>
      <trkpt lat="45.76343" lon="4.64134">
        <ele>611</ele>
        <time>2012-09-02T08:33:53Z</time>
      </trkpt>
      <trkpt lat="45.76346" lon="4.64145">
        <ele>610</ele>
        <time>2012-09-02T08:33:55Z</time>
      </trkpt>
      <trkpt lat="45.7635" lon="4.64153">
        <ele>608</ele>
        <time>2012-09-02T08:33:57Z</time>
      </trkpt>
      <trkpt lat="45.76351" lon="4.6416">
        <ele>607</ele>
        <time>2012-09-02T08:33:59Z</time>
      </trkpt>
      <trkpt lat="45.76353" lon="4.64167">
        <ele>606</ele>
        <time>2012-09-02T08:34:01Z</time>
      </trkpt>
      <trkpt lat="45.76354" lon="4.64179">
        <ele>604</ele>
        <time>2012-09-02T08:34:04Z</time>
      </trkpt>
      <trkpt lat="45.76356" lon="4.64189">
        <ele>603</ele>
        <time>2012-09-02T08:34:07Z</time>
      </trkpt>
      <trkpt lat="45.76359" lon="4.64197">
        <ele>602</ele>
        <time>2012-09-02T08:34:09Z</time>
      </trkpt>
      <trkpt lat="45.76366" lon="4.64208">
        <ele>601</ele>
        <time>2012-09-02T08:34:12Z</time>
      </trkpt>
      <trkpt lat="45.76375" lon="4.64219">
        <ele>598</ele>
        <time>2012-09-02T08:34:15Z</time>
      </trkpt>
      <trkpt lat="45.76381" lon="4.64231">
        <ele>596</ele>
        <time>2012-09-02T08:34:18Z</time>
      </trkpt>
      <trkpt lat="45.76383" lon="4.6424">
        <ele>595</ele>
        <time>2012-09-02T08:34:20Z</time>
      </trkpt>
      <trkpt lat="45.76383" lon="4.64247">
        <ele>594</ele>
        <time>2012-09-02T08:34:22Z</time>
      </trkpt>
      <trkpt lat="45.76381" lon="4.64263">
        <ele>594</ele>
        <time>2012-09-02T08:34:26Z</time>
      </trkpt>
      <trkpt lat="45.7639" lon="4.64276">
        <ele>593</ele>
        <time>2012-09-02T08:34:29Z</time>
      </trkpt>
      <trkpt lat="45.76398" lon="4.64283">
        <ele>591</ele>
        <time>2012-09-02T08:34:32Z</time>
      </trkpt>
      <trkpt lat="45.76404" lon="4.64287">
        <ele>589</ele>
        <time>2012-09-02T08:34:35Z</time>
      </trkpt>
      <trkpt lat="45.76411" lon="4.6429">
        <ele>587</ele>
        <time>2012-09-02T08:34:38Z</time>
      </trkpt>
      <trkpt lat="45.76418" lon="4.64298">
        <ele>584</ele>
        <time>2012-09-02T08:34:43Z</time>
      </trkpt>
      <trkpt lat="45.76427" lon="4.64306">
        <ele>582</ele>
        <time>2012-09-02T08:34:47Z</time>
      </trkpt>
      <trkpt lat="45.76437" lon="4.64314">
        <ele>580</ele>
        <time>2012-09-02T08:34:51Z</time>
      </trkpt>
      <trkpt lat="45.76446" lon="4.6432">
        <ele>578</ele>
        <time>2012-09-02T08:34:54Z</time>
      </trkpt>
      <trkpt lat="45.76454" lon="4.64328">
        <ele>575</ele>
        <time>2012-09-02T08:34:57Z</time>
      </trkpt>
      <trkpt lat="45.76462" lon="4.64334">
        <ele>573</ele>
        <time>2012-09-02T08:35:00Z</time>
      </trkpt>
      <trkpt lat="45.76472" lon="4.6434">
        <ele>572</ele>
        <time>2012-09-02T08:35:03Z</time>
      </trkpt>
      <trkpt lat="45.76481" lon="4.64344">
        <ele>569</ele>
        <time>2012-09-02T08:35:06Z</time>
      </trkpt>
      <trkpt lat="45.76492" lon="4.6435">
        <ele>567</ele>
        <time>2012-09-02T08:35:10Z</time>
      </trkpt>
      <trkpt lat="45.76501" lon="4.6436">
        <ele>565</ele>
        <time>2012-09-02T08:35:14Z</time>
      </trkpt>
      <trkpt lat="45.76509" lon="4.64369">
        <ele>563</ele>
        <time>2012-09-02T08:35:17Z</time>
      </trkpt>
      <trkpt lat="45.76518" lon="4.64373">
        <ele>562</ele>
        <time>2012-09-02T08:35:20Z</time>
      </trkpt>
      <trkpt lat="45.76524" lon="4.64383">
        <ele>560</ele>
        <time>2012-09-02T08:35:24Z</time>
      </trkpt>
      <trkpt lat="45.76528" lon="4.64395">
        <ele>558</ele>
        <time>2012-09-02T08:35:28Z</time>
      </trkpt>
      <trkpt lat="45.76531" lon="4.644">
        <ele>556</ele>
        <time>2012-09-02T08:35:30Z</time>
      </trkpt>
      <trkpt lat="45.76535" lon="4.64406">
        <ele>554</ele>
        <time>2012-09-02T08:35:32Z</time>
      </trkpt>
      <trkpt lat="45.76539" lon="4.64412">
        <ele>553</ele>
        <time>2012-09-02T08:35:34Z</time>
      </trkpt>
      <trkpt lat="45.76543" lon="4.64418">
        <ele>552</ele>
        <time>2012-09-02T08:35:36Z</time>
      </trkpt>
      <trkpt lat="45.76546" lon="4.64426">
        <ele>551</ele>
        <time>2012-09-02T08:35:38Z</time>
      </trkpt>
      <trkpt lat="45.76548" lon="4.64439">
        <ele>549</ele>
        <time>2012-09-02T08:35:41Z</time>
      </trkpt>
      <trkpt lat="45.76548" lon="4.64446">
        <ele>548</ele>
        <time>2012-09-02T08:35:42Z</time>
      </trkpt>
      <trkpt lat="45.76549" lon="4.64456">
        <ele>546</ele>
        <time>2012-09-02T08:35:44Z</time>
      </trkpt>
      <trkpt lat="45.7655" lon="4.64464">
        <ele>544</ele>
        <time>2012-09-02T08:35:46Z</time>
      </trkpt>
      <trkpt lat="45.76553" lon="4.64472">
        <ele>543</ele>
        <time>2012-09-02T08:35:48Z</time>
      </trkpt>
      <trkpt lat="45.76556" lon="4.6448">
        <ele>542</ele>
        <time>2012-09-02T08:35:50Z</time>
      </trkpt>
      <trkpt lat="45.76557" lon="4.64488">
        <ele>542</ele>
        <time>2012-09-02T08:35:52Z</time>
      </trkpt>
      <trkpt lat="45.76559" lon="4.64498">
        <ele>542</ele>
        <time>2012-09-02T08:35:54Z</time>
      </trkpt>
      <trkpt lat="45.76559" lon="4.64505">
        <ele>541</ele>
        <time>2012-09-02T08:35:56Z</time>
      </trkpt>
      <trkpt lat="45.76561" lon="4.6452">
        <ele>540</ele>
        <time>2012-09-02T08:35:59Z</time>
      </trkpt>
      <trkpt lat="45.76563" lon="4.6453">
        <ele>539</ele>
        <time>2012-09-02T08:36:01Z</time>
      </trkpt>
      <trkpt lat="45.76565" lon="4.64538">
        <ele>539</ele>
        <time>2012-09-02T08:36:03Z</time>
      </trkpt>
      <trkpt lat="45.76568" lon="4.64547">
        <ele>539</ele>
        <time>2012-09-02T08:36:05Z</time>
      </trkpt>
      <trkpt lat="45.7657" lon="4.64557">
        <ele>539</ele>
        <time>2012-09-02T08:36:07Z</time>
      </trkpt>
      <trkpt lat="45.76574" lon="4.64564">
        <ele>538</ele>
        <time>2012-09-02T08:36:09Z</time>
      </trkpt>
      <trkpt lat="45.76577" lon="4.6457">
        <ele>538</ele>
        <time>2012-09-02T08:36:11Z</time>
      </trkpt>
      <trkpt lat="45.7658" lon="4.64579">
        <ele>538</ele>
        <time>2012-09-02T08:36:13Z</time>
      </trkpt>
      <trkpt lat="45.76583" lon="4.64588">
        <ele>537</ele>
        <time>2012-09-02T08:36:15Z</time>
      </trkpt>
      <trkpt lat="45.76585" lon="4.64597">
        <ele>536</ele>
        <time>2012-09-02T08:36:17Z</time>
      </trkpt>
      <trkpt lat="45.76589" lon="4.64607">
        <ele>535</ele>
        <time>2012-09-02T08:36:19Z</time>
      </trkpt>
      <trkpt lat="45.76594" lon="4.64616">
        <ele>534</ele>
        <time>2012-09-02T08:36:21Z</time>
      </trkpt>
      <trkpt lat="45.76598" lon="4.64628">
        <ele>533</ele>
        <time>2012-09-02T08:36:24Z</time>
      </trkpt>
      <trkpt lat="45.76601" lon="4.64644">
        <ele>532</ele>
        <time>2012-09-02T08:36:28Z</time>
      </trkpt>
      <trkpt lat="45.76606" lon="4.64659">
        <ele>532</ele>
        <time>2012-09-02T08:36:31Z</time>
      </trkpt>
      <trkpt lat="45.76608" lon="4.64666">
        <ele>532</ele>
        <time>2012-09-02T08:36:33Z</time>
      </trkpt>
      <trkpt lat="45.7661" lon="4.64673">
        <ele>531</ele>
        <time>2012-09-02T08:36:35Z</time>
      </trkpt>
      <trkpt lat="45.76612" lon="4.64683">
        <ele>530</ele>
        <time>2012-09-02T08:36:37Z</time>
      </trkpt>
      <trkpt lat="45.76614" lon="4.64692">
        <ele>529</ele>
        <time>2012-09-02T08:36:39Z</time>
      </trkpt>
      <trkpt lat="45.76616" lon="4.64702">
        <ele>528</ele>
        <time>2012-09-02T08:36:41Z</time>
      </trkpt>
      <trkpt lat="45.76619" lon="4.6471">
        <ele>527</ele>
        <time>2012-09-02T08:36:43Z</time>
      </trkpt>
      <trkpt lat="45.76622" lon="4.6472">
        <ele>526</ele>
        <time>2012-09-02T08:36:45Z</time>
      </trkpt>
      <trkpt lat="45.76624" lon="4.64726">
        <ele>525</ele>
        <time>2012-09-02T08:36:46Z</time>
      </trkpt>
      <trkpt lat="45.76629" lon="4.64741">
        <ele>522</ele>
        <time>2012-09-02T08:36:49Z</time>
      </trkpt>
      <trkpt lat="45.76631" lon="4.64749">
        <ele>522</ele>
        <time>2012-09-02T08:36:51Z</time>
      </trkpt>
      <trkpt lat="45.76634" lon="4.64759">
        <ele>521</ele>
        <time>2012-09-02T08:36:53Z</time>
      </trkpt>
      <trkpt lat="45.76637" lon="4.64768">
        <ele>520</ele>
        <time>2012-09-02T08:36:55Z</time>
      </trkpt>
      <trkpt lat="45.76639" lon="4.64778">
        <ele>520</ele>
        <time>2012-09-02T08:36:57Z</time>
      </trkpt>
      <trkpt lat="45.7664" lon="4.64787">
        <ele>519</ele>
        <time>2012-09-02T08:36:59Z</time>
      </trkpt>
      <trkpt lat="45.76641" lon="4.64793">
        <ele>518</ele>
        <time>2012-09-02T08:37:00Z</time>
      </trkpt>
      <trkpt lat="45.76642" lon="4.64802">
        <ele>517</ele>
        <time>2012-09-02T08:37:02Z</time>
      </trkpt>
      <trkpt lat="45.76643" lon="4.64812">
        <ele>516</ele>
        <time>2012-09-02T08:37:04Z</time>
      </trkpt>
      <trkpt lat="45.76644" lon="4.6482">
        <ele>515</ele>
        <time>2012-09-02T08:37:06Z</time>
      </trkpt>
      <trkpt lat="45.76644" lon="4.64828">
        <ele>515</ele>
        <time>2012-09-02T08:37:08Z</time>
      </trkpt>
      <trkpt lat="45.76644" lon="4.64838">
        <ele>515</ele>
        <time>2012-09-02T08:37:10Z</time>
      </trkpt>
      <trkpt lat="45.76644" lon="4.64847">
        <ele>514</ele>
        <time>2012-09-02T08:37:12Z</time>
      </trkpt>
      <trkpt lat="45.76644" lon="4.64857">
        <ele>514</ele>
        <time>2012-09-02T08:37:14Z</time>
      </trkpt>
      <trkpt lat="45.76645" lon="4.64869">
        <ele>513</ele>
        <time>2012-09-02T08:37:16Z</time>
      </trkpt>
      <trkpt lat="45.76645" lon="4.64879">
        <ele>511</ele>
        <time>2012-09-02T08:37:18Z</time>
      </trkpt>
      <trkpt lat="45.76646" lon="4.64888">
        <ele>510</ele>
        <time>2012-09-02T08:37:20Z</time>
      </trkpt>
      <trkpt lat="45.76646" lon="4.64895">
        <ele>508</ele>
        <time>2012-09-02T08:37:22Z</time>
      </trkpt>
      <trkpt lat="45.76647" lon="4.64904">
        <ele>507</ele>
        <time>2012-09-02T08:37:24Z</time>
      </trkpt>
      <trkpt lat="45.76648" lon="4.64916">
        <ele>506</ele>
        <time>2012-09-02T08:37:26Z</time>
      </trkpt>
      <trkpt lat="45.76648" lon="4.64925">
        <ele>505</ele>
        <time>2012-09-02T08:37:28Z</time>
      </trkpt>
      <trkpt lat="45.76649" lon="4.64935">
        <ele>504</ele>
        <time>2012-09-02T08:37:30Z</time>
      </trkpt>
      <trkpt lat="45.7665" lon="4.64943">
        <ele>503</ele>
        <time>2012-09-02T08:37:32Z</time>
      </trkpt>
      <trkpt lat="45.76651" lon="4.64954">
        <ele>501</ele>
        <time>2012-09-02T08:37:34Z</time>
      </trkpt>
      <trkpt lat="45.76651" lon="4.64963">
        <ele>500</ele>
        <time>2012-09-02T08:37:36Z</time>
      </trkpt>
      <trkpt lat="45.76651" lon="4.64973">
        <ele>499</ele>
        <time>2012-09-02T08:37:38Z</time>
      </trkpt>
      <trkpt lat="45.76651" lon="4.64981">
        <ele>498</ele>
        <time>2012-09-02T08:37:40Z</time>
      </trkpt>
      <trkpt lat="45.76651" lon="4.64992">
        <ele>498</ele>
        <time>2012-09-02T08:37:42Z</time>
      </trkpt>
      <trkpt lat="45.76652" lon="4.65003">
        <ele>497</ele>
        <time>2012-09-02T08:37:44Z</time>
      </trkpt>
      <trkpt lat="45.76654" lon="4.65013">
        <ele>497</ele>
        <time>2012-09-02T08:37:46Z</time>
      </trkpt>
      <trkpt lat="45.76656" lon="4.65024">
        <ele>496</ele>
        <time>2012-09-02T08:37:48Z</time>
      </trkpt>
      <trkpt lat="45.76659" lon="4.65037">
        <ele>494</ele>
        <time>2012-09-02T08:37:51Z</time>
      </trkpt>
      <trkpt lat="45.76659" lon="4.65045">
        <ele>493</ele>
        <time>2012-09-02T08:37:53Z</time>
      </trkpt>
      <trkpt lat="45.76659" lon="4.65056">
        <ele>492</ele>
        <time>2012-09-02T08:37:55Z</time>
      </trkpt>
      <trkpt lat="45.76659" lon="4.65066">
        <ele>492</ele>
        <time>2012-09-02T08:37:57Z</time>
      </trkpt>
      <trkpt lat="45.7666" lon="4.65081">
        <ele>490</ele>
        <time>2012-09-02T08:38:00Z</time>
      </trkpt>
      <trkpt lat="45.76661" lon="4.65094">
        <ele>489</ele>
        <time>2012-09-02T08:38:03Z</time>
      </trkpt>
      <trkpt lat="45.76662" lon="4.65104">
        <ele>488</ele>
        <time>2012-09-02T08:38:05Z</time>
      </trkpt>
      <trkpt lat="45.76664" lon="4.65118">
        <ele>487</ele>
        <time>2012-09-02T08:38:08Z</time>
      </trkpt>
      <trkpt lat="45.76665" lon="4.6513">
        <ele>486</ele>
        <time>2012-09-02T08:38:10Z</time>
      </trkpt>
      <trkpt lat="45.76666" lon="4.65145">
        <ele>485</ele>
        <time>2012-09-02T08:38:13Z</time>
      </trkpt>
      <trkpt lat="45.76667" lon="4.65152">
        <ele>485</ele>
        <time>2012-09-02T08:38:15Z</time>
      </trkpt>
      <trkpt lat="45.76669" lon="4.65162">
        <ele>485</ele>
        <time>2012-09-02T08:38:17Z</time>
      </trkpt>
      <trkpt lat="45.7667" lon="4.65173">
        <ele>484</ele>
        <time>2012-09-02T08:38:19Z</time>
      </trkpt>
      <trkpt lat="45.76671" lon="4.65185">
        <ele>484</ele>
        <time>2012-09-02T08:38:21Z</time>
      </trkpt>
      <trkpt lat="45.76672" lon="4.65193">
        <ele>483</ele>
        <time>2012-09-02T08:38:23Z</time>
      </trkpt>
      <trkpt lat="45.76672" lon="4.65202">
        <ele>483</ele>
        <time>2012-09-02T08:38:25Z</time>
      </trkpt>
      <trkpt lat="45.76673" lon="4.65212">
        <ele>483</ele>
        <time>2012-09-02T08:38:27Z</time>
      </trkpt>
      <trkpt lat="45.76673" lon="4.65222">
        <ele>483</ele>
        <time>2012-09-02T08:38:29Z</time>
      </trkpt>
      <trkpt lat="45.76674" lon="4.65232">
        <ele>483</ele>
        <time>2012-09-02T08:38:31Z</time>
      </trkpt>
      <trkpt lat="45.76675" lon="4.65241">
        <ele>482</ele>
        <time>2012-09-02T08:38:33Z</time>
      </trkpt>
      <trkpt lat="45.76675" lon="4.65251">
        <ele>482</ele>
        <time>2012-09-02T08:38:35Z</time>
      </trkpt>
      <trkpt lat="45.76676" lon="4.6526">
        <ele>482</ele>
        <time>2012-09-02T08:38:37Z</time>
      </trkpt>
      <trkpt lat="45.76676" lon="4.6527">
        <ele>482</ele>
        <time>2012-09-02T08:38:39Z</time>
      </trkpt>
      <trkpt lat="45.76677" lon="4.65281">
        <ele>481</ele>
        <time>2012-09-02T08:38:41Z</time>
      </trkpt>
      <trkpt lat="45.76679" lon="4.65291">
        <ele>481</ele>
        <time>2012-09-02T08:38:43Z</time>
      </trkpt>
      <trkpt lat="45.76679" lon="4.65299">
        <ele>480</ele>
        <time>2012-09-02T08:38:45Z</time>
      </trkpt>
      <trkpt lat="45.76679" lon="4.6531">
        <ele>480</ele>
        <time>2012-09-02T08:38:47Z</time>
      </trkpt>
      <trkpt lat="45.76678" lon="4.6532">
        <ele>480</ele>
        <time>2012-09-02T08:38:49Z</time>
      </trkpt>
      <trkpt lat="45.7668" lon="4.6533">
        <ele>480</ele>
        <time>2012-09-02T08:38:51Z</time>
      </trkpt>
      <trkpt lat="45.76681" lon="4.65337">
        <ele>479</ele>
        <time>2012-09-02T08:38:53Z</time>
      </trkpt>
      <trkpt lat="45.76682" lon="4.65347">
        <ele>479</ele>
        <time>2012-09-02T08:38:55Z</time>
      </trkpt>
      <trkpt lat="45.76682" lon="4.65356">
        <ele>478</ele>
        <time>2012-09-02T08:38:57Z</time>
      </trkpt>
      <trkpt lat="45.76683" lon="4.65364">
        <ele>478</ele>
        <time>2012-09-02T08:38:59Z</time>
      </trkpt>
      <trkpt lat="45.76685" lon="4.65373">
        <ele>478</ele>
        <time>2012-09-02T08:39:01Z</time>
      </trkpt>
      <trkpt lat="45.76686" lon="4.65381">
        <ele>478</ele>
        <time>2012-09-02T08:39:03Z</time>
      </trkpt>
      <trkpt lat="45.76688" lon="4.65391">
        <ele>479</ele>
        <time>2012-09-02T08:39:05Z</time>
      </trkpt>
      <trkpt lat="45.76689" lon="4.65399">
        <ele>479</ele>
        <time>2012-09-02T08:39:07Z</time>
      </trkpt>
      <trkpt lat="45.76691" lon="4.65405">
        <ele>479</ele>
        <time>2012-09-02T08:39:09Z</time>
      </trkpt>
      <trkpt lat="45.76694" lon="4.65416">
        <ele>479</ele>
        <time>2012-09-02T08:39:11Z</time>
      </trkpt>
      <trkpt lat="45.76697" lon="4.65426">
        <ele>479</ele>
        <time>2012-09-02T08:39:13Z</time>
      </trkpt>
      <trkpt lat="45.767" lon="4.65434">
        <ele>479</ele>
        <time>2012-09-02T08:39:15Z</time>
      </trkpt>
      <trkpt lat="45.76704" lon="4.65445">
        <ele>478</ele>
        <time>2012-09-02T08:39:17Z</time>
      </trkpt>
      <trkpt lat="45.76707" lon="4.65453">
        <ele>478</ele>
        <time>2012-09-02T08:39:19Z</time>
      </trkpt>
      <trkpt lat="45.7671" lon="4.6546">
        <ele>477</ele>
        <time>2012-09-02T08:39:21Z</time>
      </trkpt>
      <trkpt lat="45.76712" lon="4.65467">
        <ele>477</ele>
        <time>2012-09-02T08:39:23Z</time>
      </trkpt>
      <trkpt lat="45.76715" lon="4.65476">
        <ele>476</ele>
        <time>2012-09-02T08:39:25Z</time>
      </trkpt>
      <trkpt lat="45.76719" lon="4.65489">
        <ele>475</ele>
        <time>2012-09-02T08:39:28Z</time>
      </trkpt>
      <trkpt lat="45.76722" lon="4.65499">
        <ele>474</ele>
        <time>2012-09-02T08:39:30Z</time>
      </trkpt>
      <trkpt lat="45.76724" lon="4.65508">
        <ele>473</ele>
        <time>2012-09-02T08:39:32Z</time>
      </trkpt>
      <trkpt lat="45.76727" lon="4.65523">
        <ele>473</ele>
        <time>2012-09-02T08:39:36Z</time>
      </trkpt>
      <trkpt lat="45.7673" lon="4.65531">
        <ele>473</ele>
        <time>2012-09-02T08:39:38Z</time>
      </trkpt>
      <trkpt lat="45.76734" lon="4.65548">
        <ele>472</ele>
        <time>2012-09-02T08:39:41Z</time>
      </trkpt>
      <trkpt lat="45.76737" lon="4.65562">
        <ele>470</ele>
        <time>2012-09-02T08:39:44Z</time>
      </trkpt>
      <trkpt lat="45.76741" lon="4.65579">
        <ele>468</ele>
        <time>2012-09-02T08:39:48Z</time>
      </trkpt>
      <trkpt lat="45.76746" lon="4.65594">
        <ele>466</ele>
        <time>2012-09-02T08:39:51Z</time>
      </trkpt>
      <trkpt lat="45.7675" lon="4.65606">
        <ele>465</ele>
        <time>2012-09-02T08:39:54Z</time>
      </trkpt>
      <trkpt lat="45.76754" lon="4.6562">
        <ele>464</ele>
        <time>2012-09-02T08:39:57Z</time>
      </trkpt>
      <trkpt lat="45.76758" lon="4.65634">
        <ele>463</ele>
        <time>2012-09-02T08:40:00Z</time>
      </trkpt>
      <trkpt lat="45.76763" lon="4.65649">
        <ele>462</ele>
        <time>2012-09-02T08:40:03Z</time>
      </trkpt>
      <trkpt lat="45.76766" lon="4.65658">
        <ele>462</ele>
        <time>2012-09-02T08:40:05Z</time>
      </trkpt>
      <trkpt lat="45.76769" lon="4.65668">
        <ele>462</ele>
        <time>2012-09-02T08:40:07Z</time>
      </trkpt>
      <trkpt lat="45.76773" lon="4.65678">
        <ele>462</ele>
        <time>2012-09-02T08:40:09Z</time>
      </trkpt>
      <trkpt lat="45.76775" lon="4.65684">
        <ele>462</ele>
        <time>2012-09-02T08:40:10Z</time>
      </trkpt>
      <trkpt lat="45.76778" lon="4.65692">
        <ele>462</ele>
        <time>2012-09-02T08:40:12Z</time>
      </trkpt>
      <trkpt lat="45.7678" lon="4.65698">
        <ele>462</ele>
        <time>2012-09-02T08:40:13Z</time>
      </trkpt>
      <trkpt lat="45.76784" lon="4.65707">
        <ele>462</ele>
        <time>2012-09-02T08:40:15Z</time>
      </trkpt>
      <trkpt lat="45.76787" lon="4.65717">
        <ele>462</ele>
        <time>2012-09-02T08:40:17Z</time>
      </trkpt>
      <trkpt lat="45.76789" lon="4.65726">
        <ele>462</ele>
        <time>2012-09-02T08:40:19Z</time>
      </trkpt>
      <trkpt lat="45.7679" lon="4.65735">
        <ele>461</ele>
        <time>2012-09-02T08:40:21Z</time>
      </trkpt>
      <trkpt lat="45.76793" lon="4.65744">
        <ele>461</ele>
        <time>2012-09-02T08:40:23Z</time>
      </trkpt>
      <trkpt lat="45.76797" lon="4.65758">
        <ele>461</ele>
        <time>2012-09-02T08:40:26Z</time>
      </trkpt>
      <trkpt lat="45.76799" lon="4.65772">
        <ele>461</ele>
        <time>2012-09-02T08:40:29Z</time>
      </trkpt>
      <trkpt lat="45.76802" lon="4.65787">
        <ele>461</ele>
        <time>2012-09-02T08:40:32Z</time>
      </trkpt>
      <trkpt lat="45.76805" lon="4.65801">
        <ele>461</ele>
        <time>2012-09-02T08:40:35Z</time>
      </trkpt>
      <trkpt lat="45.76807" lon="4.65814">
        <ele>461</ele>
        <time>2012-09-02T08:40:38Z</time>
      </trkpt>
      <trkpt lat="45.76809" lon="4.65827">
        <ele>461</ele>
        <time>2012-09-02T08:40:41Z</time>
      </trkpt>
      <trkpt lat="45.76812" lon="4.65843">
        <ele>461</ele>
        <time>2012-09-02T08:40:44Z</time>
      </trkpt>
      <trkpt lat="45.76814" lon="4.65856">
        <ele>461</ele>
        <time>2012-09-02T08:40:47Z</time>
      </trkpt>
      <trkpt lat="45.76815" lon="4.65866">
        <ele>460</ele>
        <time>2012-09-02T08:40:49Z</time>
      </trkpt>
      <trkpt lat="45.76815" lon="4.65876">
        <ele>460</ele>
        <time>2012-09-02T08:40:51Z</time>
      </trkpt>
      <trkpt lat="45.76813" lon="4.65893">
        <ele>459</ele>
        <time>2012-09-02T08:40:54Z</time>
      </trkpt>
      <trkpt lat="45.76808" lon="4.65909">
        <ele>459</ele>
        <time>2012-09-02T08:40:57Z</time>
      </trkpt>
      <trkpt lat="45.76804" lon="4.65916">
        <ele>458</ele>
        <time>2012-09-02T08:40:59Z</time>
      </trkpt>
      <trkpt lat="45.76801" lon="4.65924">
        <ele>458</ele>
        <time>2012-09-02T08:41:01Z</time>
      </trkpt>
      <trkpt lat="45.76797" lon="4.65933">
        <ele>457</ele>
        <time>2012-09-02T08:41:03Z</time>
      </trkpt>
      <trkpt lat="45.76793" lon="4.65941">
        <ele>458</ele>
        <time>2012-09-02T08:41:05Z</time>
      </trkpt>
      <trkpt lat="45.76787" lon="4.65948">
        <ele>458</ele>
        <time>2012-09-02T08:41:07Z</time>
      </trkpt>
      <trkpt lat="45.76777" lon="4.65959">
        <ele>459</ele>
        <time>2012-09-02T08:41:10Z</time>
      </trkpt>
      <trkpt lat="45.76766" lon="4.65967">
        <ele>460</ele>
        <time>2012-09-02T08:41:13Z</time>
      </trkpt>
      <trkpt lat="45.76756" lon="4.65971">
        <ele>459</ele>
        <time>2012-09-02T08:41:16Z</time>
      </trkpt>
      <trkpt lat="45.7675" lon="4.65973">
        <ele>459</ele>
        <time>2012-09-02T08:41:18Z</time>
      </trkpt>
      <trkpt lat="45.76744" lon="4.65974">
        <ele>458</ele>
        <time>2012-09-02T08:41:20Z</time>
      </trkpt>
      <trkpt lat="45.76735" lon="4.65975">
        <ele>457</ele>
        <time>2012-09-02T08:41:22Z</time>
      </trkpt>
      <trkpt lat="45.76728" lon="4.65975">
        <ele>456</ele>
        <time>2012-09-02T08:41:24Z</time>
      </trkpt>
      <trkpt lat="45.7672" lon="4.65975">
        <ele>456</ele>
        <time>2012-09-02T08:41:26Z</time>
      </trkpt>
      <trkpt lat="45.76712" lon="4.65976">
        <ele>455</ele>
        <time>2012-09-02T08:41:28Z</time>
      </trkpt>
      <trkpt lat="45.76704" lon="4.65976">
        <ele>454</ele>
        <time>2012-09-02T08:41:30Z</time>
      </trkpt>
      <trkpt lat="45.76696" lon="4.65976">
        <ele>452</ele>
        <time>2012-09-02T08:41:32Z</time>
      </trkpt>
      <trkpt lat="45.7669" lon="4.65974">
        <ele>452</ele>
        <time>2012-09-02T08:41:34Z</time>
      </trkpt>
      <trkpt lat="45.76683" lon="4.65972">
        <ele>452</ele>
        <time>2012-09-02T08:41:36Z</time>
      </trkpt>
      <trkpt lat="45.76674" lon="4.65971">
        <ele>452</ele>
        <time>2012-09-02T08:41:38Z</time>
      </trkpt>
      <trkpt lat="45.76666" lon="4.65972">
        <ele>452</ele>
        <time>2012-09-02T08:41:40Z</time>
      </trkpt>
      <trkpt lat="45.76662" lon="4.65971">
        <ele>451</ele>
        <time>2012-09-02T08:41:42Z</time>
      </trkpt>
      <trkpt lat="45.76657" lon="4.6597">
        <ele>450</ele>
        <time>2012-09-02T08:41:44Z</time>
      </trkpt>
      <trkpt lat="45.76651" lon="4.65968">
        <ele>449</ele>
        <time>2012-09-02T08:41:46Z</time>
      </trkpt>
      <trkpt lat="45.76642" lon="4.65964">
        <ele>448</ele>
        <time>2012-09-02T08:41:48Z</time>
      </trkpt>
      <trkpt lat="45.76635" lon="4.65962">
        <ele>447</ele>
        <time>2012-09-02T08:41:50Z</time>
      </trkpt>
      <trkpt lat="45.7663" lon="4.65962">
        <ele>446</ele>
        <time>2012-09-02T08:41:52Z</time>
      </trkpt>
      <trkpt lat="45.76624" lon="4.65962">
        <ele>446</ele>
        <time>2012-09-02T08:41:54Z</time>
      </trkpt>
      <trkpt lat="45.76616" lon="4.65963">
        <ele>444</ele>
        <time>2012-09-02T08:41:56Z</time>
      </trkpt>
      <trkpt lat="45.76609" lon="4.65965">
        <ele>442</ele>
        <time>2012-09-02T08:41:58Z</time>
      </trkpt>
      <trkpt lat="45.76602" lon="4.65967">
        <ele>442</ele>
        <time>2012-09-02T08:42:00Z</time>
      </trkpt>
      <trkpt lat="45.76595" lon="4.65968">
        <ele>441</ele>
        <time>2012-09-02T08:42:02Z</time>
      </trkpt>
      <trkpt lat="45.76588" lon="4.6597">
        <ele>441</ele>
        <time>2012-09-02T08:42:04Z</time>
      </trkpt>
      <trkpt lat="45.7658" lon="4.65972">
        <ele>441</ele>
        <time>2012-09-02T08:42:06Z</time>
      </trkpt>
      <trkpt lat="45.76572" lon="4.65974">
        <ele>441</ele>
        <time>2012-09-02T08:42:08Z</time>
      </trkpt>
      <trkpt lat="45.76565" lon="4.65975">
        <ele>441</ele>
        <time>2012-09-02T08:42:10Z</time>
      </trkpt>
      <trkpt lat="45.76561" lon="4.65982">
        <ele>441</ele>
        <time>2012-09-02T08:42:12Z</time>
      </trkpt>
      <trkpt lat="45.76559" lon="4.65994">
        <ele>442</ele>
        <time>2012-09-02T08:42:14Z</time>
      </trkpt>
      <trkpt lat="45.76558" lon="4.66004">
        <ele>441</ele>
        <time>2012-09-02T08:42:16Z</time>
      </trkpt>
      <trkpt lat="45.76557" lon="4.66012">
        <ele>440</ele>
        <time>2012-09-02T08:42:18Z</time>
      </trkpt>
      <trkpt lat="45.76556" lon="4.66021">
        <ele>440</ele>
        <time>2012-09-02T08:42:20Z</time>
      </trkpt>
      <trkpt lat="45.76553" lon="4.66035">
        <ele>438</ele>
        <time>2012-09-02T08:42:24Z</time>
      </trkpt>
      <trkpt lat="45.7655" lon="4.66049">
        <ele>439</ele>
        <time>2012-09-02T08:42:27Z</time>
      </trkpt>
      <trkpt lat="45.7655" lon="4.66062">
        <ele>438</ele>
        <time>2012-09-02T08:42:31Z</time>
      </trkpt>
      <trkpt lat="45.76549" lon="4.66069">
        <ele>437</ele>
        <time>2012-09-02T08:42:33Z</time>
      </trkpt>
      <trkpt lat="45.76544" lon="4.66078">
        <ele>435</ele>
        <time>2012-09-02T08:42:37Z</time>
      </trkpt>
      <trkpt lat="45.76536" lon="4.66084">
        <ele>435</ele>
        <time>2012-09-02T08:42:42Z</time>
      </trkpt>
      <trkpt lat="45.76537" lon="4.66094">
        <ele>432</ele>
        <time>2012-09-02T08:42:46Z</time>
      </trkpt>
      <trkpt lat="45.76535" lon="4.66107">
        <ele>429</ele>
        <time>2012-09-02T08:42:53Z</time>
      </trkpt>
      <trkpt lat="45.76535" lon="4.66114">
        <ele>430</ele>
        <time>2012-09-02T08:43:02Z</time>
      </trkpt>
      <trkpt lat="45.76545" lon="4.66114">
        <ele>436</ele>
        <time>2012-09-02T08:43:27Z</time>
      </trkpt>
      <trkpt lat="45.76555" lon="4.66112">
        <ele>443</ele>
        <time>2012-09-02T08:43:47Z</time>
      </trkpt>
      <trkpt lat="45.7656" lon="4.6611">
        <ele>442</ele>
        <time>2012-09-02T08:43:51Z</time>
      </trkpt>
      <trkpt lat="45.76589" lon="4.661">
        <ele>424</ele>
        <time>2012-09-02T08:44:44Z</time>
      </trkpt>
      <trkpt lat="45.76593" lon="4.661">
        <ele>424</ele>
        <time>2012-09-02T08:45:02Z</time>
      </trkpt>
      <trkpt lat="45.76602" lon="4.66101">
        <ele>424</ele>
        <time>2012-09-02T08:45:16Z</time>
      </trkpt>
      <trkpt lat="45.76607" lon="4.66102">
        <ele>423</ele>
        <time>2012-09-02T08:45:21Z</time>
      </trkpt>
      <trkpt lat="45.76612" lon="4.66101">
        <ele>423</ele>
        <time>2012-09-02T08:45:25Z</time>
      </trkpt>
      <trkpt lat="45.76617" lon="4.66102">
        <ele>423</ele>
        <time>2012-09-02T08:45:29Z</time>
      </trkpt>
      <trkpt lat="45.76621" lon="4.66101">
        <ele>425</ele>
        <time>2012-09-02T08:45:34Z</time>
      </trkpt>
      <trkpt lat="45.76626" lon="4.66099">
        <ele>427</ele>
        <time>2012-09-02T08:45:39Z</time>
      </trkpt>
      <trkpt lat="45.76631" lon="4.66099">
        <ele>427</ele>
        <time>2012-09-02T08:45:43Z</time>
      </trkpt>
      <trkpt lat="45.76636" lon="4.66099">
        <ele>427</ele>
        <time>2012-09-02T08:45:46Z</time>
      </trkpt>
      <trkpt lat="45.7664" lon="4.661">
        <ele>426</ele>
        <time>2012-09-02T08:45:50Z</time>
      </trkpt>
      <trkpt lat="45.76646" lon="4.66102">
        <ele>424</ele>
        <time>2012-09-02T08:45:55Z</time>
      </trkpt>
      <trkpt lat="45.76652" lon="4.66104">
        <ele>423</ele>
        <time>2012-09-02T08:45:59Z</time>
      </trkpt>
      <trkpt lat="45.76657" lon="4.66104">
        <ele>426</ele>
        <time>2012-09-02T08:46:04Z</time>
      </trkpt>
      <trkpt lat="45.76663" lon="4.66106">
        <ele>427</ele>
        <time>2012-09-02T08:46:09Z</time>
      </trkpt>
      <trkpt lat="45.76667" lon="4.66109">
        <ele>427</ele>
        <time>2012-09-02T08:46:12Z</time>
      </trkpt>
      <trkpt lat="45.76671" lon="4.66113">
        <ele>426</ele>
        <time>2012-09-02T08:46:15Z</time>
      </trkpt>
      <trkpt lat="45.76675" lon="4.66116">
        <ele>426</ele>
        <time>2012-09-02T08:46:18Z</time>
      </trkpt>
      <trkpt lat="45.76679" lon="4.6612">
        <ele>425</ele>
        <time>2012-09-02T08:46:23Z</time>
      </trkpt>
      <trkpt lat="45.76684" lon="4.66124">
        <ele>424</ele>
        <time>2012-09-02T08:46:28Z</time>
      </trkpt>
      <trkpt lat="45.76686" lon="4.6613">
        <ele>423</ele>
        <time>2012-09-02T08:46:32Z</time>
      </trkpt>
      <trkpt lat="45.76689" lon="4.66135">
        <ele>424</ele>
        <time>2012-09-02T08:46:36Z</time>
      </trkpt>
      <trkpt lat="45.76693" lon="4.6614">
        <ele>424</ele>
        <time>2012-09-02T08:46:40Z</time>
      </trkpt>
    </trkseg>
  </trk>
</gpx>